<?xml version="1.0" encoding="UTF-8" standalone="no" ?>
<gpx xmlns="http://www.topografix.com/GPX/1/1" xmlns:xsi="http://www.w3.org/2001/XMLSchema-instance" xsi:schemaLocation="http://www.topografix.com/GPX/1/1 http://www.topografix.com/GPX/1/1/gpx.xsd" version="1.1" creator="VisuGPX - https://www.visugpx.com">
  <metadata>
    <name>Rando Vallespir</name>
    <desc><![CDATA[Amélie les Bains - Palalda - Montbolo]]></desc>
  </metadata>
  <trk>
    <name><![CDATA[1173029862_rando.amelie.les.bains]]></name>
    <trkseg>
      <trkpt lat="42.47514" lon="2.66418">
        <ele>234</ele>
        <time>2007-03-04T07:56:21Z</time>
      </trkpt>
      <trkpt lat="42.4752" lon="2.66412">
        <ele>234</ele>
        <time>2007-03-04T07:56:23Z</time>
      </trkpt>
      <trkpt lat="42.47536" lon="2.66382">
        <ele>233</ele>
        <time>2007-03-04T07:56:31Z</time>
      </trkpt>
      <trkpt lat="42.47533" lon="2.66364">
        <ele>232</ele>
        <time>2007-03-04T07:56:34Z</time>
      </trkpt>
      <trkpt lat="42.47518" lon="2.66327">
        <ele>231</ele>
        <time>2007-03-04T07:56:41Z</time>
      </trkpt>
      <trkpt lat="42.4751" lon="2.663">
        <ele>232</ele>
        <time>2007-03-04T07:56:46Z</time>
      </trkpt>
      <trkpt lat="42.47506" lon="2.66283">
        <ele>232</ele>
        <time>2007-03-04T07:56:49Z</time>
      </trkpt>
      <trkpt lat="42.47491" lon="2.66262">
        <ele>231</ele>
        <time>2007-03-04T07:56:54Z</time>
      </trkpt>
      <trkpt lat="42.47462" lon="2.66229">
        <ele>233</ele>
        <time>2007-03-04T07:57:03Z</time>
      </trkpt>
      <trkpt lat="42.47433" lon="2.66198">
        <ele>236</ele>
        <time>2007-03-04T07:57:12Z</time>
      </trkpt>
      <trkpt lat="42.47429" lon="2.66194">
        <ele>236</ele>
        <time>2007-03-04T07:57:13Z</time>
      </trkpt>
      <trkpt lat="42.47402" lon="2.6616">
        <ele>233</ele>
        <time>2007-03-04T07:57:22Z</time>
      </trkpt>
      <trkpt lat="42.47378" lon="2.66134">
        <ele>230</ele>
        <time>2007-03-04T07:57:30Z</time>
      </trkpt>
      <trkpt lat="42.47358" lon="2.66112">
        <ele>229</ele>
        <time>2007-03-04T07:57:36Z</time>
      </trkpt>
      <trkpt lat="42.47344" lon="2.66098">
        <ele>230</ele>
        <time>2007-03-04T07:57:40Z</time>
      </trkpt>
      <trkpt lat="42.47326" lon="2.66083">
        <ele>230</ele>
        <time>2007-03-04T07:57:45Z</time>
      </trkpt>
      <trkpt lat="42.47311" lon="2.66067">
        <ele>234</ele>
        <time>2007-03-04T07:57:49Z</time>
      </trkpt>
      <trkpt lat="42.47297" lon="2.66049">
        <ele>234</ele>
        <time>2007-03-04T07:57:54Z</time>
      </trkpt>
      <trkpt lat="42.47286" lon="2.66037">
        <ele>238</ele>
        <time>2007-03-04T07:57:58Z</time>
      </trkpt>
      <trkpt lat="42.4728" lon="2.66032">
        <ele>240</ele>
        <time>2007-03-04T07:58:00Z</time>
      </trkpt>
      <trkpt lat="42.4727" lon="2.66024">
        <ele>243</ele>
        <time>2007-03-04T07:58:04Z</time>
      </trkpt>
      <trkpt lat="42.47256" lon="2.66013">
        <ele>243</ele>
        <time>2007-03-04T07:58:08Z</time>
      </trkpt>
      <trkpt lat="42.47237" lon="2.66003">
        <ele>245</ele>
        <time>2007-03-04T07:58:12Z</time>
      </trkpt>
      <trkpt lat="42.47233" lon="2.65999">
        <ele>244</ele>
        <time>2007-03-04T07:58:13Z</time>
      </trkpt>
      <trkpt lat="42.47219" lon="2.65978">
        <ele>242</ele>
        <time>2007-03-04T07:58:17Z</time>
      </trkpt>
      <trkpt lat="42.47205" lon="2.65935">
        <ele>240</ele>
        <time>2007-03-04T07:58:24Z</time>
      </trkpt>
      <trkpt lat="42.47184" lon="2.65905">
        <ele>242</ele>
        <time>2007-03-04T07:58:31Z</time>
      </trkpt>
      <trkpt lat="42.47161" lon="2.65874">
        <ele>243</ele>
        <time>2007-03-04T07:58:39Z</time>
      </trkpt>
      <trkpt lat="42.47157" lon="2.6587">
        <ele>244</ele>
        <time>2007-03-04T07:58:40Z</time>
      </trkpt>
      <trkpt lat="42.47149" lon="2.65857">
        <ele>244</ele>
        <time>2007-03-04T07:58:43Z</time>
      </trkpt>
      <trkpt lat="42.4714" lon="2.65846">
        <ele>245</ele>
        <time>2007-03-04T07:58:46Z</time>
      </trkpt>
      <trkpt lat="42.47124" lon="2.65828">
        <ele>247</ele>
        <time>2007-03-04T07:58:51Z</time>
      </trkpt>
      <trkpt lat="42.47117" lon="2.65821">
        <ele>247</ele>
        <time>2007-03-04T07:58:53Z</time>
      </trkpt>
      <trkpt lat="42.47098" lon="2.65809">
        <ele>244</ele>
        <time>2007-03-04T07:58:58Z</time>
      </trkpt>
      <trkpt lat="42.47088" lon="2.65795">
        <ele>242</ele>
        <time>2007-03-04T07:59:02Z</time>
      </trkpt>
      <trkpt lat="42.4708" lon="2.65773">
        <ele>245</ele>
        <time>2007-03-04T07:59:06Z</time>
      </trkpt>
      <trkpt lat="42.47061" lon="2.65733">
        <ele>247</ele>
        <time>2007-03-04T07:59:14Z</time>
      </trkpt>
      <trkpt lat="42.47056" lon="2.65723">
        <ele>247</ele>
        <time>2007-03-04T07:59:16Z</time>
      </trkpt>
      <trkpt lat="42.47053" lon="2.65712">
        <ele>246</ele>
        <time>2007-03-04T07:59:18Z</time>
      </trkpt>
      <trkpt lat="42.47049" lon="2.65696">
        <ele>245</ele>
        <time>2007-03-04T07:59:21Z</time>
      </trkpt>
      <trkpt lat="42.47034" lon="2.65655">
        <ele>247</ele>
        <time>2007-03-04T07:59:29Z</time>
      </trkpt>
      <trkpt lat="42.47024" lon="2.65624">
        <ele>247</ele>
        <time>2007-03-04T07:59:35Z</time>
      </trkpt>
      <trkpt lat="42.47023" lon="2.65605">
        <ele>247</ele>
        <time>2007-03-04T07:59:38Z</time>
      </trkpt>
      <trkpt lat="42.47029" lon="2.65572">
        <ele>245</ele>
        <time>2007-03-04T07:59:44Z</time>
      </trkpt>
      <trkpt lat="42.47032" lon="2.6556">
        <ele>245</ele>
        <time>2007-03-04T07:59:46Z</time>
      </trkpt>
      <trkpt lat="42.47033" lon="2.65534">
        <ele>245</ele>
        <time>2007-03-04T07:59:50Z</time>
      </trkpt>
      <trkpt lat="42.47025" lon="2.65486">
        <ele>245</ele>
        <time>2007-03-04T07:59:58Z</time>
      </trkpt>
      <trkpt lat="42.47023" lon="2.65476">
        <ele>245</ele>
        <time>2007-03-04T08:00:00Z</time>
      </trkpt>
      <trkpt lat="42.47019" lon="2.65437">
        <ele>243</ele>
        <time>2007-03-04T08:00:07Z</time>
      </trkpt>
      <trkpt lat="42.47011" lon="2.65396">
        <ele>244</ele>
        <time>2007-03-04T08:00:15Z</time>
      </trkpt>
      <trkpt lat="42.47004" lon="2.65364">
        <ele>247</ele>
        <time>2007-03-04T08:00:22Z</time>
      </trkpt>
      <trkpt lat="42.46998" lon="2.6534">
        <ele>246</ele>
        <time>2007-03-04T08:00:28Z</time>
      </trkpt>
      <trkpt lat="42.46996" lon="2.6532">
        <ele>246</ele>
        <time>2007-03-04T08:00:33Z</time>
      </trkpt>
      <trkpt lat="42.46998" lon="2.65288">
        <ele>246</ele>
        <time>2007-03-04T08:00:40Z</time>
      </trkpt>
      <trkpt lat="42.47006" lon="2.65266">
        <ele>247</ele>
        <time>2007-03-04T08:00:45Z</time>
      </trkpt>
      <trkpt lat="42.4701" lon="2.65233">
        <ele>247</ele>
        <time>2007-03-04T08:00:51Z</time>
      </trkpt>
      <trkpt lat="42.4701" lon="2.65227">
        <ele>247</ele>
        <time>2007-03-04T08:00:52Z</time>
      </trkpt>
      <trkpt lat="42.47004" lon="2.652">
        <ele>247</ele>
        <time>2007-03-04T08:00:57Z</time>
      </trkpt>
      <trkpt lat="42.47002" lon="2.65189">
        <ele>249</ele>
        <time>2007-03-04T08:00:59Z</time>
      </trkpt>
      <trkpt lat="42.46996" lon="2.6516">
        <ele>252</ele>
        <time>2007-03-04T08:01:05Z</time>
      </trkpt>
      <trkpt lat="42.46991" lon="2.65138">
        <ele>252</ele>
        <time>2007-03-04T08:01:09Z</time>
      </trkpt>
      <trkpt lat="42.46982" lon="2.651">
        <ele>251</ele>
        <time>2007-03-04T08:01:14Z</time>
      </trkpt>
      <trkpt lat="42.46983" lon="2.65086">
        <ele>248</ele>
        <time>2007-03-04T08:01:16Z</time>
      </trkpt>
      <trkpt lat="42.46982" lon="2.65049">
        <ele>247</ele>
        <time>2007-03-04T08:01:22Z</time>
      </trkpt>
      <trkpt lat="42.46982" lon="2.65011">
        <ele>246</ele>
        <time>2007-03-04T08:01:28Z</time>
      </trkpt>
      <trkpt lat="42.46982" lon="2.65003">
        <ele>246</ele>
        <time>2007-03-04T08:01:29Z</time>
      </trkpt>
      <trkpt lat="42.4698" lon="2.64976">
        <ele>246</ele>
        <time>2007-03-04T08:01:33Z</time>
      </trkpt>
      <trkpt lat="42.46975" lon="2.64953">
        <ele>245</ele>
        <time>2007-03-04T08:01:37Z</time>
      </trkpt>
      <trkpt lat="42.46965" lon="2.64934">
        <ele>245</ele>
        <time>2007-03-04T08:01:41Z</time>
      </trkpt>
      <trkpt lat="42.46955" lon="2.64914">
        <ele>245</ele>
        <time>2007-03-04T08:01:47Z</time>
      </trkpt>
      <trkpt lat="42.46948" lon="2.64889">
        <ele>247</ele>
        <time>2007-03-04T08:01:53Z</time>
      </trkpt>
      <trkpt lat="42.46946" lon="2.64866">
        <ele>251</ele>
        <time>2007-03-04T08:01:57Z</time>
      </trkpt>
      <trkpt lat="42.46943" lon="2.64843">
        <ele>252</ele>
        <time>2007-03-04T08:02:01Z</time>
      </trkpt>
      <trkpt lat="42.46937" lon="2.64817">
        <ele>255</ele>
        <time>2007-03-04T08:02:05Z</time>
      </trkpt>
      <trkpt lat="42.46918" lon="2.64783">
        <ele>252</ele>
        <time>2007-03-04T08:02:12Z</time>
      </trkpt>
      <trkpt lat="42.46902" lon="2.64749">
        <ele>253</ele>
        <time>2007-03-04T08:02:19Z</time>
      </trkpt>
      <trkpt lat="42.46877" lon="2.64706">
        <ele>253</ele>
        <time>2007-03-04T08:02:28Z</time>
      </trkpt>
      <trkpt lat="42.46872" lon="2.64698">
        <ele>252</ele>
        <time>2007-03-04T08:02:30Z</time>
      </trkpt>
      <trkpt lat="42.46849" lon="2.64669">
        <ele>253</ele>
        <time>2007-03-04T08:02:37Z</time>
      </trkpt>
      <trkpt lat="42.46836" lon="2.64658">
        <ele>256</ele>
        <time>2007-03-04T08:02:40Z</time>
      </trkpt>
      <trkpt lat="42.46801" lon="2.64625">
        <ele>256</ele>
        <time>2007-03-04T08:02:50Z</time>
      </trkpt>
      <trkpt lat="42.46777" lon="2.64601">
        <ele>255</ele>
        <time>2007-03-04T08:02:57Z</time>
      </trkpt>
      <trkpt lat="42.46771" lon="2.64581">
        <ele>255</ele>
        <time>2007-03-04T08:03:01Z</time>
      </trkpt>
      <trkpt lat="42.4677" lon="2.64569">
        <ele>255</ele>
        <time>2007-03-04T08:03:03Z</time>
      </trkpt>
      <trkpt lat="42.46759" lon="2.64537">
        <ele>255</ele>
        <time>2007-03-04T08:03:09Z</time>
      </trkpt>
      <trkpt lat="42.46743" lon="2.64502">
        <ele>256</ele>
        <time>2007-03-04T08:03:16Z</time>
      </trkpt>
      <trkpt lat="42.46745" lon="2.64479">
        <ele>256</ele>
        <time>2007-03-04T08:03:20Z</time>
      </trkpt>
      <trkpt lat="42.46751" lon="2.64464">
        <ele>256</ele>
        <time>2007-03-04T08:03:23Z</time>
      </trkpt>
      <trkpt lat="42.46765" lon="2.64437">
        <ele>257</ele>
        <time>2007-03-04T08:03:29Z</time>
      </trkpt>
      <trkpt lat="42.46779" lon="2.644">
        <ele>263</ele>
        <time>2007-03-04T08:03:38Z</time>
      </trkpt>
      <trkpt lat="42.46783" lon="2.64386">
        <ele>268</ele>
        <time>2007-03-04T08:03:42Z</time>
      </trkpt>
      <trkpt lat="42.46794" lon="2.64367">
        <ele>271</ele>
        <time>2007-03-04T08:03:48Z</time>
      </trkpt>
      <trkpt lat="42.46797" lon="2.64354">
        <ele>271</ele>
        <time>2007-03-04T08:03:52Z</time>
      </trkpt>
      <trkpt lat="42.46807" lon="2.64329">
        <ele>270</ele>
        <time>2007-03-04T08:04:00Z</time>
      </trkpt>
      <trkpt lat="42.46812" lon="2.64321">
        <ele>270</ele>
        <time>2007-03-04T08:04:03Z</time>
      </trkpt>
      <trkpt lat="42.46815" lon="2.64328">
        <ele>270</ele>
        <time>2007-03-04T08:04:07Z</time>
      </trkpt>
      <trkpt lat="42.46813" lon="2.64334">
        <ele>271</ele>
        <time>2007-03-04T08:04:09Z</time>
      </trkpt>
      <trkpt lat="42.46812" lon="2.6434">
        <ele>272</ele>
        <time>2007-03-04T08:04:11Z</time>
      </trkpt>
      <trkpt lat="42.46818" lon="2.64345">
        <ele>272</ele>
        <time>2007-03-04T08:04:15Z</time>
      </trkpt>
      <trkpt lat="42.46825" lon="2.64335">
        <ele>274</ele>
        <time>2007-03-04T08:04:19Z</time>
      </trkpt>
      <trkpt lat="42.46828" lon="2.64327">
        <ele>275</ele>
        <time>2007-03-04T08:04:22Z</time>
      </trkpt>
      <trkpt lat="42.46839" lon="2.64314">
        <ele>277</ele>
        <time>2007-03-04T08:04:28Z</time>
      </trkpt>
      <trkpt lat="42.46839" lon="2.64308">
        <ele>277</ele>
        <time>2007-03-04T08:04:30Z</time>
      </trkpt>
      <trkpt lat="42.46834" lon="2.64289">
        <ele>278</ele>
        <time>2007-03-04T08:04:36Z</time>
      </trkpt>
      <trkpt lat="42.46836" lon="2.64264">
        <ele>280</ele>
        <time>2007-03-04T08:04:43Z</time>
      </trkpt>
      <trkpt lat="42.46835" lon="2.64238">
        <ele>282</ele>
        <time>2007-03-04T08:04:51Z</time>
      </trkpt>
      <trkpt lat="42.46828" lon="2.64223">
        <ele>282</ele>
        <time>2007-03-04T08:04:56Z</time>
      </trkpt>
      <trkpt lat="42.46819" lon="2.64195">
        <ele>283</ele>
        <time>2007-03-04T08:05:04Z</time>
      </trkpt>
      <trkpt lat="42.46819" lon="2.64178">
        <ele>284</ele>
        <time>2007-03-04T08:05:09Z</time>
      </trkpt>
      <trkpt lat="42.46825" lon="2.64154">
        <ele>286</ele>
        <time>2007-03-04T08:05:17Z</time>
      </trkpt>
      <trkpt lat="42.46826" lon="2.64146">
        <ele>286</ele>
        <time>2007-03-04T08:05:20Z</time>
      </trkpt>
      <trkpt lat="42.4683" lon="2.6415">
        <ele>288</ele>
        <time>2007-03-04T08:05:24Z</time>
      </trkpt>
      <trkpt lat="42.4683" lon="2.64155">
        <ele>288</ele>
        <time>2007-03-04T08:05:26Z</time>
      </trkpt>
      <trkpt lat="42.46834" lon="2.64179">
        <ele>292</ele>
        <time>2007-03-04T08:05:34Z</time>
      </trkpt>
      <trkpt lat="42.46848" lon="2.642">
        <ele>292</ele>
        <time>2007-03-04T08:05:43Z</time>
      </trkpt>
      <trkpt lat="42.46853" lon="2.64205">
        <ele>292</ele>
        <time>2007-03-04T08:05:46Z</time>
      </trkpt>
      <trkpt lat="42.46859" lon="2.64201">
        <ele>292</ele>
        <time>2007-03-04T08:05:50Z</time>
      </trkpt>
      <trkpt lat="42.46857" lon="2.64197">
        <ele>292</ele>
        <time>2007-03-04T08:05:52Z</time>
      </trkpt>
      <trkpt lat="42.46849" lon="2.6418">
        <ele>292</ele>
        <time>2007-03-04T08:05:58Z</time>
      </trkpt>
      <trkpt lat="42.46853" lon="2.64156">
        <ele>291</ele>
        <time>2007-03-04T08:06:05Z</time>
      </trkpt>
      <trkpt lat="42.46865" lon="2.64136">
        <ele>291</ele>
        <time>2007-03-04T08:06:11Z</time>
      </trkpt>
      <trkpt lat="42.46868" lon="2.64114">
        <ele>294</ele>
        <time>2007-03-04T08:06:16Z</time>
      </trkpt>
      <trkpt lat="42.46861" lon="2.64103">
        <ele>297</ele>
        <time>2007-03-04T08:06:20Z</time>
      </trkpt>
      <trkpt lat="42.46848" lon="2.64093">
        <ele>298</ele>
        <time>2007-03-04T08:06:26Z</time>
      </trkpt>
      <trkpt lat="42.46841" lon="2.64079">
        <ele>302</ele>
        <time>2007-03-04T08:06:31Z</time>
      </trkpt>
      <trkpt lat="42.46834" lon="2.64054">
        <ele>303</ele>
        <time>2007-03-04T08:06:39Z</time>
      </trkpt>
      <trkpt lat="42.4683" lon="2.6403">
        <ele>304</ele>
        <time>2007-03-04T08:06:46Z</time>
      </trkpt>
      <trkpt lat="42.46834" lon="2.64011">
        <ele>305</ele>
        <time>2007-03-04T08:06:52Z</time>
      </trkpt>
      <trkpt lat="42.46839" lon="2.63985">
        <ele>306</ele>
        <time>2007-03-04T08:06:59Z</time>
      </trkpt>
      <trkpt lat="42.46845" lon="2.63951">
        <ele>309</ele>
        <time>2007-03-04T08:07:09Z</time>
      </trkpt>
      <trkpt lat="42.46845" lon="2.63927">
        <ele>311</ele>
        <time>2007-03-04T08:07:16Z</time>
      </trkpt>
      <trkpt lat="42.46848" lon="2.63897">
        <ele>316</ele>
        <time>2007-03-04T08:07:24Z</time>
      </trkpt>
      <trkpt lat="42.4685" lon="2.63872">
        <ele>318</ele>
        <time>2007-03-04T08:07:31Z</time>
      </trkpt>
      <trkpt lat="42.46858" lon="2.6387">
        <ele>319</ele>
        <time>2007-03-04T08:07:35Z</time>
      </trkpt>
      <trkpt lat="42.46857" lon="2.63877">
        <ele>319</ele>
        <time>2007-03-04T08:07:37Z</time>
      </trkpt>
      <trkpt lat="42.46854" lon="2.63907">
        <ele>319</ele>
        <time>2007-03-04T08:07:43Z</time>
      </trkpt>
      <trkpt lat="42.46858" lon="2.63949">
        <ele>320</ele>
        <time>2007-03-04T08:07:51Z</time>
      </trkpt>
      <trkpt lat="42.46857" lon="2.63983">
        <ele>323</ele>
        <time>2007-03-04T08:07:58Z</time>
      </trkpt>
      <trkpt lat="42.46858" lon="2.64016">
        <ele>324</ele>
        <time>2007-03-04T08:08:04Z</time>
      </trkpt>
      <trkpt lat="42.46859" lon="2.64022">
        <ele>325</ele>
        <time>2007-03-04T08:08:05Z</time>
      </trkpt>
      <trkpt lat="42.46871" lon="2.64041">
        <ele>327</ele>
        <time>2007-03-04T08:08:10Z</time>
      </trkpt>
      <trkpt lat="42.46883" lon="2.64047">
        <ele>328</ele>
        <time>2007-03-04T08:08:15Z</time>
      </trkpt>
      <trkpt lat="42.46903" lon="2.64048">
        <ele>329</ele>
        <time>2007-03-04T08:08:22Z</time>
      </trkpt>
      <trkpt lat="42.4692" lon="2.64051">
        <ele>329</ele>
        <time>2007-03-04T08:08:28Z</time>
      </trkpt>
      <trkpt lat="42.4693" lon="2.64062">
        <ele>328</ele>
        <time>2007-03-04T08:08:33Z</time>
      </trkpt>
      <trkpt lat="42.46932" lon="2.64082">
        <ele>333</ele>
        <time>2007-03-04T08:08:38Z</time>
      </trkpt>
      <trkpt lat="42.46939" lon="2.64113">
        <ele>336</ele>
        <time>2007-03-04T08:08:48Z</time>
      </trkpt>
      <trkpt lat="42.46948" lon="2.64134">
        <ele>336</ele>
        <time>2007-03-04T08:08:56Z</time>
      </trkpt>
      <trkpt lat="42.46963" lon="2.6415">
        <ele>335</ele>
        <time>2007-03-04T08:09:04Z</time>
      </trkpt>
      <trkpt lat="42.46972" lon="2.6417">
        <ele>338</ele>
        <time>2007-03-04T08:09:11Z</time>
      </trkpt>
      <trkpt lat="42.46975" lon="2.64192">
        <ele>340</ele>
        <time>2007-03-04T08:09:18Z</time>
      </trkpt>
      <trkpt lat="42.46978" lon="2.64213">
        <ele>342</ele>
        <time>2007-03-04T08:09:25Z</time>
      </trkpt>
      <trkpt lat="42.4699" lon="2.64231">
        <ele>344</ele>
        <time>2007-03-04T08:09:33Z</time>
      </trkpt>
      <trkpt lat="42.47004" lon="2.64239">
        <ele>344</ele>
        <time>2007-03-04T08:09:39Z</time>
      </trkpt>
      <trkpt lat="42.47017" lon="2.64255">
        <ele>343</ele>
        <time>2007-03-04T08:09:45Z</time>
      </trkpt>
      <trkpt lat="42.47023" lon="2.64282">
        <ele>345</ele>
        <time>2007-03-04T08:09:51Z</time>
      </trkpt>
      <trkpt lat="42.4702" lon="2.64306">
        <ele>345</ele>
        <time>2007-03-04T08:09:56Z</time>
      </trkpt>
      <trkpt lat="42.47018" lon="2.64334">
        <ele>345</ele>
        <time>2007-03-04T08:10:02Z</time>
      </trkpt>
      <trkpt lat="42.47025" lon="2.64335">
        <ele>346</ele>
        <time>2007-03-04T08:10:06Z</time>
      </trkpt>
      <trkpt lat="42.47027" lon="2.64328">
        <ele>347</ele>
        <time>2007-03-04T08:10:09Z</time>
      </trkpt>
      <trkpt lat="42.47032" lon="2.64306">
        <ele>349</ele>
        <time>2007-03-04T08:10:18Z</time>
      </trkpt>
      <trkpt lat="42.47037" lon="2.64285">
        <ele>350</ele>
        <time>2007-03-04T08:10:26Z</time>
      </trkpt>
      <trkpt lat="42.47037" lon="2.6427">
        <ele>352</ele>
        <time>2007-03-04T08:10:32Z</time>
      </trkpt>
      <trkpt lat="42.47033" lon="2.64251">
        <ele>356</ele>
        <time>2007-03-04T08:10:40Z</time>
      </trkpt>
      <trkpt lat="42.47029" lon="2.64234">
        <ele>358</ele>
        <time>2007-03-04T08:10:47Z</time>
      </trkpt>
      <trkpt lat="42.47023" lon="2.6422">
        <ele>360</ele>
        <time>2007-03-04T08:10:53Z</time>
      </trkpt>
      <trkpt lat="42.47016" lon="2.64204">
        <ele>360</ele>
        <time>2007-03-04T08:11:00Z</time>
      </trkpt>
      <trkpt lat="42.47015" lon="2.6419">
        <ele>360</ele>
        <time>2007-03-04T08:11:06Z</time>
      </trkpt>
      <trkpt lat="42.47013" lon="2.64168">
        <ele>363</ele>
        <time>2007-03-04T08:11:14Z</time>
      </trkpt>
      <trkpt lat="42.47012" lon="2.64151">
        <ele>364</ele>
        <time>2007-03-04T08:11:20Z</time>
      </trkpt>
      <trkpt lat="42.47008" lon="2.64135">
        <ele>365</ele>
        <time>2007-03-04T08:11:26Z</time>
      </trkpt>
      <trkpt lat="42.47003" lon="2.64116">
        <ele>367</ele>
        <time>2007-03-04T08:11:34Z</time>
      </trkpt>
      <trkpt lat="42.46999" lon="2.64099">
        <ele>367</ele>
        <time>2007-03-04T08:11:41Z</time>
      </trkpt>
      <trkpt lat="42.46996" lon="2.6408">
        <ele>370</ele>
        <time>2007-03-04T08:11:48Z</time>
      </trkpt>
      <trkpt lat="42.46995" lon="2.64057">
        <ele>372</ele>
        <time>2007-03-04T08:11:57Z</time>
      </trkpt>
      <trkpt lat="42.46999" lon="2.64036">
        <ele>376</ele>
        <time>2007-03-04T08:12:05Z</time>
      </trkpt>
      <trkpt lat="42.47006" lon="2.64019">
        <ele>378</ele>
        <time>2007-03-04T08:12:12Z</time>
      </trkpt>
      <trkpt lat="42.47017" lon="2.64007">
        <ele>380</ele>
        <time>2007-03-04T08:12:19Z</time>
      </trkpt>
      <trkpt lat="42.47031" lon="2.64002">
        <ele>381</ele>
        <time>2007-03-04T08:12:27Z</time>
      </trkpt>
      <trkpt lat="42.47045" lon="2.64002">
        <ele>380</ele>
        <time>2007-03-04T08:12:34Z</time>
      </trkpt>
      <trkpt lat="42.47056" lon="2.64003">
        <ele>382</ele>
        <time>2007-03-04T08:12:40Z</time>
      </trkpt>
      <trkpt lat="42.47067" lon="2.64008">
        <ele>382</ele>
        <time>2007-03-04T08:12:46Z</time>
      </trkpt>
      <trkpt lat="42.47079" lon="2.64015">
        <ele>383</ele>
        <time>2007-03-04T08:12:53Z</time>
      </trkpt>
      <trkpt lat="42.4709" lon="2.64023">
        <ele>387</ele>
        <time>2007-03-04T08:13:01Z</time>
      </trkpt>
      <trkpt lat="42.47106" lon="2.64027">
        <ele>390</ele>
        <time>2007-03-04T08:13:10Z</time>
      </trkpt>
      <trkpt lat="42.47121" lon="2.64036">
        <ele>393</ele>
        <time>2007-03-04T08:13:18Z</time>
      </trkpt>
      <trkpt lat="42.47136" lon="2.64044">
        <ele>394</ele>
        <time>2007-03-04T08:13:26Z</time>
      </trkpt>
      <trkpt lat="42.4715" lon="2.6406">
        <ele>397</ele>
        <time>2007-03-04T08:13:35Z</time>
      </trkpt>
      <trkpt lat="42.47161" lon="2.64073">
        <ele>401</ele>
        <time>2007-03-04T08:13:42Z</time>
      </trkpt>
      <trkpt lat="42.47178" lon="2.64084">
        <ele>404</ele>
        <time>2007-03-04T08:13:50Z</time>
      </trkpt>
      <trkpt lat="42.47199" lon="2.64088">
        <ele>403</ele>
        <time>2007-03-04T08:14:00Z</time>
      </trkpt>
      <trkpt lat="42.47217" lon="2.64093">
        <ele>403</ele>
        <time>2007-03-04T08:14:08Z</time>
      </trkpt>
      <trkpt lat="42.47236" lon="2.64101">
        <ele>402</ele>
        <time>2007-03-04T08:14:16Z</time>
      </trkpt>
      <trkpt lat="42.47252" lon="2.6411">
        <ele>401</ele>
        <time>2007-03-04T08:14:23Z</time>
      </trkpt>
      <trkpt lat="42.47268" lon="2.6412">
        <ele>401</ele>
        <time>2007-03-04T08:14:31Z</time>
      </trkpt>
      <trkpt lat="42.47284" lon="2.64127">
        <ele>399</ele>
        <time>2007-03-04T08:14:38Z</time>
      </trkpt>
      <trkpt lat="42.473" lon="2.64142">
        <ele>403</ele>
        <time>2007-03-04T08:14:46Z</time>
      </trkpt>
      <trkpt lat="42.47313" lon="2.64158">
        <ele>403</ele>
        <time>2007-03-04T08:14:54Z</time>
      </trkpt>
      <trkpt lat="42.47325" lon="2.64179">
        <ele>403</ele>
        <time>2007-03-04T08:15:04Z</time>
      </trkpt>
      <trkpt lat="42.47339" lon="2.64199">
        <ele>410</ele>
        <time>2007-03-04T08:15:13Z</time>
      </trkpt>
      <trkpt lat="42.47353" lon="2.64219">
        <ele>416</ele>
        <time>2007-03-04T08:15:22Z</time>
      </trkpt>
      <trkpt lat="42.47362" lon="2.64229">
        <ele>418</ele>
        <time>2007-03-04T08:15:27Z</time>
      </trkpt>
      <trkpt lat="42.47376" lon="2.64232">
        <ele>420</ele>
        <time>2007-03-04T08:15:33Z</time>
      </trkpt>
      <trkpt lat="42.47388" lon="2.64221">
        <ele>421</ele>
        <time>2007-03-04T08:15:39Z</time>
      </trkpt>
      <trkpt lat="42.47398" lon="2.6421">
        <ele>422</ele>
        <time>2007-03-04T08:15:45Z</time>
      </trkpt>
      <trkpt lat="42.47408" lon="2.64198">
        <ele>424</ele>
        <time>2007-03-04T08:15:51Z</time>
      </trkpt>
      <trkpt lat="42.47416" lon="2.64189">
        <ele>425</ele>
        <time>2007-03-04T08:15:56Z</time>
      </trkpt>
      <trkpt lat="42.47425" lon="2.64178">
        <ele>428</ele>
        <time>2007-03-04T08:16:02Z</time>
      </trkpt>
      <trkpt lat="42.47429" lon="2.64161">
        <ele>429</ele>
        <time>2007-03-04T08:16:08Z</time>
      </trkpt>
      <trkpt lat="42.47431" lon="2.6414">
        <ele>430</ele>
        <time>2007-03-04T08:16:15Z</time>
      </trkpt>
      <trkpt lat="42.47441" lon="2.64119">
        <ele>431</ele>
        <time>2007-03-04T08:16:23Z</time>
      </trkpt>
      <trkpt lat="42.4745" lon="2.64107">
        <ele>434</ele>
        <time>2007-03-04T08:16:29Z</time>
      </trkpt>
      <trkpt lat="42.47464" lon="2.64092">
        <ele>437</ele>
        <time>2007-03-04T08:16:36Z</time>
      </trkpt>
      <trkpt lat="42.47476" lon="2.6408">
        <ele>439</ele>
        <time>2007-03-04T08:16:43Z</time>
      </trkpt>
      <trkpt lat="42.47488" lon="2.64071">
        <ele>443</ele>
        <time>2007-03-04T08:16:50Z</time>
      </trkpt>
      <trkpt lat="42.47499" lon="2.64062">
        <ele>446</ele>
        <time>2007-03-04T08:16:56Z</time>
      </trkpt>
      <trkpt lat="42.47513" lon="2.64046">
        <ele>446</ele>
        <time>2007-03-04T08:17:05Z</time>
      </trkpt>
      <trkpt lat="42.47523" lon="2.64038">
        <ele>450</ele>
        <time>2007-03-04T08:17:10Z</time>
      </trkpt>
      <trkpt lat="42.47535" lon="2.64026">
        <ele>451</ele>
        <time>2007-03-04T08:17:16Z</time>
      </trkpt>
      <trkpt lat="42.47547" lon="2.64014">
        <ele>451</ele>
        <time>2007-03-04T08:17:22Z</time>
      </trkpt>
      <trkpt lat="42.47563" lon="2.63999">
        <ele>451</ele>
        <time>2007-03-04T08:17:30Z</time>
      </trkpt>
      <trkpt lat="42.47576" lon="2.63988">
        <ele>451</ele>
        <time>2007-03-04T08:17:37Z</time>
      </trkpt>
      <trkpt lat="42.47592" lon="2.63979">
        <ele>449</ele>
        <time>2007-03-04T08:17:45Z</time>
      </trkpt>
      <trkpt lat="42.47603" lon="2.63972">
        <ele>449</ele>
        <time>2007-03-04T08:17:50Z</time>
      </trkpt>
      <trkpt lat="42.47618" lon="2.63961">
        <ele>450</ele>
        <time>2007-03-04T08:17:57Z</time>
      </trkpt>
      <trkpt lat="42.47631" lon="2.63953">
        <ele>452</ele>
        <time>2007-03-04T08:18:04Z</time>
      </trkpt>
      <trkpt lat="42.47642" lon="2.63946">
        <ele>455</ele>
        <time>2007-03-04T08:18:10Z</time>
      </trkpt>
      <trkpt lat="42.47649" lon="2.63937">
        <ele>458</ele>
        <time>2007-03-04T08:18:14Z</time>
      </trkpt>
      <trkpt lat="42.47648" lon="2.63918">
        <ele>457</ele>
        <time>2007-03-04T08:18:19Z</time>
      </trkpt>
      <trkpt lat="42.4764" lon="2.63889">
        <ele>458</ele>
        <time>2007-03-04T08:18:27Z</time>
      </trkpt>
      <trkpt lat="42.47632" lon="2.63865">
        <ele>459</ele>
        <time>2007-03-04T08:18:34Z</time>
      </trkpt>
      <trkpt lat="42.4762" lon="2.63843">
        <ele>458</ele>
        <time>2007-03-04T08:18:41Z</time>
      </trkpt>
      <trkpt lat="42.47607" lon="2.63825">
        <ele>456</ele>
        <time>2007-03-04T08:18:47Z</time>
      </trkpt>
      <trkpt lat="42.47606" lon="2.63808">
        <ele>455</ele>
        <time>2007-03-04T08:18:51Z</time>
      </trkpt>
      <trkpt lat="42.47617" lon="2.63787">
        <ele>456</ele>
        <time>2007-03-04T08:18:57Z</time>
      </trkpt>
      <trkpt lat="42.4763" lon="2.63769">
        <ele>457</ele>
        <time>2007-03-04T08:19:04Z</time>
      </trkpt>
      <trkpt lat="42.4764" lon="2.63754">
        <ele>458</ele>
        <time>2007-03-04T08:19:09Z</time>
      </trkpt>
      <trkpt lat="42.47649" lon="2.63725">
        <ele>459</ele>
        <time>2007-03-04T08:19:16Z</time>
      </trkpt>
      <trkpt lat="42.47661" lon="2.63691">
        <ele>463</ele>
        <time>2007-03-04T08:19:23Z</time>
      </trkpt>
      <trkpt lat="42.47674" lon="2.63664">
        <ele>464</ele>
        <time>2007-03-04T08:19:29Z</time>
      </trkpt>
      <trkpt lat="42.47676" lon="2.6366">
        <ele>465</ele>
        <time>2007-03-04T08:19:30Z</time>
      </trkpt>
      <trkpt lat="42.47697" lon="2.63639">
        <ele>466</ele>
        <time>2007-03-04T08:19:37Z</time>
      </trkpt>
      <trkpt lat="42.47717" lon="2.63632">
        <ele>466</ele>
        <time>2007-03-04T08:19:43Z</time>
      </trkpt>
      <trkpt lat="42.47735" lon="2.63637">
        <ele>467</ele>
        <time>2007-03-04T08:19:49Z</time>
      </trkpt>
      <trkpt lat="42.47743" lon="2.63649">
        <ele>470</ele>
        <time>2007-03-04T08:19:54Z</time>
      </trkpt>
      <trkpt lat="42.47748" lon="2.63669">
        <ele>473</ele>
        <time>2007-03-04T08:20:01Z</time>
      </trkpt>
      <trkpt lat="42.47753" lon="2.63685">
        <ele>474</ele>
        <time>2007-03-04T08:20:07Z</time>
      </trkpt>
      <trkpt lat="42.4776" lon="2.63701">
        <ele>477</ele>
        <time>2007-03-04T08:20:14Z</time>
      </trkpt>
      <trkpt lat="42.47771" lon="2.63717">
        <ele>481</ele>
        <time>2007-03-04T08:20:22Z</time>
      </trkpt>
      <trkpt lat="42.47781" lon="2.63732">
        <ele>483</ele>
        <time>2007-03-04T08:20:30Z</time>
      </trkpt>
      <trkpt lat="42.4779" lon="2.63748">
        <ele>482</ele>
        <time>2007-03-04T08:20:38Z</time>
      </trkpt>
      <trkpt lat="42.47803" lon="2.6376">
        <ele>483</ele>
        <time>2007-03-04T08:20:46Z</time>
      </trkpt>
      <trkpt lat="42.47809" lon="2.6376">
        <ele>484</ele>
        <time>2007-03-04T08:20:50Z</time>
      </trkpt>
      <trkpt lat="42.4781" lon="2.63744">
        <ele>484</ele>
        <time>2007-03-04T08:20:56Z</time>
      </trkpt>
      <trkpt lat="42.47809" lon="2.63741">
        <ele>484</ele>
        <time>2007-03-04T08:20:57Z</time>
      </trkpt>
      <trkpt lat="42.47801" lon="2.63706">
        <ele>485</ele>
        <time>2007-03-04T08:21:05Z</time>
      </trkpt>
      <trkpt lat="42.47801" lon="2.6368">
        <ele>486</ele>
        <time>2007-03-04T08:21:10Z</time>
      </trkpt>
      <trkpt lat="42.47803" lon="2.63668">
        <ele>486</ele>
        <time>2007-03-04T08:21:12Z</time>
      </trkpt>
      <trkpt lat="42.47803" lon="2.63656">
        <ele>486</ele>
        <time>2007-03-04T08:21:14Z</time>
      </trkpt>
      <trkpt lat="42.47804" lon="2.63645">
        <ele>487</ele>
        <time>2007-03-04T08:21:16Z</time>
      </trkpt>
      <trkpt lat="42.47807" lon="2.63635">
        <ele>487</ele>
        <time>2007-03-04T08:21:18Z</time>
      </trkpt>
      <trkpt lat="42.47815" lon="2.63605">
        <ele>488</ele>
        <time>2007-03-04T08:21:25Z</time>
      </trkpt>
      <trkpt lat="42.47826" lon="2.63593">
        <ele>489</ele>
        <time>2007-03-04T08:21:30Z</time>
      </trkpt>
      <trkpt lat="42.47841" lon="2.63585">
        <ele>491</ele>
        <time>2007-03-04T08:21:36Z</time>
      </trkpt>
      <trkpt lat="42.47852" lon="2.63577">
        <ele>493</ele>
        <time>2007-03-04T08:21:41Z</time>
      </trkpt>
      <trkpt lat="42.47862" lon="2.63571">
        <ele>496</ele>
        <time>2007-03-04T08:21:46Z</time>
      </trkpt>
      <trkpt lat="42.47865" lon="2.63578">
        <ele>497</ele>
        <time>2007-03-04T08:21:51Z</time>
      </trkpt>
      <trkpt lat="42.47853" lon="2.63595">
        <ele>498</ele>
        <time>2007-03-04T08:21:59Z</time>
      </trkpt>
      <trkpt lat="42.47843" lon="2.63611">
        <ele>499</ele>
        <time>2007-03-04T08:22:06Z</time>
      </trkpt>
      <trkpt lat="42.4784" lon="2.63629">
        <ele>501</ele>
        <time>2007-03-04T08:22:12Z</time>
      </trkpt>
      <trkpt lat="42.47847" lon="2.63644">
        <ele>502</ele>
        <time>2007-03-04T08:22:18Z</time>
      </trkpt>
      <trkpt lat="42.47854" lon="2.63655">
        <ele>503</ele>
        <time>2007-03-04T08:22:24Z</time>
      </trkpt>
      <trkpt lat="42.47858" lon="2.63672">
        <ele>504</ele>
        <time>2007-03-04T08:22:31Z</time>
      </trkpt>
      <trkpt lat="42.47856" lon="2.63688">
        <ele>505</ele>
        <time>2007-03-04T08:22:37Z</time>
      </trkpt>
      <trkpt lat="42.47851" lon="2.63709">
        <ele>507</ele>
        <time>2007-03-04T08:22:45Z</time>
      </trkpt>
      <trkpt lat="42.47851" lon="2.63719">
        <ele>508</ele>
        <time>2007-03-04T08:22:49Z</time>
      </trkpt>
      <trkpt lat="42.47854" lon="2.63731">
        <ele>509</ele>
        <time>2007-03-04T08:22:54Z</time>
      </trkpt>
      <trkpt lat="42.47858" lon="2.63755">
        <ele>510</ele>
        <time>2007-03-04T08:23:04Z</time>
      </trkpt>
      <trkpt lat="42.47857" lon="2.63789">
        <ele>513</ele>
        <time>2007-03-04T08:23:15Z</time>
      </trkpt>
      <trkpt lat="42.47858" lon="2.63807">
        <ele>514</ele>
        <time>2007-03-04T08:23:22Z</time>
      </trkpt>
      <trkpt lat="42.47859" lon="2.63819">
        <ele>515</ele>
        <time>2007-03-04T08:23:27Z</time>
      </trkpt>
      <trkpt lat="42.47866" lon="2.63823">
        <ele>516</ele>
        <time>2007-03-04T08:23:32Z</time>
      </trkpt>
      <trkpt lat="42.47867" lon="2.63819">
        <ele>517</ele>
        <time>2007-03-04T08:23:34Z</time>
      </trkpt>
      <trkpt lat="42.47867" lon="2.63799">
        <ele>517</ele>
        <time>2007-03-04T08:23:41Z</time>
      </trkpt>
      <trkpt lat="42.47869" lon="2.63778">
        <ele>518</ele>
        <time>2007-03-04T08:23:48Z</time>
      </trkpt>
      <trkpt lat="42.47877" lon="2.63758">
        <ele>519</ele>
        <time>2007-03-04T08:23:56Z</time>
      </trkpt>
      <trkpt lat="42.47887" lon="2.63744">
        <ele>520</ele>
        <time>2007-03-04T08:24:04Z</time>
      </trkpt>
      <trkpt lat="42.47894" lon="2.63731">
        <ele>522</ele>
        <time>2007-03-04T08:24:10Z</time>
      </trkpt>
      <trkpt lat="42.47897" lon="2.63714">
        <ele>525</ele>
        <time>2007-03-04T08:24:16Z</time>
      </trkpt>
      <trkpt lat="42.47896" lon="2.63696">
        <ele>527</ele>
        <time>2007-03-04T08:24:22Z</time>
      </trkpt>
      <trkpt lat="42.47899" lon="2.63671">
        <ele>528</ele>
        <time>2007-03-04T08:24:31Z</time>
      </trkpt>
      <trkpt lat="42.47909" lon="2.6365">
        <ele>530</ele>
        <time>2007-03-04T08:24:40Z</time>
      </trkpt>
      <trkpt lat="42.47921" lon="2.6364">
        <ele>533</ele>
        <time>2007-03-04T08:24:47Z</time>
      </trkpt>
      <trkpt lat="42.47932" lon="2.63631">
        <ele>534</ele>
        <time>2007-03-04T08:24:54Z</time>
      </trkpt>
      <trkpt lat="42.47944" lon="2.63623">
        <ele>536</ele>
        <time>2007-03-04T08:25:00Z</time>
      </trkpt>
      <trkpt lat="42.47954" lon="2.63615">
        <ele>538</ele>
        <time>2007-03-04T08:25:06Z</time>
      </trkpt>
      <trkpt lat="42.47965" lon="2.63613">
        <ele>538</ele>
        <time>2007-03-04T08:25:12Z</time>
      </trkpt>
      <trkpt lat="42.47968" lon="2.63613">
        <ele>538</ele>
        <time>2007-03-04T08:25:13Z</time>
      </trkpt>
      <trkpt lat="42.47972" lon="2.63624">
        <ele>539</ele>
        <time>2007-03-04T08:25:18Z</time>
      </trkpt>
      <trkpt lat="42.47967" lon="2.63629">
        <ele>538</ele>
        <time>2007-03-04T08:25:21Z</time>
      </trkpt>
      <trkpt lat="42.47947" lon="2.63639">
        <ele>540</ele>
        <time>2007-03-04T08:25:29Z</time>
      </trkpt>
      <trkpt lat="42.47939" lon="2.63655">
        <ele>540</ele>
        <time>2007-03-04T08:25:35Z</time>
      </trkpt>
      <trkpt lat="42.47934" lon="2.63675">
        <ele>540</ele>
        <time>2007-03-04T08:25:42Z</time>
      </trkpt>
      <trkpt lat="42.47928" lon="2.63699">
        <ele>541</ele>
        <time>2007-03-04T08:25:50Z</time>
      </trkpt>
      <trkpt lat="42.47924" lon="2.63723">
        <ele>541</ele>
        <time>2007-03-04T08:25:58Z</time>
      </trkpt>
      <trkpt lat="42.47919" lon="2.63749">
        <ele>544</ele>
        <time>2007-03-04T08:26:06Z</time>
      </trkpt>
      <trkpt lat="42.47915" lon="2.63775">
        <ele>545</ele>
        <time>2007-03-04T08:26:14Z</time>
      </trkpt>
      <trkpt lat="42.47915" lon="2.63798">
        <ele>545</ele>
        <time>2007-03-04T08:26:21Z</time>
      </trkpt>
      <trkpt lat="42.47917" lon="2.63827">
        <ele>546</ele>
        <time>2007-03-04T08:26:29Z</time>
      </trkpt>
      <trkpt lat="42.47921" lon="2.63858">
        <ele>548</ele>
        <time>2007-03-04T08:26:37Z</time>
      </trkpt>
      <trkpt lat="42.47928" lon="2.63889">
        <ele>549</ele>
        <time>2007-03-04T08:26:45Z</time>
      </trkpt>
      <trkpt lat="42.47924" lon="2.63911">
        <ele>549</ele>
        <time>2007-03-04T08:26:50Z</time>
      </trkpt>
      <trkpt lat="42.47912" lon="2.63921">
        <ele>548</ele>
        <time>2007-03-04T08:26:54Z</time>
      </trkpt>
      <trkpt lat="42.47888" lon="2.63937">
        <ele>548</ele>
        <time>2007-03-04T08:27:01Z</time>
      </trkpt>
      <trkpt lat="42.47877" lon="2.63955">
        <ele>547</ele>
        <time>2007-03-04T08:27:06Z</time>
      </trkpt>
      <trkpt lat="42.47877" lon="2.63976">
        <ele>548</ele>
        <time>2007-03-04T08:27:11Z</time>
      </trkpt>
      <trkpt lat="42.47882" lon="2.64007">
        <ele>551</ele>
        <time>2007-03-04T08:27:20Z</time>
      </trkpt>
      <trkpt lat="42.4789" lon="2.64032">
        <ele>552</ele>
        <time>2007-03-04T08:27:28Z</time>
      </trkpt>
      <trkpt lat="42.47902" lon="2.64051">
        <ele>555</ele>
        <time>2007-03-04T08:27:36Z</time>
      </trkpt>
      <trkpt lat="42.47903" lon="2.64068">
        <ele>556</ele>
        <time>2007-03-04T08:27:41Z</time>
      </trkpt>
      <trkpt lat="42.479" lon="2.64079">
        <ele>556</ele>
        <time>2007-03-04T08:27:44Z</time>
      </trkpt>
      <trkpt lat="42.47884" lon="2.64082">
        <ele>557</ele>
        <time>2007-03-04T08:27:49Z</time>
      </trkpt>
      <trkpt lat="42.47872" lon="2.64074">
        <ele>557</ele>
        <time>2007-03-04T08:27:52Z</time>
      </trkpt>
      <trkpt lat="42.47851" lon="2.6406">
        <ele>557</ele>
        <time>2007-03-04T08:27:56Z</time>
      </trkpt>
      <trkpt lat="42.47826" lon="2.64055">
        <ele>556</ele>
        <time>2007-03-04T08:28:00Z</time>
      </trkpt>
      <trkpt lat="42.47802" lon="2.6407">
        <ele>554</ele>
        <time>2007-03-04T08:28:04Z</time>
      </trkpt>
      <trkpt lat="42.47792" lon="2.64086">
        <ele>552</ele>
        <time>2007-03-04T08:28:06Z</time>
      </trkpt>
      <trkpt lat="42.47765" lon="2.64129">
        <ele>550</ele>
        <time>2007-03-04T08:28:12Z</time>
      </trkpt>
      <trkpt lat="42.47752" lon="2.64147">
        <ele>551</ele>
        <time>2007-03-04T08:28:15Z</time>
      </trkpt>
      <trkpt lat="42.47726" lon="2.64169">
        <ele>550</ele>
        <time>2007-03-04T08:28:20Z</time>
      </trkpt>
      <trkpt lat="42.47721" lon="2.64173">
        <ele>550</ele>
        <time>2007-03-04T08:28:21Z</time>
      </trkpt>
      <trkpt lat="42.47701" lon="2.64205">
        <ele>551</ele>
        <time>2007-03-04T08:28:26Z</time>
      </trkpt>
      <trkpt lat="42.47697" lon="2.64232">
        <ele>551</ele>
        <time>2007-03-04T08:28:29Z</time>
      </trkpt>
      <trkpt lat="42.47698" lon="2.64251">
        <ele>552</ele>
        <time>2007-03-04T08:28:31Z</time>
      </trkpt>
      <trkpt lat="42.47712" lon="2.6431">
        <ele>552</ele>
        <time>2007-03-04T08:28:38Z</time>
      </trkpt>
      <trkpt lat="42.47726" lon="2.64351">
        <ele>555</ele>
        <time>2007-03-04T08:28:44Z</time>
      </trkpt>
      <trkpt lat="42.47741" lon="2.64366">
        <ele>558</ele>
        <time>2007-03-04T08:28:48Z</time>
      </trkpt>
      <trkpt lat="42.47753" lon="2.64365">
        <ele>562</ele>
        <time>2007-03-04T08:28:52Z</time>
      </trkpt>
      <trkpt lat="42.47768" lon="2.64354">
        <ele>563</ele>
        <time>2007-03-04T08:28:59Z</time>
      </trkpt>
      <trkpt lat="42.47772" lon="2.6435">
        <ele>563</ele>
        <time>2007-03-04T08:29:01Z</time>
      </trkpt>
      <trkpt lat="42.47782" lon="2.6434">
        <ele>565</ele>
        <time>2007-03-04T08:29:09Z</time>
      </trkpt>
      <trkpt lat="42.47794" lon="2.64331">
        <ele>569</ele>
        <time>2007-03-04T08:29:18Z</time>
      </trkpt>
      <trkpt lat="42.47802" lon="2.64326">
        <ele>570</ele>
        <time>2007-03-04T08:29:24Z</time>
      </trkpt>
      <trkpt lat="42.47813" lon="2.64319">
        <ele>573</ele>
        <time>2007-03-04T08:29:32Z</time>
      </trkpt>
      <trkpt lat="42.47823" lon="2.64313">
        <ele>573</ele>
        <time>2007-03-04T08:29:40Z</time>
      </trkpt>
      <trkpt lat="42.47829" lon="2.64311">
        <ele>575</ele>
        <time>2007-03-04T08:29:46Z</time>
      </trkpt>
      <trkpt lat="42.47837" lon="2.64307">
        <ele>577</ele>
        <time>2007-03-04T08:29:53Z</time>
      </trkpt>
      <trkpt lat="42.47843" lon="2.64302">
        <ele>579</ele>
        <time>2007-03-04T08:29:59Z</time>
      </trkpt>
      <trkpt lat="42.47851" lon="2.64294">
        <ele>581</ele>
        <time>2007-03-04T08:30:07Z</time>
      </trkpt>
      <trkpt lat="42.47862" lon="2.64283">
        <ele>580</ele>
        <time>2007-03-04T08:30:17Z</time>
      </trkpt>
      <trkpt lat="42.4787" lon="2.64279">
        <ele>583</ele>
        <time>2007-03-04T08:30:24Z</time>
      </trkpt>
      <trkpt lat="42.47878" lon="2.64275">
        <ele>586</ele>
        <time>2007-03-04T08:30:31Z</time>
      </trkpt>
      <trkpt lat="42.47886" lon="2.64272">
        <ele>587</ele>
        <time>2007-03-04T08:30:37Z</time>
      </trkpt>
      <trkpt lat="42.47896" lon="2.64271">
        <ele>592</ele>
        <time>2007-03-04T08:30:45Z</time>
      </trkpt>
      <trkpt lat="42.47909" lon="2.6427">
        <ele>593</ele>
        <time>2007-03-04T08:30:54Z</time>
      </trkpt>
      <trkpt lat="42.47918" lon="2.64271">
        <ele>591</ele>
        <time>2007-03-04T08:31:00Z</time>
      </trkpt>
      <trkpt lat="42.47923" lon="2.6427">
        <ele>592</ele>
        <time>2007-03-04T08:31:04Z</time>
      </trkpt>
      <trkpt lat="42.4792" lon="2.64263">
        <ele>592</ele>
        <time>2007-03-04T08:31:08Z</time>
      </trkpt>
      <trkpt lat="42.47907" lon="2.64258">
        <ele>594</ele>
        <time>2007-03-04T08:31:15Z</time>
      </trkpt>
      <trkpt lat="42.47884" lon="2.64258">
        <ele>597</ele>
        <time>2007-03-04T08:31:24Z</time>
      </trkpt>
      <trkpt lat="42.47863" lon="2.6425">
        <ele>596</ele>
        <time>2007-03-04T08:31:32Z</time>
      </trkpt>
      <trkpt lat="42.47853" lon="2.64231">
        <ele>598</ele>
        <time>2007-03-04T08:31:39Z</time>
      </trkpt>
      <trkpt lat="42.47856" lon="2.64206">
        <ele>599</ele>
        <time>2007-03-04T08:31:46Z</time>
      </trkpt>
      <trkpt lat="42.47868" lon="2.64192">
        <ele>599</ele>
        <time>2007-03-04T08:31:52Z</time>
      </trkpt>
      <trkpt lat="42.47879" lon="2.64187">
        <ele>598</ele>
        <time>2007-03-04T08:31:57Z</time>
      </trkpt>
      <trkpt lat="42.47895" lon="2.64177">
        <ele>596</ele>
        <time>2007-03-04T08:32:04Z</time>
      </trkpt>
      <trkpt lat="42.47915" lon="2.64165">
        <ele>598</ele>
        <time>2007-03-04T08:32:12Z</time>
      </trkpt>
      <trkpt lat="42.47936" lon="2.6416">
        <ele>599</ele>
        <time>2007-03-04T08:32:20Z</time>
      </trkpt>
      <trkpt lat="42.47959" lon="2.64153">
        <ele>600</ele>
        <time>2007-03-04T08:32:29Z</time>
      </trkpt>
      <trkpt lat="42.47977" lon="2.64142">
        <ele>605</ele>
        <time>2007-03-04T08:32:36Z</time>
      </trkpt>
      <trkpt lat="42.47997" lon="2.64136">
        <ele>612</ele>
        <time>2007-03-04T08:32:44Z</time>
      </trkpt>
      <trkpt lat="42.47999" lon="2.64134">
        <ele>612</ele>
        <time>2007-03-04T08:32:45Z</time>
      </trkpt>
      <trkpt lat="42.48001" lon="2.64118">
        <ele>615</ele>
        <time>2007-03-04T08:32:50Z</time>
      </trkpt>
      <trkpt lat="42.47997" lon="2.64109">
        <ele>616</ele>
        <time>2007-03-04T08:32:53Z</time>
      </trkpt>
      <trkpt lat="42.47989" lon="2.64082">
        <ele>618</ele>
        <time>2007-03-04T08:33:02Z</time>
      </trkpt>
      <trkpt lat="42.47986" lon="2.64061">
        <ele>619</ele>
        <time>2007-03-04T08:33:09Z</time>
      </trkpt>
      <trkpt lat="42.47991" lon="2.64043">
        <ele>621</ele>
        <time>2007-03-04T08:33:15Z</time>
      </trkpt>
      <trkpt lat="42.47999" lon="2.64031">
        <ele>621</ele>
        <time>2007-03-04T08:33:21Z</time>
      </trkpt>
      <trkpt lat="42.48008" lon="2.64022">
        <ele>620</ele>
        <time>2007-03-04T08:33:26Z</time>
      </trkpt>
      <trkpt lat="42.48016" lon="2.64011">
        <ele>620</ele>
        <time>2007-03-04T08:33:32Z</time>
      </trkpt>
      <trkpt lat="42.48024" lon="2.63998">
        <ele>621</ele>
        <time>2007-03-04T08:33:38Z</time>
      </trkpt>
      <trkpt lat="42.48031" lon="2.63977">
        <ele>623</ele>
        <time>2007-03-04T08:33:45Z</time>
      </trkpt>
      <trkpt lat="42.48038" lon="2.6395">
        <ele>626</ele>
        <time>2007-03-04T08:33:54Z</time>
      </trkpt>
      <trkpt lat="42.48051" lon="2.63932">
        <ele>627</ele>
        <time>2007-03-04T08:34:02Z</time>
      </trkpt>
      <trkpt lat="42.48062" lon="2.63933">
        <ele>626</ele>
        <time>2007-03-04T08:34:08Z</time>
      </trkpt>
      <trkpt lat="42.48078" lon="2.6394">
        <ele>625</ele>
        <time>2007-03-04T08:34:17Z</time>
      </trkpt>
      <trkpt lat="42.48085" lon="2.63947">
        <ele>625</ele>
        <time>2007-03-04T08:34:22Z</time>
      </trkpt>
      <trkpt lat="42.48082" lon="2.63959">
        <ele>629</ele>
        <time>2007-03-04T08:34:27Z</time>
      </trkpt>
      <trkpt lat="42.48078" lon="2.63958">
        <ele>630</ele>
        <time>2007-03-04T08:34:29Z</time>
      </trkpt>
      <trkpt lat="42.48062" lon="2.63958">
        <ele>636</ele>
        <time>2007-03-04T08:34:36Z</time>
      </trkpt>
      <trkpt lat="42.48053" lon="2.63969">
        <ele>637</ele>
        <time>2007-03-04T08:34:41Z</time>
      </trkpt>
      <trkpt lat="42.48048" lon="2.63988">
        <ele>636</ele>
        <time>2007-03-04T08:34:47Z</time>
      </trkpt>
      <trkpt lat="42.48043" lon="2.64014">
        <ele>636</ele>
        <time>2007-03-04T08:34:55Z</time>
      </trkpt>
      <trkpt lat="42.48038" lon="2.64042">
        <ele>636</ele>
        <time>2007-03-04T08:35:04Z</time>
      </trkpt>
      <trkpt lat="42.48038" lon="2.64065">
        <ele>635</ele>
        <time>2007-03-04T08:35:11Z</time>
      </trkpt>
      <trkpt lat="42.48039" lon="2.6409">
        <ele>635</ele>
        <time>2007-03-04T08:35:19Z</time>
      </trkpt>
      <trkpt lat="42.48042" lon="2.64111">
        <ele>637</ele>
        <time>2007-03-04T08:35:26Z</time>
      </trkpt>
      <trkpt lat="42.48046" lon="2.64132">
        <ele>640</ele>
        <time>2007-03-04T08:35:33Z</time>
      </trkpt>
      <trkpt lat="42.48051" lon="2.64163">
        <ele>643</ele>
        <time>2007-03-04T08:35:43Z</time>
      </trkpt>
      <trkpt lat="42.48047" lon="2.64184">
        <ele>645</ele>
        <time>2007-03-04T08:35:49Z</time>
      </trkpt>
      <trkpt lat="42.48044" lon="2.64207">
        <ele>645</ele>
        <time>2007-03-04T08:35:56Z</time>
      </trkpt>
      <trkpt lat="42.48048" lon="2.64215">
        <ele>646</ele>
        <time>2007-03-04T08:35:59Z</time>
      </trkpt>
      <trkpt lat="42.48055" lon="2.64213">
        <ele>647</ele>
        <time>2007-03-04T08:36:03Z</time>
      </trkpt>
      <trkpt lat="42.48056" lon="2.6421">
        <ele>647</ele>
        <time>2007-03-04T08:36:04Z</time>
      </trkpt>
      <trkpt lat="42.48061" lon="2.64189">
        <ele>651</ele>
        <time>2007-03-04T08:36:13Z</time>
      </trkpt>
      <trkpt lat="42.48066" lon="2.64176">
        <ele>653</ele>
        <time>2007-03-04T08:36:19Z</time>
      </trkpt>
      <trkpt lat="42.48071" lon="2.64163">
        <ele>654</ele>
        <time>2007-03-04T08:36:25Z</time>
      </trkpt>
      <trkpt lat="42.48078" lon="2.64145">
        <ele>656</ele>
        <time>2007-03-04T08:36:34Z</time>
      </trkpt>
      <trkpt lat="42.48084" lon="2.64128">
        <ele>660</ele>
        <time>2007-03-04T08:36:42Z</time>
      </trkpt>
      <trkpt lat="42.48091" lon="2.64114">
        <ele>662</ele>
        <time>2007-03-04T08:36:49Z</time>
      </trkpt>
      <trkpt lat="42.48099" lon="2.64101">
        <ele>663</ele>
        <time>2007-03-04T08:36:56Z</time>
      </trkpt>
      <trkpt lat="42.48106" lon="2.64091">
        <ele>662</ele>
        <time>2007-03-04T08:37:02Z</time>
      </trkpt>
      <trkpt lat="42.48107" lon="2.64087">
        <ele>662</ele>
        <time>2007-03-04T08:37:04Z</time>
      </trkpt>
      <trkpt lat="42.48117" lon="2.64089">
        <ele>662</ele>
        <time>2007-03-04T08:37:10Z</time>
      </trkpt>
      <trkpt lat="42.48116" lon="2.64098">
        <ele>662</ele>
        <time>2007-03-04T08:37:14Z</time>
      </trkpt>
      <trkpt lat="42.48112" lon="2.6411">
        <ele>660</ele>
        <time>2007-03-04T08:37:18Z</time>
      </trkpt>
      <trkpt lat="42.48104" lon="2.64142">
        <ele>660</ele>
        <time>2007-03-04T08:37:26Z</time>
      </trkpt>
      <trkpt lat="42.48099" lon="2.64173">
        <ele>661</ele>
        <time>2007-03-04T08:37:33Z</time>
      </trkpt>
      <trkpt lat="42.481" lon="2.64206">
        <ele>663</ele>
        <time>2007-03-04T08:37:41Z</time>
      </trkpt>
      <trkpt lat="42.48104" lon="2.64236">
        <ele>664</ele>
        <time>2007-03-04T08:37:49Z</time>
      </trkpt>
      <trkpt lat="42.48109" lon="2.64258">
        <ele>666</ele>
        <time>2007-03-04T08:37:56Z</time>
      </trkpt>
      <trkpt lat="42.48112" lon="2.64285">
        <ele>666</ele>
        <time>2007-03-04T08:38:03Z</time>
      </trkpt>
      <trkpt lat="42.48105" lon="2.64316">
        <ele>668</ele>
        <time>2007-03-04T08:38:10Z</time>
      </trkpt>
      <trkpt lat="42.48088" lon="2.64361">
        <ele>670</ele>
        <time>2007-03-04T08:38:20Z</time>
      </trkpt>
      <trkpt lat="42.4808" lon="2.644">
        <ele>671</ele>
        <time>2007-03-04T08:38:28Z</time>
      </trkpt>
      <trkpt lat="42.48081" lon="2.64437">
        <ele>673</ele>
        <time>2007-03-04T08:38:36Z</time>
      </trkpt>
      <trkpt lat="42.48093" lon="2.64452">
        <ele>675</ele>
        <time>2007-03-04T08:38:41Z</time>
      </trkpt>
      <trkpt lat="42.48112" lon="2.64455">
        <ele>675</ele>
        <time>2007-03-04T08:38:46Z</time>
      </trkpt>
      <trkpt lat="42.48143" lon="2.64454">
        <ele>676</ele>
        <time>2007-03-04T08:38:54Z</time>
      </trkpt>
      <trkpt lat="42.48181" lon="2.64461">
        <ele>675</ele>
        <time>2007-03-04T08:39:04Z</time>
      </trkpt>
      <trkpt lat="42.48207" lon="2.64465">
        <ele>675</ele>
        <time>2007-03-04T08:39:11Z</time>
      </trkpt>
      <trkpt lat="42.48246" lon="2.64472">
        <ele>677</ele>
        <time>2007-03-04T08:39:21Z</time>
      </trkpt>
      <trkpt lat="42.48264" lon="2.64467">
        <ele>677</ele>
        <time>2007-03-04T08:39:26Z</time>
      </trkpt>
      <trkpt lat="42.48281" lon="2.6445">
        <ele>679</ele>
        <time>2007-03-04T08:39:31Z</time>
      </trkpt>
      <trkpt lat="42.48297" lon="2.64424">
        <ele>678</ele>
        <time>2007-03-04T08:39:36Z</time>
      </trkpt>
      <trkpt lat="42.48312" lon="2.64412">
        <ele>679</ele>
        <time>2007-03-04T08:39:39Z</time>
      </trkpt>
      <trkpt lat="42.48323" lon="2.64405">
        <ele>677</ele>
        <time>2007-03-04T08:39:41Z</time>
      </trkpt>
      <trkpt lat="42.48342" lon="2.64406">
        <ele>675</ele>
        <time>2007-03-04T08:39:45Z</time>
      </trkpt>
      <trkpt lat="42.48386" lon="2.64432">
        <ele>676</ele>
        <time>2007-03-04T08:39:54Z</time>
      </trkpt>
      <trkpt lat="42.48395" lon="2.64438">
        <ele>675</ele>
        <time>2007-03-04T08:39:56Z</time>
      </trkpt>
      <trkpt lat="42.48417" lon="2.64452">
        <ele>671</ele>
        <time>2007-03-04T08:40:01Z</time>
      </trkpt>
      <trkpt lat="42.48434" lon="2.64453">
        <ele>671</ele>
        <time>2007-03-04T08:40:05Z</time>
      </trkpt>
      <trkpt lat="42.48442" lon="2.64451">
        <ele>675</ele>
        <time>2007-03-04T08:40:09Z</time>
      </trkpt>
      <trkpt lat="42.48447" lon="2.64443">
        <ele>675</ele>
        <time>2007-03-04T08:40:15Z</time>
      </trkpt>
      <trkpt lat="42.4845" lon="2.64444">
        <ele>677</ele>
        <time>2007-03-04T08:40:21Z</time>
      </trkpt>
      <trkpt lat="42.48449" lon="2.64447">
        <ele>681</ele>
        <time>2007-03-04T08:40:28Z</time>
      </trkpt>
      <trkpt lat="42.4845" lon="2.64452">
        <ele>689</ele>
        <time>2007-03-04T08:40:37Z</time>
      </trkpt>
      <trkpt lat="42.4845" lon="2.64452">
        <ele>688</ele>
        <time>2007-03-04T08:40:52Z</time>
      </trkpt>
      <trkpt lat="42.48452" lon="2.6446">
        <ele>691</ele>
        <time>2007-03-04T08:41:04Z</time>
      </trkpt>
      <trkpt lat="42.48453" lon="2.6446">
        <ele>690</ele>
        <time>2007-03-04T08:41:05Z</time>
      </trkpt>
      <trkpt lat="42.48467" lon="2.64463">
        <ele>685</ele>
        <time>2007-03-04T08:41:11Z</time>
      </trkpt>
      <trkpt lat="42.48481" lon="2.64476">
        <ele>683</ele>
        <time>2007-03-04T08:41:15Z</time>
      </trkpt>
      <trkpt lat="42.48489" lon="2.64499">
        <ele>682</ele>
        <time>2007-03-04T08:41:18Z</time>
      </trkpt>
      <trkpt lat="42.48497" lon="2.64527">
        <ele>680</ele>
        <time>2007-03-04T08:41:21Z</time>
      </trkpt>
      <trkpt lat="42.48519" lon="2.64557">
        <ele>675</ele>
        <time>2007-03-04T08:41:25Z</time>
      </trkpt>
      <trkpt lat="42.48544" lon="2.64561">
        <ele>675</ele>
        <time>2007-03-04T08:41:28Z</time>
      </trkpt>
      <trkpt lat="42.48577" lon="2.6458">
        <ele>673</ele>
        <time>2007-03-04T08:41:32Z</time>
      </trkpt>
      <trkpt lat="42.48579" lon="2.64602">
        <ele>669</ele>
        <time>2007-03-04T08:41:35Z</time>
      </trkpt>
      <trkpt lat="42.48572" lon="2.64611">
        <ele>668</ele>
        <time>2007-03-04T08:41:36Z</time>
      </trkpt>
      <trkpt lat="42.48555" lon="2.64665">
        <ele>663</ele>
        <time>2007-03-04T08:41:41Z</time>
      </trkpt>
      <trkpt lat="42.48528" lon="2.64694">
        <ele>656</ele>
        <time>2007-03-04T08:41:45Z</time>
      </trkpt>
      <trkpt lat="42.48518" lon="2.647">
        <ele>657</ele>
        <time>2007-03-04T08:41:46Z</time>
      </trkpt>
      <trkpt lat="42.4847" lon="2.64738">
        <ele>654</ele>
        <time>2007-03-04T08:41:51Z</time>
      </trkpt>
      <trkpt lat="42.48427" lon="2.64785">
        <ele>650</ele>
        <time>2007-03-04T08:41:56Z</time>
      </trkpt>
      <trkpt lat="42.48418" lon="2.64816">
        <ele>647</ele>
        <time>2007-03-04T08:41:59Z</time>
      </trkpt>
      <trkpt lat="42.48426" lon="2.6484">
        <ele>645</ele>
        <time>2007-03-04T08:42:01Z</time>
      </trkpt>
      <trkpt lat="42.48438" lon="2.64864">
        <ele>643</ele>
        <time>2007-03-04T08:42:03Z</time>
      </trkpt>
      <trkpt lat="42.48464" lon="2.64912">
        <ele>638</ele>
        <time>2007-03-04T08:42:07Z</time>
      </trkpt>
      <trkpt lat="42.4847" lon="2.64964">
        <ele>634</ele>
        <time>2007-03-04T08:42:11Z</time>
      </trkpt>
      <trkpt lat="42.48463" lon="2.64978">
        <ele>632</ele>
        <time>2007-03-04T08:42:12Z</time>
      </trkpt>
      <trkpt lat="42.48448" lon="2.65022">
        <ele>628</ele>
        <time>2007-03-04T08:42:15Z</time>
      </trkpt>
      <trkpt lat="42.48417" lon="2.65096">
        <ele>621</ele>
        <time>2007-03-04T08:42:20Z</time>
      </trkpt>
      <trkpt lat="42.48395" lon="2.65161">
        <ele>616</ele>
        <time>2007-03-04T08:42:24Z</time>
      </trkpt>
      <trkpt lat="42.48387" lon="2.65192">
        <ele>615</ele>
        <time>2007-03-04T08:42:26Z</time>
      </trkpt>
      <trkpt lat="42.48383" lon="2.65234">
        <ele>615</ele>
        <time>2007-03-04T08:42:29Z</time>
      </trkpt>
      <trkpt lat="42.48388" lon="2.65273">
        <ele>613</ele>
        <time>2007-03-04T08:42:32Z</time>
      </trkpt>
      <trkpt lat="42.48413" lon="2.65339">
        <ele>609</ele>
        <time>2007-03-04T08:42:37Z</time>
      </trkpt>
      <trkpt lat="42.48419" lon="2.65353">
        <ele>608</ele>
        <time>2007-03-04T08:42:38Z</time>
      </trkpt>
      <trkpt lat="42.48445" lon="2.65387">
        <ele>606</ele>
        <time>2007-03-04T08:42:41Z</time>
      </trkpt>
      <trkpt lat="42.48475" lon="2.65398">
        <ele>604</ele>
        <time>2007-03-04T08:42:44Z</time>
      </trkpt>
      <trkpt lat="42.48488" lon="2.65399">
        <ele>603</ele>
        <time>2007-03-04T08:42:46Z</time>
      </trkpt>
      <trkpt lat="42.48498" lon="2.65402">
        <ele>603</ele>
        <time>2007-03-04T08:42:50Z</time>
      </trkpt>
      <trkpt lat="42.48502" lon="2.65411">
        <ele>602</ele>
        <time>2007-03-04T08:42:55Z</time>
      </trkpt>
      <trkpt lat="42.48497" lon="2.65411">
        <ele>602</ele>
        <time>2007-03-04T08:42:59Z</time>
      </trkpt>
      <trkpt lat="42.48502" lon="2.65406">
        <ele>602</ele>
        <time>2007-03-04T08:43:03Z</time>
      </trkpt>
      <trkpt lat="42.48512" lon="2.65407">
        <ele>607</ele>
        <time>2007-03-04T08:43:09Z</time>
      </trkpt>
      <trkpt lat="42.4851" lon="2.65412">
        <ele>605</ele>
        <time>2007-03-04T08:43:14Z</time>
      </trkpt>
      <trkpt lat="42.48503" lon="2.65423">
        <ele>602</ele>
        <time>2007-03-04T08:43:19Z</time>
      </trkpt>
      <trkpt lat="42.48501" lon="2.65439">
        <ele>595</ele>
        <time>2007-03-04T08:43:24Z</time>
      </trkpt>
      <trkpt lat="42.48509" lon="2.65444">
        <ele>592</ele>
        <time>2007-03-04T08:43:28Z</time>
      </trkpt>
      <trkpt lat="42.48514" lon="2.65453">
        <ele>590</ele>
        <time>2007-03-04T08:43:31Z</time>
      </trkpt>
      <trkpt lat="42.4851" lon="2.65465">
        <ele>590</ele>
        <time>2007-03-04T08:43:34Z</time>
      </trkpt>
      <trkpt lat="42.48511" lon="2.65482">
        <ele>588</ele>
        <time>2007-03-04T08:43:40Z</time>
      </trkpt>
      <trkpt lat="42.48513" lon="2.65484">
        <ele>587</ele>
        <time>2007-03-04T08:43:46Z</time>
      </trkpt>
      <trkpt lat="42.48512" lon="2.65482">
        <ele>581</ele>
        <time>2007-03-04T08:43:58Z</time>
      </trkpt>
      <trkpt lat="42.48512" lon="2.65482">
        <ele>582</ele>
        <time>2007-03-04T08:44:09Z</time>
      </trkpt>
      <trkpt lat="42.48512" lon="2.65481">
        <ele>585</ele>
        <time>2007-03-04T08:44:18Z</time>
      </trkpt>
      <trkpt lat="42.48515" lon="2.6548">
        <ele>585</ele>
        <time>2007-03-04T08:44:22Z</time>
      </trkpt>
      <trkpt lat="42.48516" lon="2.65481">
        <ele>586</ele>
        <time>2007-03-04T08:44:26Z</time>
      </trkpt>
      <trkpt lat="42.48515" lon="2.65487">
        <ele>593</ele>
        <time>2007-03-04T08:44:52Z</time>
      </trkpt>
      <trkpt lat="42.48515" lon="2.65485">
        <ele>597</ele>
        <time>2007-03-04T08:45:06Z</time>
      </trkpt>
      <trkpt lat="42.48514" lon="2.65483">
        <ele>595</ele>
        <time>2007-03-04T08:45:19Z</time>
      </trkpt>
      <trkpt lat="42.48513" lon="2.65481">
        <ele>594</ele>
        <time>2007-03-04T08:45:37Z</time>
      </trkpt>
      <trkpt lat="42.48512" lon="2.65481">
        <ele>593</ele>
        <time>2007-03-04T08:45:48Z</time>
      </trkpt>
      <trkpt lat="42.48512" lon="2.6548">
        <ele>592</ele>
        <time>2007-03-04T08:45:56Z</time>
      </trkpt>
      <trkpt lat="42.48513" lon="2.65481">
        <ele>596</ele>
        <time>2007-03-04T08:46:09Z</time>
      </trkpt>
      <trkpt lat="42.48515" lon="2.6548">
        <ele>597</ele>
        <time>2007-03-04T08:46:26Z</time>
      </trkpt>
      <trkpt lat="42.48516" lon="2.65481">
        <ele>597</ele>
        <time>2007-03-04T08:46:32Z</time>
      </trkpt>
      <trkpt lat="42.48519" lon="2.65494">
        <ele>596</ele>
        <time>2007-03-04T08:46:37Z</time>
      </trkpt>
      <trkpt lat="42.48517" lon="2.65498">
        <ele>596</ele>
        <time>2007-03-04T08:46:38Z</time>
      </trkpt>
      <trkpt lat="42.485" lon="2.6552">
        <ele>599</ele>
        <time>2007-03-04T08:46:45Z</time>
      </trkpt>
      <trkpt lat="42.4849" lon="2.65533">
        <ele>598</ele>
        <time>2007-03-04T08:46:49Z</time>
      </trkpt>
      <trkpt lat="42.48488" lon="2.6556">
        <ele>597</ele>
        <time>2007-03-04T08:46:53Z</time>
      </trkpt>
      <trkpt lat="42.48483" lon="2.65584">
        <ele>593</ele>
        <time>2007-03-04T08:46:56Z</time>
      </trkpt>
      <trkpt lat="42.48476" lon="2.65605">
        <ele>588</ele>
        <time>2007-03-04T08:47:00Z</time>
      </trkpt>
      <trkpt lat="42.48462" lon="2.65629">
        <ele>585</ele>
        <time>2007-03-04T08:47:05Z</time>
      </trkpt>
      <trkpt lat="42.48444" lon="2.65637">
        <ele>583</ele>
        <time>2007-03-04T08:47:10Z</time>
      </trkpt>
      <trkpt lat="42.48444" lon="2.65642">
        <ele>580</ele>
        <time>2007-03-04T08:47:13Z</time>
      </trkpt>
      <trkpt lat="42.48445" lon="2.65644">
        <ele>580</ele>
        <time>2007-03-04T08:47:14Z</time>
      </trkpt>
      <trkpt lat="42.48454" lon="2.65668">
        <ele>575</ele>
        <time>2007-03-04T08:47:19Z</time>
      </trkpt>
      <trkpt lat="42.48468" lon="2.65689">
        <ele>573</ele>
        <time>2007-03-04T08:47:23Z</time>
      </trkpt>
      <trkpt lat="42.48477" lon="2.65704">
        <ele>570</ele>
        <time>2007-03-04T08:47:26Z</time>
      </trkpt>
      <trkpt lat="42.48478" lon="2.6572">
        <ele>566</ele>
        <time>2007-03-04T08:47:29Z</time>
      </trkpt>
      <trkpt lat="42.48474" lon="2.65752">
        <ele>564</ele>
        <time>2007-03-04T08:47:34Z</time>
      </trkpt>
      <trkpt lat="42.48466" lon="2.65765">
        <ele>563</ele>
        <time>2007-03-04T08:47:38Z</time>
      </trkpt>
      <trkpt lat="42.48466" lon="2.65775">
        <ele>560</ele>
        <time>2007-03-04T08:47:42Z</time>
      </trkpt>
      <trkpt lat="42.4846" lon="2.65782">
        <ele>558</ele>
        <time>2007-03-04T08:47:46Z</time>
      </trkpt>
      <trkpt lat="42.4846" lon="2.65785">
        <ele>557</ele>
        <time>2007-03-04T08:47:47Z</time>
      </trkpt>
      <trkpt lat="42.4845" lon="2.65802">
        <ele>553</ele>
        <time>2007-03-04T08:47:52Z</time>
      </trkpt>
      <trkpt lat="42.48436" lon="2.6581">
        <ele>555</ele>
        <time>2007-03-04T08:47:56Z</time>
      </trkpt>
      <trkpt lat="42.48423" lon="2.65822">
        <ele>550</ele>
        <time>2007-03-04T08:48:01Z</time>
      </trkpt>
      <trkpt lat="42.48413" lon="2.6585">
        <ele>551</ele>
        <time>2007-03-04T08:48:06Z</time>
      </trkpt>
      <trkpt lat="42.48406" lon="2.6587">
        <ele>551</ele>
        <time>2007-03-04T08:48:10Z</time>
      </trkpt>
      <trkpt lat="42.48395" lon="2.65896">
        <ele>548</ele>
        <time>2007-03-04T08:48:17Z</time>
      </trkpt>
      <trkpt lat="42.48385" lon="2.65907">
        <ele>543</ele>
        <time>2007-03-04T08:48:21Z</time>
      </trkpt>
      <trkpt lat="42.4838" lon="2.65921">
        <ele>540</ele>
        <time>2007-03-04T08:48:25Z</time>
      </trkpt>
      <trkpt lat="42.48373" lon="2.65935">
        <ele>537</ele>
        <time>2007-03-04T08:48:30Z</time>
      </trkpt>
      <trkpt lat="42.48366" lon="2.65941">
        <ele>536</ele>
        <time>2007-03-04T08:48:35Z</time>
      </trkpt>
      <trkpt lat="42.48364" lon="2.65946">
        <ele>535</ele>
        <time>2007-03-04T08:48:37Z</time>
      </trkpt>
      <trkpt lat="42.48357" lon="2.65954">
        <ele>533</ele>
        <time>2007-03-04T08:48:42Z</time>
      </trkpt>
      <trkpt lat="42.48352" lon="2.65963">
        <ele>531</ele>
        <time>2007-03-04T08:48:49Z</time>
      </trkpt>
      <trkpt lat="42.48346" lon="2.6596">
        <ele>530</ele>
        <time>2007-03-04T08:48:54Z</time>
      </trkpt>
      <trkpt lat="42.48344" lon="2.65968">
        <ele>529</ele>
        <time>2007-03-04T08:48:57Z</time>
      </trkpt>
      <trkpt lat="42.48343" lon="2.65986">
        <ele>526</ele>
        <time>2007-03-04T08:49:02Z</time>
      </trkpt>
      <trkpt lat="42.48337" lon="2.65993">
        <ele>524</ele>
        <time>2007-03-04T08:49:07Z</time>
      </trkpt>
      <trkpt lat="42.48338" lon="2.66004">
        <ele>521</ele>
        <time>2007-03-04T08:49:11Z</time>
      </trkpt>
      <trkpt lat="42.48339" lon="2.66009">
        <ele>519</ele>
        <time>2007-03-04T08:49:13Z</time>
      </trkpt>
      <trkpt lat="42.48339" lon="2.66019">
        <ele>514</ele>
        <time>2007-03-04T08:49:19Z</time>
      </trkpt>
      <trkpt lat="42.48347" lon="2.66039">
        <ele>512</ele>
        <time>2007-03-04T08:49:25Z</time>
      </trkpt>
      <trkpt lat="42.48356" lon="2.66055">
        <ele>507</ele>
        <time>2007-03-04T08:49:32Z</time>
      </trkpt>
      <trkpt lat="42.48365" lon="2.6606">
        <ele>503</ele>
        <time>2007-03-04T08:49:37Z</time>
      </trkpt>
      <trkpt lat="42.48379" lon="2.66065">
        <ele>497</ele>
        <time>2007-03-04T08:49:42Z</time>
      </trkpt>
      <trkpt lat="42.48394" lon="2.6607">
        <ele>493</ele>
        <time>2007-03-04T08:49:47Z</time>
      </trkpt>
      <trkpt lat="42.484" lon="2.66075">
        <ele>490</ele>
        <time>2007-03-04T08:49:52Z</time>
      </trkpt>
      <trkpt lat="42.48403" lon="2.66076">
        <ele>493</ele>
        <time>2007-03-04T08:49:58Z</time>
      </trkpt>
      <trkpt lat="42.48406" lon="2.66077">
        <ele>492</ele>
        <time>2007-03-04T08:50:00Z</time>
      </trkpt>
      <trkpt lat="42.4841" lon="2.66081">
        <ele>496</ele>
        <time>2007-03-04T08:50:06Z</time>
      </trkpt>
      <trkpt lat="42.48412" lon="2.66082">
        <ele>499</ele>
        <time>2007-03-04T08:50:09Z</time>
      </trkpt>
      <trkpt lat="42.48419" lon="2.66087">
        <ele>502</ele>
        <time>2007-03-04T08:50:13Z</time>
      </trkpt>
      <trkpt lat="42.48433" lon="2.6609">
        <ele>501</ele>
        <time>2007-03-04T08:50:19Z</time>
      </trkpt>
      <trkpt lat="42.48435" lon="2.66087">
        <ele>498</ele>
        <time>2007-03-04T08:50:20Z</time>
      </trkpt>
      <trkpt lat="42.48439" lon="2.6608">
        <ele>490</ele>
        <time>2007-03-04T08:50:25Z</time>
      </trkpt>
      <trkpt lat="42.4844" lon="2.66081">
        <ele>490</ele>
        <time>2007-03-04T08:50:28Z</time>
      </trkpt>
      <trkpt lat="42.48442" lon="2.66086">
        <ele>495</ele>
        <time>2007-03-04T08:50:34Z</time>
      </trkpt>
      <trkpt lat="42.48448" lon="2.6609">
        <ele>491</ele>
        <time>2007-03-04T08:50:38Z</time>
      </trkpt>
      <trkpt lat="42.48463" lon="2.66093">
        <ele>488</ele>
        <time>2007-03-04T08:50:43Z</time>
      </trkpt>
      <trkpt lat="42.48465" lon="2.66094">
        <ele>488</ele>
        <time>2007-03-04T08:50:44Z</time>
      </trkpt>
      <trkpt lat="42.48464" lon="2.66104">
        <ele>485</ele>
        <time>2007-03-04T08:50:48Z</time>
      </trkpt>
      <trkpt lat="42.48464" lon="2.6611">
        <ele>485</ele>
        <time>2007-03-04T08:50:53Z</time>
      </trkpt>
      <trkpt lat="42.48479" lon="2.66107">
        <ele>484</ele>
        <time>2007-03-04T08:50:59Z</time>
      </trkpt>
      <trkpt lat="42.48484" lon="2.66112">
        <ele>483</ele>
        <time>2007-03-04T08:51:01Z</time>
      </trkpt>
      <trkpt lat="42.4848" lon="2.66126">
        <ele>485</ele>
        <time>2007-03-04T08:51:06Z</time>
      </trkpt>
      <trkpt lat="42.48477" lon="2.66123">
        <ele>479</ele>
        <time>2007-03-04T08:51:11Z</time>
      </trkpt>
      <trkpt lat="42.48476" lon="2.66121">
        <ele>486</ele>
        <time>2007-03-04T08:51:18Z</time>
      </trkpt>
      <trkpt lat="42.48482" lon="2.6612">
        <ele>487</ele>
        <time>2007-03-04T08:51:24Z</time>
      </trkpt>
      <trkpt lat="42.48489" lon="2.6612">
        <ele>497</ele>
        <time>2007-03-04T08:51:30Z</time>
      </trkpt>
      <trkpt lat="42.48489" lon="2.66118">
        <ele>500</ele>
        <time>2007-03-04T08:51:32Z</time>
      </trkpt>
      <trkpt lat="42.48485" lon="2.66101">
        <ele>495</ele>
        <time>2007-03-04T08:51:38Z</time>
      </trkpt>
      <trkpt lat="42.48488" lon="2.66088">
        <ele>492</ele>
        <time>2007-03-04T08:51:42Z</time>
      </trkpt>
      <trkpt lat="42.48502" lon="2.66088">
        <ele>494</ele>
        <time>2007-03-04T08:51:48Z</time>
      </trkpt>
      <trkpt lat="42.48505" lon="2.6609">
        <ele>496</ele>
        <time>2007-03-04T08:51:49Z</time>
      </trkpt>
      <trkpt lat="42.48513" lon="2.66099">
        <ele>494</ele>
        <time>2007-03-04T08:51:55Z</time>
      </trkpt>
      <trkpt lat="42.48521" lon="2.66101">
        <ele>493</ele>
        <time>2007-03-04T08:52:00Z</time>
      </trkpt>
      <trkpt lat="42.48526" lon="2.66103">
        <ele>493</ele>
        <time>2007-03-04T08:52:03Z</time>
      </trkpt>
      <trkpt lat="42.48536" lon="2.66107">
        <ele>489</ele>
        <time>2007-03-04T08:52:08Z</time>
      </trkpt>
      <trkpt lat="42.48542" lon="2.66111">
        <ele>489</ele>
        <time>2007-03-04T08:52:11Z</time>
      </trkpt>
      <trkpt lat="42.48545" lon="2.6611">
        <ele>487</ele>
        <time>2007-03-04T08:52:14Z</time>
      </trkpt>
      <trkpt lat="42.4855" lon="2.66119">
        <ele>485</ele>
        <time>2007-03-04T08:52:20Z</time>
      </trkpt>
      <trkpt lat="42.48552" lon="2.6612">
        <ele>483</ele>
        <time>2007-03-04T08:52:22Z</time>
      </trkpt>
      <trkpt lat="42.48553" lon="2.66121">
        <ele>483</ele>
        <time>2007-03-04T08:52:24Z</time>
      </trkpt>
      <trkpt lat="42.48558" lon="2.66124">
        <ele>481</ele>
        <time>2007-03-04T08:52:31Z</time>
      </trkpt>
      <trkpt lat="42.48562" lon="2.66127">
        <ele>481</ele>
        <time>2007-03-04T08:52:36Z</time>
      </trkpt>
      <trkpt lat="42.48564" lon="2.66128">
        <ele>480</ele>
        <time>2007-03-04T08:52:41Z</time>
      </trkpt>
      <trkpt lat="42.48566" lon="2.6613">
        <ele>479</ele>
        <time>2007-03-04T08:52:48Z</time>
      </trkpt>
      <trkpt lat="42.48569" lon="2.66131">
        <ele>477</ele>
        <time>2007-03-04T08:52:54Z</time>
      </trkpt>
      <trkpt lat="42.4857" lon="2.66134">
        <ele>476</ele>
        <time>2007-03-04T08:52:59Z</time>
      </trkpt>
      <trkpt lat="42.48569" lon="2.66134">
        <ele>474</ele>
        <time>2007-03-04T08:53:01Z</time>
      </trkpt>
      <trkpt lat="42.48565" lon="2.66139">
        <ele>476</ele>
        <time>2007-03-04T08:53:08Z</time>
      </trkpt>
      <trkpt lat="42.48561" lon="2.6614">
        <ele>474</ele>
        <time>2007-03-04T08:53:14Z</time>
      </trkpt>
      <trkpt lat="42.48559" lon="2.66142">
        <ele>473</ele>
        <time>2007-03-04T08:53:22Z</time>
      </trkpt>
      <trkpt lat="42.4856" lon="2.66141">
        <ele>472</ele>
        <time>2007-03-04T08:53:36Z</time>
      </trkpt>
      <trkpt lat="42.48561" lon="2.66142">
        <ele>474</ele>
        <time>2007-03-04T08:53:47Z</time>
      </trkpt>
      <trkpt lat="42.48562" lon="2.66144">
        <ele>478</ele>
        <time>2007-03-04T08:54:05Z</time>
      </trkpt>
      <trkpt lat="42.48564" lon="2.66144">
        <ele>483</ele>
        <time>2007-03-04T08:54:23Z</time>
      </trkpt>
      <trkpt lat="42.48564" lon="2.66143">
        <ele>481</ele>
        <time>2007-03-04T08:54:28Z</time>
      </trkpt>
      <trkpt lat="42.48563" lon="2.66142">
        <ele>481</ele>
        <time>2007-03-04T08:54:31Z</time>
      </trkpt>
      <trkpt lat="42.48561" lon="2.66142">
        <ele>477</ele>
        <time>2007-03-04T08:54:36Z</time>
      </trkpt>
      <trkpt lat="42.48559" lon="2.66143">
        <ele>475</ele>
        <time>2007-03-04T08:54:53Z</time>
      </trkpt>
      <trkpt lat="42.48559" lon="2.66143">
        <ele>481</ele>
        <time>2007-03-04T08:55:21Z</time>
      </trkpt>
      <trkpt lat="42.48561" lon="2.66144">
        <ele>481</ele>
        <time>2007-03-04T08:55:29Z</time>
      </trkpt>
      <trkpt lat="42.48563" lon="2.66147">
        <ele>477</ele>
        <time>2007-03-04T08:55:34Z</time>
      </trkpt>
      <trkpt lat="42.48565" lon="2.6615">
        <ele>478</ele>
        <time>2007-03-04T08:55:41Z</time>
      </trkpt>
      <trkpt lat="42.48575" lon="2.66154">
        <ele>476</ele>
        <time>2007-03-04T08:55:46Z</time>
      </trkpt>
      <trkpt lat="42.48573" lon="2.66167">
        <ele>471</ele>
        <time>2007-03-04T08:55:50Z</time>
      </trkpt>
      <trkpt lat="42.4857" lon="2.66179">
        <ele>467</ele>
        <time>2007-03-04T08:55:53Z</time>
      </trkpt>
      <trkpt lat="42.48575" lon="2.66192">
        <ele>464</ele>
        <time>2007-03-04T08:55:58Z</time>
      </trkpt>
      <trkpt lat="42.48577" lon="2.66197">
        <ele>462</ele>
        <time>2007-03-04T08:56:00Z</time>
      </trkpt>
      <trkpt lat="42.48576" lon="2.66203">
        <ele>459</ele>
        <time>2007-03-04T08:56:04Z</time>
      </trkpt>
      <trkpt lat="42.48577" lon="2.66207">
        <ele>454</ele>
        <time>2007-03-04T08:56:10Z</time>
      </trkpt>
      <trkpt lat="42.48579" lon="2.66214">
        <ele>454</ele>
        <time>2007-03-04T08:56:15Z</time>
      </trkpt>
      <trkpt lat="42.48579" lon="2.66215">
        <ele>451</ele>
        <time>2007-03-04T08:56:20Z</time>
      </trkpt>
      <trkpt lat="42.48577" lon="2.66224">
        <ele>453</ele>
        <time>2007-03-04T08:56:24Z</time>
      </trkpt>
      <trkpt lat="42.48579" lon="2.66229">
        <ele>452</ele>
        <time>2007-03-04T08:56:27Z</time>
      </trkpt>
      <trkpt lat="42.48581" lon="2.66243">
        <ele>444</ele>
        <time>2007-03-04T08:56:34Z</time>
      </trkpt>
      <trkpt lat="42.48581" lon="2.66245">
        <ele>442</ele>
        <time>2007-03-04T08:56:37Z</time>
      </trkpt>
      <trkpt lat="42.48592" lon="2.66238">
        <ele>446</ele>
        <time>2007-03-04T08:56:44Z</time>
      </trkpt>
      <trkpt lat="42.48598" lon="2.66231">
        <ele>444</ele>
        <time>2007-03-04T08:56:47Z</time>
      </trkpt>
      <trkpt lat="42.486" lon="2.66228">
        <ele>443</ele>
        <time>2007-03-04T08:56:48Z</time>
      </trkpt>
      <trkpt lat="42.48613" lon="2.66212">
        <ele>437</ele>
        <time>2007-03-04T08:56:53Z</time>
      </trkpt>
      <trkpt lat="42.48624" lon="2.66193">
        <ele>434</ele>
        <time>2007-03-04T08:56:58Z</time>
      </trkpt>
      <trkpt lat="42.48633" lon="2.66185">
        <ele>433</ele>
        <time>2007-03-04T08:57:00Z</time>
      </trkpt>
      <trkpt lat="42.48644" lon="2.66167">
        <ele>427</ele>
        <time>2007-03-04T08:57:05Z</time>
      </trkpt>
      <trkpt lat="42.48651" lon="2.6617">
        <ele>428</ele>
        <time>2007-03-04T08:57:08Z</time>
      </trkpt>
      <trkpt lat="42.48654" lon="2.66181">
        <ele>431</ele>
        <time>2007-03-04T08:57:11Z</time>
      </trkpt>
      <trkpt lat="42.48663" lon="2.66213">
        <ele>425</ele>
        <time>2007-03-04T08:57:16Z</time>
      </trkpt>
      <trkpt lat="42.48665" lon="2.66218">
        <ele>425</ele>
        <time>2007-03-04T08:57:17Z</time>
      </trkpt>
      <trkpt lat="42.48668" lon="2.6622">
        <ele>422</ele>
        <time>2007-03-04T08:57:20Z</time>
      </trkpt>
      <trkpt lat="42.48673" lon="2.66224">
        <ele>419</ele>
        <time>2007-03-04T08:57:24Z</time>
      </trkpt>
      <trkpt lat="42.48676" lon="2.66231">
        <ele>418</ele>
        <time>2007-03-04T08:57:26Z</time>
      </trkpt>
      <trkpt lat="42.48673" lon="2.66258">
        <ele>410</ele>
        <time>2007-03-04T08:57:31Z</time>
      </trkpt>
      <trkpt lat="42.48671" lon="2.66297">
        <ele>410</ele>
        <time>2007-03-04T08:57:36Z</time>
      </trkpt>
      <trkpt lat="42.48672" lon="2.66316">
        <ele>408</ele>
        <time>2007-03-04T08:57:40Z</time>
      </trkpt>
      <trkpt lat="42.48672" lon="2.66324">
        <ele>405</ele>
        <time>2007-03-04T08:57:42Z</time>
      </trkpt>
      <trkpt lat="42.48669" lon="2.66341">
        <ele>398</ele>
        <time>2007-03-04T08:57:48Z</time>
      </trkpt>
      <trkpt lat="42.48669" lon="2.66342">
        <ele>392</ele>
        <time>2007-03-04T08:57:55Z</time>
      </trkpt>
      <trkpt lat="42.48669" lon="2.66341">
        <ele>389</ele>
        <time>2007-03-04T08:58:02Z</time>
      </trkpt>
      <trkpt lat="42.48669" lon="2.66341">
        <ele>388</ele>
        <time>2007-03-04T08:58:06Z</time>
      </trkpt>
      <trkpt lat="42.48669" lon="2.6634">
        <ele>386</ele>
        <time>2007-03-04T08:58:14Z</time>
      </trkpt>
      <trkpt lat="42.48669" lon="2.66339">
        <ele>387</ele>
        <time>2007-03-04T08:58:21Z</time>
      </trkpt>
      <trkpt lat="42.48672" lon="2.66337">
        <ele>386</ele>
        <time>2007-03-04T08:58:28Z</time>
      </trkpt>
      <trkpt lat="42.48675" lon="2.66332">
        <ele>383</ele>
        <time>2007-03-04T08:58:34Z</time>
      </trkpt>
      <trkpt lat="42.48677" lon="2.66331">
        <ele>384</ele>
        <time>2007-03-04T08:58:37Z</time>
      </trkpt>
      <trkpt lat="42.48684" lon="2.66321">
        <ele>384</ele>
        <time>2007-03-04T08:58:43Z</time>
      </trkpt>
      <trkpt lat="42.48685" lon="2.66324">
        <ele>384</ele>
        <time>2007-03-04T08:58:46Z</time>
      </trkpt>
      <trkpt lat="42.48684" lon="2.66339">
        <ele>389</ele>
        <time>2007-03-04T08:58:52Z</time>
      </trkpt>
      <trkpt lat="42.4868" lon="2.66366">
        <ele>393</ele>
        <time>2007-03-04T08:58:58Z</time>
      </trkpt>
      <trkpt lat="42.48678" lon="2.66371">
        <ele>391</ele>
        <time>2007-03-04T08:59:02Z</time>
      </trkpt>
      <trkpt lat="42.48679" lon="2.66375">
        <ele>390</ele>
        <time>2007-03-04T08:59:06Z</time>
      </trkpt>
      <trkpt lat="42.48673" lon="2.66379">
        <ele>386</ele>
        <time>2007-03-04T08:59:11Z</time>
      </trkpt>
      <trkpt lat="42.48671" lon="2.6638">
        <ele>385</ele>
        <time>2007-03-04T08:59:15Z</time>
      </trkpt>
      <trkpt lat="42.48668" lon="2.66386">
        <ele>383</ele>
        <time>2007-03-04T08:59:21Z</time>
      </trkpt>
      <trkpt lat="42.48667" lon="2.66393">
        <ele>378</ele>
        <time>2007-03-04T08:59:26Z</time>
      </trkpt>
      <trkpt lat="42.48666" lon="2.66424">
        <ele>380</ele>
        <time>2007-03-04T08:59:34Z</time>
      </trkpt>
      <trkpt lat="42.48665" lon="2.6644">
        <ele>385</ele>
        <time>2007-03-04T08:59:39Z</time>
      </trkpt>
      <trkpt lat="42.4866" lon="2.66451">
        <ele>384</ele>
        <time>2007-03-04T08:59:43Z</time>
      </trkpt>
      <trkpt lat="42.48654" lon="2.6647">
        <ele>383</ele>
        <time>2007-03-04T08:59:48Z</time>
      </trkpt>
      <trkpt lat="42.48645" lon="2.66487">
        <ele>383</ele>
        <time>2007-03-04T08:59:54Z</time>
      </trkpt>
      <trkpt lat="42.48643" lon="2.6649">
        <ele>385</ele>
        <time>2007-03-04T08:59:56Z</time>
      </trkpt>
      <trkpt lat="42.48642" lon="2.66491">
        <ele>384</ele>
        <time>2007-03-04T08:59:58Z</time>
      </trkpt>
      <trkpt lat="42.48639" lon="2.66495">
        <ele>386</ele>
        <time>2007-03-04T09:00:02Z</time>
      </trkpt>
      <trkpt lat="42.48639" lon="2.665">
        <ele>390</ele>
        <time>2007-03-04T09:00:08Z</time>
      </trkpt>
      <trkpt lat="42.48637" lon="2.66516">
        <ele>391</ele>
        <time>2007-03-04T09:00:14Z</time>
      </trkpt>
      <trkpt lat="42.48633" lon="2.66525">
        <ele>387</ele>
        <time>2007-03-04T09:00:18Z</time>
      </trkpt>
      <trkpt lat="42.4863" lon="2.66544">
        <ele>386</ele>
        <time>2007-03-04T09:00:24Z</time>
      </trkpt>
      <trkpt lat="42.4863" lon="2.66548">
        <ele>388</ele>
        <time>2007-03-04T09:00:25Z</time>
      </trkpt>
      <trkpt lat="42.48633" lon="2.66565">
        <ele>390</ele>
        <time>2007-03-04T09:00:30Z</time>
      </trkpt>
      <trkpt lat="42.48631" lon="2.66584">
        <ele>387</ele>
        <time>2007-03-04T09:00:34Z</time>
      </trkpt>
      <trkpt lat="42.48631" lon="2.66605">
        <ele>386</ele>
        <time>2007-03-04T09:00:37Z</time>
      </trkpt>
      <trkpt lat="42.48632" lon="2.66641">
        <ele>385</ele>
        <time>2007-03-04T09:00:41Z</time>
      </trkpt>
      <trkpt lat="42.48633" lon="2.66667">
        <ele>379</ele>
        <time>2007-03-04T09:00:45Z</time>
      </trkpt>
      <trkpt lat="42.48634" lon="2.66678">
        <ele>379</ele>
        <time>2007-03-04T09:00:47Z</time>
      </trkpt>
      <trkpt lat="42.48637" lon="2.66702">
        <ele>376</ele>
        <time>2007-03-04T09:00:51Z</time>
      </trkpt>
      <trkpt lat="42.48637" lon="2.66712">
        <ele>375</ele>
        <time>2007-03-04T09:00:53Z</time>
      </trkpt>
      <trkpt lat="42.48634" lon="2.66735">
        <ele>370</ele>
        <time>2007-03-04T09:00:57Z</time>
      </trkpt>
      <trkpt lat="42.48622" lon="2.66745">
        <ele>364</ele>
        <time>2007-03-04T09:01:01Z</time>
      </trkpt>
      <trkpt lat="42.48617" lon="2.66749">
        <ele>363</ele>
        <time>2007-03-04T09:01:03Z</time>
      </trkpt>
      <trkpt lat="42.48607" lon="2.66761">
        <ele>361</ele>
        <time>2007-03-04T09:01:07Z</time>
      </trkpt>
      <trkpt lat="42.48601" lon="2.66783">
        <ele>358</ele>
        <time>2007-03-04T09:01:12Z</time>
      </trkpt>
      <trkpt lat="42.48597" lon="2.66802">
        <ele>354</ele>
        <time>2007-03-04T09:01:15Z</time>
      </trkpt>
      <trkpt lat="42.48595" lon="2.66842">
        <ele>354</ele>
        <time>2007-03-04T09:01:21Z</time>
      </trkpt>
      <trkpt lat="42.48595" lon="2.66855">
        <ele>352</ele>
        <time>2007-03-04T09:01:24Z</time>
      </trkpt>
      <trkpt lat="42.48592" lon="2.66862">
        <ele>350</ele>
        <time>2007-03-04T09:01:28Z</time>
      </trkpt>
      <trkpt lat="42.48591" lon="2.66865">
        <ele>352</ele>
        <time>2007-03-04T09:01:30Z</time>
      </trkpt>
      <trkpt lat="42.48591" lon="2.66872">
        <ele>354</ele>
        <time>2007-03-04T09:01:36Z</time>
      </trkpt>
      <trkpt lat="42.48592" lon="2.66876">
        <ele>357</ele>
        <time>2007-03-04T09:01:39Z</time>
      </trkpt>
      <trkpt lat="42.48594" lon="2.6688">
        <ele>353</ele>
        <time>2007-03-04T09:01:42Z</time>
      </trkpt>
      <trkpt lat="42.48595" lon="2.66889">
        <ele>357</ele>
        <time>2007-03-04T09:01:47Z</time>
      </trkpt>
      <trkpt lat="42.48597" lon="2.66897">
        <ele>361</ele>
        <time>2007-03-04T09:01:53Z</time>
      </trkpt>
      <trkpt lat="42.48597" lon="2.66897">
        <ele>360</ele>
        <time>2007-03-04T09:01:54Z</time>
      </trkpt>
      <trkpt lat="42.486" lon="2.66906">
        <ele>360</ele>
        <time>2007-03-04T09:02:00Z</time>
      </trkpt>
      <trkpt lat="42.48599" lon="2.66915">
        <ele>358</ele>
        <time>2007-03-04T09:02:03Z</time>
      </trkpt>
      <trkpt lat="42.48595" lon="2.66936">
        <ele>357</ele>
        <time>2007-03-04T09:02:09Z</time>
      </trkpt>
      <trkpt lat="42.48601" lon="2.66944">
        <ele>356</ele>
        <time>2007-03-04T09:02:12Z</time>
      </trkpt>
      <trkpt lat="42.48601" lon="2.66957">
        <ele>354</ele>
        <time>2007-03-04T09:02:16Z</time>
      </trkpt>
      <trkpt lat="42.486" lon="2.66972">
        <ele>351</ele>
        <time>2007-03-04T09:02:20Z</time>
      </trkpt>
      <trkpt lat="42.48602" lon="2.66978">
        <ele>351</ele>
        <time>2007-03-04T09:02:23Z</time>
      </trkpt>
      <trkpt lat="42.486" lon="2.66981">
        <ele>352</ele>
        <time>2007-03-04T09:02:24Z</time>
      </trkpt>
      <trkpt lat="42.48598" lon="2.67007">
        <ele>351</ele>
        <time>2007-03-04T09:02:30Z</time>
      </trkpt>
      <trkpt lat="42.48602" lon="2.67022">
        <ele>348</ele>
        <time>2007-03-04T09:02:33Z</time>
      </trkpt>
      <trkpt lat="42.48599" lon="2.67035">
        <ele>341</ele>
        <time>2007-03-04T09:02:38Z</time>
      </trkpt>
      <trkpt lat="42.48599" lon="2.67047">
        <ele>337</ele>
        <time>2007-03-04T09:02:42Z</time>
      </trkpt>
      <trkpt lat="42.48596" lon="2.67047">
        <ele>334</ele>
        <time>2007-03-04T09:02:43Z</time>
      </trkpt>
      <trkpt lat="42.48581" lon="2.67057">
        <ele>333</ele>
        <time>2007-03-04T09:02:48Z</time>
      </trkpt>
      <trkpt lat="42.48567" lon="2.67065">
        <ele>328</ele>
        <time>2007-03-04T09:02:52Z</time>
      </trkpt>
      <trkpt lat="42.48547" lon="2.67079">
        <ele>318</ele>
        <time>2007-03-04T09:02:57Z</time>
      </trkpt>
      <trkpt lat="42.48536" lon="2.67094">
        <ele>317</ele>
        <time>2007-03-04T09:03:00Z</time>
      </trkpt>
      <trkpt lat="42.48527" lon="2.67107">
        <ele>307</ele>
        <time>2007-03-04T09:03:04Z</time>
      </trkpt>
      <trkpt lat="42.48521" lon="2.67123">
        <ele>305</ele>
        <time>2007-03-04T09:03:10Z</time>
      </trkpt>
      <trkpt lat="42.48516" lon="2.67125">
        <ele>306</ele>
        <time>2007-03-04T09:03:12Z</time>
      </trkpt>
      <trkpt lat="42.48513" lon="2.6713">
        <ele>304</ele>
        <time>2007-03-04T09:03:15Z</time>
      </trkpt>
      <trkpt lat="42.48505" lon="2.67137">
        <ele>301</ele>
        <time>2007-03-04T09:03:22Z</time>
      </trkpt>
      <trkpt lat="42.48504" lon="2.67142">
        <ele>302</ele>
        <time>2007-03-04T09:03:27Z</time>
      </trkpt>
      <trkpt lat="42.48503" lon="2.67141">
        <ele>301</ele>
        <time>2007-03-04T09:03:28Z</time>
      </trkpt>
      <trkpt lat="42.48494" lon="2.67146">
        <ele>301</ele>
        <time>2007-03-04T09:03:34Z</time>
      </trkpt>
      <trkpt lat="42.48492" lon="2.67148">
        <ele>300</ele>
        <time>2007-03-04T09:03:39Z</time>
      </trkpt>
      <trkpt lat="42.48495" lon="2.67151">
        <ele>296</ele>
        <time>2007-03-04T09:03:44Z</time>
      </trkpt>
      <trkpt lat="42.48498" lon="2.67156">
        <ele>295</ele>
        <time>2007-03-04T09:03:49Z</time>
      </trkpt>
      <trkpt lat="42.48501" lon="2.67156">
        <ele>297</ele>
        <time>2007-03-04T09:03:52Z</time>
      </trkpt>
      <trkpt lat="42.48508" lon="2.6716">
        <ele>298</ele>
        <time>2007-03-04T09:03:58Z</time>
      </trkpt>
      <trkpt lat="42.48509" lon="2.67162">
        <ele>295</ele>
        <time>2007-03-04T09:04:01Z</time>
      </trkpt>
      <trkpt lat="42.48504" lon="2.67163">
        <ele>298</ele>
        <time>2007-03-04T09:04:06Z</time>
      </trkpt>
      <trkpt lat="42.48502" lon="2.67171">
        <ele>297</ele>
        <time>2007-03-04T09:04:13Z</time>
      </trkpt>
      <trkpt lat="42.48502" lon="2.67173">
        <ele>301</ele>
        <time>2007-03-04T09:04:22Z</time>
      </trkpt>
      <trkpt lat="42.48505" lon="2.67172">
        <ele>302</ele>
        <time>2007-03-04T09:04:34Z</time>
      </trkpt>
      <trkpt lat="42.48509" lon="2.67177">
        <ele>301</ele>
        <time>2007-03-04T09:04:37Z</time>
      </trkpt>
      <trkpt lat="42.48517" lon="2.67191">
        <ele>294</ele>
        <time>2007-03-04T09:04:44Z</time>
      </trkpt>
      <trkpt lat="42.48512" lon="2.67192">
        <ele>289</ele>
        <time>2007-03-04T09:04:47Z</time>
      </trkpt>
      <trkpt lat="42.48507" lon="2.67191">
        <ele>286</ele>
        <time>2007-03-04T09:04:50Z</time>
      </trkpt>
      <trkpt lat="42.48507" lon="2.67206">
        <ele>280</ele>
        <time>2007-03-04T09:04:57Z</time>
      </trkpt>
      <trkpt lat="42.48505" lon="2.67221">
        <ele>279</ele>
        <time>2007-03-04T09:05:01Z</time>
      </trkpt>
      <trkpt lat="42.48499" lon="2.67225">
        <ele>278</ele>
        <time>2007-03-04T09:05:03Z</time>
      </trkpt>
      <trkpt lat="42.48479" lon="2.6722">
        <ele>269</ele>
        <time>2007-03-04T09:05:11Z</time>
      </trkpt>
      <trkpt lat="42.48467" lon="2.67205">
        <ele>268</ele>
        <time>2007-03-04T09:05:16Z</time>
      </trkpt>
      <trkpt lat="42.48459" lon="2.67197">
        <ele>266</ele>
        <time>2007-03-04T09:05:22Z</time>
      </trkpt>
      <trkpt lat="42.48459" lon="2.67197">
        <ele>264</ele>
        <time>2007-03-04T09:05:34Z</time>
      </trkpt>
      <trkpt lat="42.48459" lon="2.67195">
        <ele>263</ele>
        <time>2007-03-04T09:05:40Z</time>
      </trkpt>
      <trkpt lat="42.48459" lon="2.67204">
        <ele>268</ele>
        <time>2007-03-04T09:05:47Z</time>
      </trkpt>
      <trkpt lat="42.4846" lon="2.67205">
        <ele>267</ele>
        <time>2007-03-04T09:05:48Z</time>
      </trkpt>
      <trkpt lat="42.48466" lon="2.67228">
        <ele>266</ele>
        <time>2007-03-04T09:05:54Z</time>
      </trkpt>
      <trkpt lat="42.48478" lon="2.67244">
        <ele>267</ele>
        <time>2007-03-04T09:05:58Z</time>
      </trkpt>
      <trkpt lat="42.48486" lon="2.67256">
        <ele>265</ele>
        <time>2007-03-04T09:06:01Z</time>
      </trkpt>
      <trkpt lat="42.48475" lon="2.67275">
        <ele>263</ele>
        <time>2007-03-04T09:06:05Z</time>
      </trkpt>
      <trkpt lat="42.4847" lon="2.67296">
        <ele>261</ele>
        <time>2007-03-04T09:06:08Z</time>
      </trkpt>
      <trkpt lat="42.48473" lon="2.67311">
        <ele>260</ele>
        <time>2007-03-04T09:06:10Z</time>
      </trkpt>
      <trkpt lat="42.48476" lon="2.67339">
        <ele>261</ele>
        <time>2007-03-04T09:06:14Z</time>
      </trkpt>
      <trkpt lat="42.48474" lon="2.67362">
        <ele>259</ele>
        <time>2007-03-04T09:06:19Z</time>
      </trkpt>
      <trkpt lat="42.48476" lon="2.67383">
        <ele>258</ele>
        <time>2007-03-04T09:06:23Z</time>
      </trkpt>
      <trkpt lat="42.48485" lon="2.67406">
        <ele>258</ele>
        <time>2007-03-04T09:06:27Z</time>
      </trkpt>
      <trkpt lat="42.48504" lon="2.67433">
        <ele>259</ele>
        <time>2007-03-04T09:06:33Z</time>
      </trkpt>
      <trkpt lat="42.48514" lon="2.67441">
        <ele>258</ele>
        <time>2007-03-04T09:06:36Z</time>
      </trkpt>
      <trkpt lat="42.48539" lon="2.67445">
        <ele>258</ele>
        <time>2007-03-04T09:06:43Z</time>
      </trkpt>
      <trkpt lat="42.4857" lon="2.67445">
        <ele>259</ele>
        <time>2007-03-04T09:06:52Z</time>
      </trkpt>
      <trkpt lat="42.48596" lon="2.67446">
        <ele>263</ele>
        <time>2007-03-04T09:07:00Z</time>
      </trkpt>
      <trkpt lat="42.48619" lon="2.67442">
        <ele>266</ele>
        <time>2007-03-04T09:07:08Z</time>
      </trkpt>
      <trkpt lat="42.48619" lon="2.67433">
        <ele>268</ele>
        <time>2007-03-04T09:07:12Z</time>
      </trkpt>
      <trkpt lat="42.48614" lon="2.67435">
        <ele>270</ele>
        <time>2007-03-04T09:07:14Z</time>
      </trkpt>
      <trkpt lat="42.48592" lon="2.67437">
        <ele>273</ele>
        <time>2007-03-04T09:07:21Z</time>
      </trkpt>
      <trkpt lat="42.4857" lon="2.67427">
        <ele>274</ele>
        <time>2007-03-04T09:07:28Z</time>
      </trkpt>
      <trkpt lat="42.48553" lon="2.67418">
        <ele>273</ele>
        <time>2007-03-04T09:07:34Z</time>
      </trkpt>
      <trkpt lat="42.48541" lon="2.67409">
        <ele>272</ele>
        <time>2007-03-04T09:07:39Z</time>
      </trkpt>
      <trkpt lat="42.48526" lon="2.67392">
        <ele>270</ele>
        <time>2007-03-04T09:07:45Z</time>
      </trkpt>
      <trkpt lat="42.48519" lon="2.67375">
        <ele>274</ele>
        <time>2007-03-04T09:07:51Z</time>
      </trkpt>
      <trkpt lat="42.48524" lon="2.67361">
        <ele>277</ele>
        <time>2007-03-04T09:07:56Z</time>
      </trkpt>
      <trkpt lat="42.48531" lon="2.67352">
        <ele>278</ele>
        <time>2007-03-04T09:08:02Z</time>
      </trkpt>
      <trkpt lat="42.48537" lon="2.67355">
        <ele>280</ele>
        <time>2007-03-04T09:08:10Z</time>
      </trkpt>
      <trkpt lat="42.48542" lon="2.67352">
        <ele>282</ele>
        <time>2007-03-04T09:08:15Z</time>
      </trkpt>
      <trkpt lat="42.48549" lon="2.67342">
        <ele>287</ele>
        <time>2007-03-04T09:08:26Z</time>
      </trkpt>
      <trkpt lat="42.48555" lon="2.67337">
        <ele>290</ele>
        <time>2007-03-04T09:08:34Z</time>
      </trkpt>
      <trkpt lat="42.48561" lon="2.67329">
        <ele>291</ele>
        <time>2007-03-04T09:08:42Z</time>
      </trkpt>
      <trkpt lat="42.48569" lon="2.67326">
        <ele>293</ele>
        <time>2007-03-04T09:08:49Z</time>
      </trkpt>
      <trkpt lat="42.48576" lon="2.67321">
        <ele>292</ele>
        <time>2007-03-04T09:08:57Z</time>
      </trkpt>
      <trkpt lat="42.4858" lon="2.67319">
        <ele>292</ele>
        <time>2007-03-04T09:09:03Z</time>
      </trkpt>
      <trkpt lat="42.48586" lon="2.67318">
        <ele>292</ele>
        <time>2007-03-04T09:09:07Z</time>
      </trkpt>
      <trkpt lat="42.48601" lon="2.67314">
        <ele>289</ele>
        <time>2007-03-04T09:09:13Z</time>
      </trkpt>
      <trkpt lat="42.48617" lon="2.67315">
        <ele>286</ele>
        <time>2007-03-04T09:09:16Z</time>
      </trkpt>
      <trkpt lat="42.48634" lon="2.67321">
        <ele>284</ele>
        <time>2007-03-04T09:09:19Z</time>
      </trkpt>
      <trkpt lat="42.48662" lon="2.67346">
        <ele>283</ele>
        <time>2007-03-04T09:09:24Z</time>
      </trkpt>
      <trkpt lat="42.48682" lon="2.67352">
        <ele>284</ele>
        <time>2007-03-04T09:09:28Z</time>
      </trkpt>
      <trkpt lat="42.48698" lon="2.67345">
        <ele>282</ele>
        <time>2007-03-04T09:09:31Z</time>
      </trkpt>
      <trkpt lat="42.48713" lon="2.67357">
        <ele>280</ele>
        <time>2007-03-04T09:09:35Z</time>
      </trkpt>
      <trkpt lat="42.48716" lon="2.67379">
        <ele>286</ele>
        <time>2007-03-04T09:09:39Z</time>
      </trkpt>
      <trkpt lat="42.48717" lon="2.67416">
        <ele>286</ele>
        <time>2007-03-04T09:09:47Z</time>
      </trkpt>
      <trkpt lat="42.48717" lon="2.67443">
        <ele>289</ele>
        <time>2007-03-04T09:09:52Z</time>
      </trkpt>
      <trkpt lat="42.48722" lon="2.67467">
        <ele>287</ele>
        <time>2007-03-04T09:09:57Z</time>
      </trkpt>
      <trkpt lat="42.4873" lon="2.6748">
        <ele>287</ele>
        <time>2007-03-04T09:10:01Z</time>
      </trkpt>
      <trkpt lat="42.48744" lon="2.67489">
        <ele>287</ele>
        <time>2007-03-04T09:10:07Z</time>
      </trkpt>
      <trkpt lat="42.48757" lon="2.67493">
        <ele>286</ele>
        <time>2007-03-04T09:10:13Z</time>
      </trkpt>
      <trkpt lat="42.48776" lon="2.67502">
        <ele>290</ele>
        <time>2007-03-04T09:10:21Z</time>
      </trkpt>
      <trkpt lat="42.48787" lon="2.6751">
        <ele>290</ele>
        <time>2007-03-04T09:10:27Z</time>
      </trkpt>
      <trkpt lat="42.48804" lon="2.6752">
        <ele>295</ele>
        <time>2007-03-04T09:10:34Z</time>
      </trkpt>
      <trkpt lat="42.4882" lon="2.67525">
        <ele>297</ele>
        <time>2007-03-04T09:10:40Z</time>
      </trkpt>
      <trkpt lat="42.48834" lon="2.67526">
        <ele>304</ele>
        <time>2007-03-04T09:10:46Z</time>
      </trkpt>
      <trkpt lat="42.48851" lon="2.67526">
        <ele>311</ele>
        <time>2007-03-04T09:10:54Z</time>
      </trkpt>
      <trkpt lat="42.4886" lon="2.67527">
        <ele>314</ele>
        <time>2007-03-04T09:10:59Z</time>
      </trkpt>
      <trkpt lat="42.48871" lon="2.67537">
        <ele>314</ele>
        <time>2007-03-04T09:11:05Z</time>
      </trkpt>
      <trkpt lat="42.48878" lon="2.67551">
        <ele>313</ele>
        <time>2007-03-04T09:11:11Z</time>
      </trkpt>
      <trkpt lat="42.48885" lon="2.67571">
        <ele>311</ele>
        <time>2007-03-04T09:11:19Z</time>
      </trkpt>
      <trkpt lat="42.48898" lon="2.67584">
        <ele>314</ele>
        <time>2007-03-04T09:11:27Z</time>
      </trkpt>
      <trkpt lat="42.48908" lon="2.67595">
        <ele>313</ele>
        <time>2007-03-04T09:11:33Z</time>
      </trkpt>
      <trkpt lat="42.48906" lon="2.67608">
        <ele>310</ele>
        <time>2007-03-04T09:11:38Z</time>
      </trkpt>
      <trkpt lat="42.48897" lon="2.67611">
        <ele>306</ele>
        <time>2007-03-04T09:11:42Z</time>
      </trkpt>
      <trkpt lat="42.48886" lon="2.67625">
        <ele>306</ele>
        <time>2007-03-04T09:11:49Z</time>
      </trkpt>
      <trkpt lat="42.48884" lon="2.67641">
        <ele>307</ele>
        <time>2007-03-04T09:11:55Z</time>
      </trkpt>
      <trkpt lat="42.48885" lon="2.67667">
        <ele>308</ele>
        <time>2007-03-04T09:12:03Z</time>
      </trkpt>
      <trkpt lat="42.48879" lon="2.67686">
        <ele>316</ele>
        <time>2007-03-04T09:12:09Z</time>
      </trkpt>
      <trkpt lat="42.48866" lon="2.67701">
        <ele>316</ele>
        <time>2007-03-04T09:12:16Z</time>
      </trkpt>
      <trkpt lat="42.48855" lon="2.67717">
        <ele>312</ele>
        <time>2007-03-04T09:12:23Z</time>
      </trkpt>
      <trkpt lat="42.48851" lon="2.67739">
        <ele>308</ele>
        <time>2007-03-04T09:12:30Z</time>
      </trkpt>
      <trkpt lat="42.48855" lon="2.67757">
        <ele>307</ele>
        <time>2007-03-04T09:12:36Z</time>
      </trkpt>
      <trkpt lat="42.48861" lon="2.67775">
        <ele>311</ele>
        <time>2007-03-04T09:12:42Z</time>
      </trkpt>
      <trkpt lat="42.48869" lon="2.67798">
        <ele>313</ele>
        <time>2007-03-04T09:12:50Z</time>
      </trkpt>
      <trkpt lat="42.48879" lon="2.67818">
        <ele>317</ele>
        <time>2007-03-04T09:12:57Z</time>
      </trkpt>
      <trkpt lat="42.4889" lon="2.67836">
        <ele>320</ele>
        <time>2007-03-04T09:13:04Z</time>
      </trkpt>
      <trkpt lat="42.48897" lon="2.67859">
        <ele>324</ele>
        <time>2007-03-04T09:13:11Z</time>
      </trkpt>
      <trkpt lat="42.48905" lon="2.67876">
        <ele>326</ele>
        <time>2007-03-04T09:13:17Z</time>
      </trkpt>
      <trkpt lat="42.4891" lon="2.67891">
        <ele>327</ele>
        <time>2007-03-04T09:13:22Z</time>
      </trkpt>
      <trkpt lat="42.48914" lon="2.67902">
        <ele>326</ele>
        <time>2007-03-04T09:13:26Z</time>
      </trkpt>
      <trkpt lat="42.48927" lon="2.679">
        <ele>325</ele>
        <time>2007-03-04T09:13:32Z</time>
      </trkpt>
      <trkpt lat="42.48937" lon="2.67885">
        <ele>323</ele>
        <time>2007-03-04T09:13:38Z</time>
      </trkpt>
      <trkpt lat="42.48943" lon="2.67876">
        <ele>322</ele>
        <time>2007-03-04T09:13:42Z</time>
      </trkpt>
      <trkpt lat="42.48949" lon="2.67861">
        <ele>322</ele>
        <time>2007-03-04T09:13:48Z</time>
      </trkpt>
      <trkpt lat="42.48958" lon="2.67845">
        <ele>324</ele>
        <time>2007-03-04T09:13:55Z</time>
      </trkpt>
      <trkpt lat="42.48972" lon="2.67834">
        <ele>328</ele>
        <time>2007-03-04T09:14:02Z</time>
      </trkpt>
      <trkpt lat="42.4899" lon="2.67824">
        <ele>332</ele>
        <time>2007-03-04T09:14:11Z</time>
      </trkpt>
      <trkpt lat="42.48999" lon="2.67824">
        <ele>335</ele>
        <time>2007-03-04T09:14:15Z</time>
      </trkpt>
      <trkpt lat="42.49002" lon="2.67841">
        <ele>334</ele>
        <time>2007-03-04T09:14:21Z</time>
      </trkpt>
      <trkpt lat="42.49005" lon="2.67868">
        <ele>333</ele>
        <time>2007-03-04T09:14:29Z</time>
      </trkpt>
      <trkpt lat="42.49011" lon="2.67885">
        <ele>332</ele>
        <time>2007-03-04T09:14:35Z</time>
      </trkpt>
      <trkpt lat="42.49025" lon="2.67908">
        <ele>338</ele>
        <time>2007-03-04T09:14:44Z</time>
      </trkpt>
      <trkpt lat="42.49037" lon="2.67921">
        <ele>340</ele>
        <time>2007-03-04T09:14:50Z</time>
      </trkpt>
      <trkpt lat="42.49049" lon="2.67939">
        <ele>344</ele>
        <time>2007-03-04T09:14:56Z</time>
      </trkpt>
      <trkpt lat="42.49062" lon="2.67955">
        <ele>346</ele>
        <time>2007-03-04T09:15:03Z</time>
      </trkpt>
      <trkpt lat="42.49077" lon="2.67967">
        <ele>347</ele>
        <time>2007-03-04T09:15:10Z</time>
      </trkpt>
      <trkpt lat="42.49091" lon="2.67982">
        <ele>348</ele>
        <time>2007-03-04T09:15:17Z</time>
      </trkpt>
      <trkpt lat="42.49094" lon="2.68006">
        <ele>346</ele>
        <time>2007-03-04T09:15:23Z</time>
      </trkpt>
      <trkpt lat="42.49093" lon="2.68029">
        <ele>348</ele>
        <time>2007-03-04T09:15:29Z</time>
      </trkpt>
      <trkpt lat="42.49094" lon="2.68051">
        <ele>349</ele>
        <time>2007-03-04T09:15:35Z</time>
      </trkpt>
      <trkpt lat="42.49097" lon="2.68074">
        <ele>351</ele>
        <time>2007-03-04T09:15:42Z</time>
      </trkpt>
      <trkpt lat="42.49104" lon="2.68088">
        <ele>351</ele>
        <time>2007-03-04T09:15:47Z</time>
      </trkpt>
      <trkpt lat="42.49116" lon="2.68101">
        <ele>349</ele>
        <time>2007-03-04T09:15:53Z</time>
      </trkpt>
      <trkpt lat="42.49125" lon="2.68117">
        <ele>350</ele>
        <time>2007-03-04T09:15:59Z</time>
      </trkpt>
      <trkpt lat="42.49131" lon="2.68137">
        <ele>357</ele>
        <time>2007-03-04T09:16:05Z</time>
      </trkpt>
      <trkpt lat="42.49131" lon="2.6816">
        <ele>367</ele>
        <time>2007-03-04T09:16:11Z</time>
      </trkpt>
      <trkpt lat="42.4913" lon="2.68182">
        <ele>368</ele>
        <time>2007-03-04T09:16:18Z</time>
      </trkpt>
      <trkpt lat="42.49125" lon="2.68202">
        <ele>366</ele>
        <time>2007-03-04T09:16:25Z</time>
      </trkpt>
      <trkpt lat="42.49123" lon="2.68221">
        <ele>362</ele>
        <time>2007-03-04T09:16:31Z</time>
      </trkpt>
      <trkpt lat="42.49128" lon="2.68245">
        <ele>361</ele>
        <time>2007-03-04T09:16:38Z</time>
      </trkpt>
      <trkpt lat="42.49131" lon="2.68264">
        <ele>360</ele>
        <time>2007-03-04T09:16:44Z</time>
      </trkpt>
      <trkpt lat="42.49132" lon="2.68267">
        <ele>360</ele>
        <time>2007-03-04T09:16:45Z</time>
      </trkpt>
      <trkpt lat="42.49126" lon="2.68284">
        <ele>356</ele>
        <time>2007-03-04T09:16:50Z</time>
      </trkpt>
      <trkpt lat="42.49122" lon="2.68301">
        <ele>356</ele>
        <time>2007-03-04T09:16:53Z</time>
      </trkpt>
      <trkpt lat="42.49118" lon="2.6832">
        <ele>357</ele>
        <time>2007-03-04T09:16:58Z</time>
      </trkpt>
      <trkpt lat="42.49112" lon="2.68335">
        <ele>358</ele>
        <time>2007-03-04T09:17:02Z</time>
      </trkpt>
      <trkpt lat="42.4911" lon="2.68351">
        <ele>358</ele>
        <time>2007-03-04T09:17:05Z</time>
      </trkpt>
      <trkpt lat="42.49111" lon="2.68356">
        <ele>357</ele>
        <time>2007-03-04T09:17:06Z</time>
      </trkpt>
      <trkpt lat="42.49109" lon="2.68383">
        <ele>356</ele>
        <time>2007-03-04T09:17:10Z</time>
      </trkpt>
      <trkpt lat="42.49106" lon="2.68397">
        <ele>356</ele>
        <time>2007-03-04T09:17:12Z</time>
      </trkpt>
      <trkpt lat="42.49095" lon="2.68429">
        <ele>353</ele>
        <time>2007-03-04T09:17:17Z</time>
      </trkpt>
      <trkpt lat="42.49093" lon="2.68435">
        <ele>352</ele>
        <time>2007-03-04T09:17:18Z</time>
      </trkpt>
      <trkpt lat="42.49089" lon="2.68457">
        <ele>344</ele>
        <time>2007-03-04T09:17:22Z</time>
      </trkpt>
      <trkpt lat="42.49088" lon="2.68472">
        <ele>342</ele>
        <time>2007-03-04T09:17:25Z</time>
      </trkpt>
      <trkpt lat="42.49088" lon="2.6849">
        <ele>338</ele>
        <time>2007-03-04T09:17:28Z</time>
      </trkpt>
      <trkpt lat="42.49089" lon="2.68516">
        <ele>338</ele>
        <time>2007-03-04T09:17:33Z</time>
      </trkpt>
      <trkpt lat="42.49091" lon="2.68543">
        <ele>336</ele>
        <time>2007-03-04T09:17:38Z</time>
      </trkpt>
      <trkpt lat="42.49091" lon="2.68549">
        <ele>336</ele>
        <time>2007-03-04T09:17:40Z</time>
      </trkpt>
      <trkpt lat="42.49087" lon="2.68546">
        <ele>336</ele>
        <time>2007-03-04T09:17:44Z</time>
      </trkpt>
      <trkpt lat="42.49093" lon="2.68547">
        <ele>339</ele>
        <time>2007-03-04T09:17:47Z</time>
      </trkpt>
      <trkpt lat="42.49096" lon="2.6855">
        <ele>340</ele>
        <time>2007-03-04T09:17:49Z</time>
      </trkpt>
      <trkpt lat="42.49108" lon="2.68554">
        <ele>341</ele>
        <time>2007-03-04T09:17:55Z</time>
      </trkpt>
      <trkpt lat="42.49115" lon="2.68547">
        <ele>342</ele>
        <time>2007-03-04T09:17:58Z</time>
      </trkpt>
      <trkpt lat="42.49126" lon="2.68527">
        <ele>343</ele>
        <time>2007-03-04T09:18:04Z</time>
      </trkpt>
      <trkpt lat="42.49129" lon="2.68513">
        <ele>344</ele>
        <time>2007-03-04T09:18:08Z</time>
      </trkpt>
      <trkpt lat="42.49135" lon="2.68497">
        <ele>343</ele>
        <time>2007-03-04T09:18:13Z</time>
      </trkpt>
      <trkpt lat="42.49141" lon="2.68481">
        <ele>344</ele>
        <time>2007-03-04T09:18:18Z</time>
      </trkpt>
      <trkpt lat="42.49147" lon="2.68462">
        <ele>345</ele>
        <time>2007-03-04T09:18:24Z</time>
      </trkpt>
      <trkpt lat="42.49151" lon="2.68453">
        <ele>346</ele>
        <time>2007-03-04T09:18:28Z</time>
      </trkpt>
      <trkpt lat="42.4916" lon="2.68441">
        <ele>346</ele>
        <time>2007-03-04T09:18:32Z</time>
      </trkpt>
      <trkpt lat="42.49179" lon="2.68409">
        <ele>347</ele>
        <time>2007-03-04T09:18:39Z</time>
      </trkpt>
      <trkpt lat="42.49197" lon="2.68376">
        <ele>347</ele>
        <time>2007-03-04T09:18:45Z</time>
      </trkpt>
      <trkpt lat="42.49211" lon="2.68352">
        <ele>346</ele>
        <time>2007-03-04T09:18:50Z</time>
      </trkpt>
      <trkpt lat="42.49226" lon="2.6833">
        <ele>345</ele>
        <time>2007-03-04T09:18:55Z</time>
      </trkpt>
      <trkpt lat="42.49228" lon="2.68328">
        <ele>345</ele>
        <time>2007-03-04T09:18:56Z</time>
      </trkpt>
      <trkpt lat="42.49244" lon="2.68317">
        <ele>346</ele>
        <time>2007-03-04T09:19:02Z</time>
      </trkpt>
      <trkpt lat="42.49267" lon="2.68323">
        <ele>345</ele>
        <time>2007-03-04T09:19:08Z</time>
      </trkpt>
      <trkpt lat="42.4928" lon="2.68328">
        <ele>345</ele>
        <time>2007-03-04T09:19:12Z</time>
      </trkpt>
      <trkpt lat="42.49286" lon="2.6833">
        <ele>345</ele>
        <time>2007-03-04T09:19:14Z</time>
      </trkpt>
      <trkpt lat="42.49304" lon="2.68317">
        <ele>343</ele>
        <time>2007-03-04T09:19:19Z</time>
      </trkpt>
      <trkpt lat="42.49316" lon="2.68289">
        <ele>341</ele>
        <time>2007-03-04T09:19:23Z</time>
      </trkpt>
      <trkpt lat="42.49318" lon="2.68254">
        <ele>338</ele>
        <time>2007-03-04T09:19:27Z</time>
      </trkpt>
      <trkpt lat="42.49324" lon="2.68227">
        <ele>338</ele>
        <time>2007-03-04T09:19:30Z</time>
      </trkpt>
      <trkpt lat="42.49326" lon="2.6818">
        <ele>334</ele>
        <time>2007-03-04T09:19:35Z</time>
      </trkpt>
      <trkpt lat="42.49316" lon="2.68165">
        <ele>333</ele>
        <time>2007-03-04T09:19:37Z</time>
      </trkpt>
      <trkpt lat="42.49292" lon="2.68129">
        <ele>332</ele>
        <time>2007-03-04T09:19:42Z</time>
      </trkpt>
      <trkpt lat="42.49293" lon="2.68099">
        <ele>332</ele>
        <time>2007-03-04T09:19:46Z</time>
      </trkpt>
      <trkpt lat="42.49298" lon="2.68097">
        <ele>331</ele>
        <time>2007-03-04T09:19:47Z</time>
      </trkpt>
      <trkpt lat="42.4932" lon="2.68069">
        <ele>330</ele>
        <time>2007-03-04T09:19:52Z</time>
      </trkpt>
      <trkpt lat="42.49322" lon="2.68062">
        <ele>331</ele>
        <time>2007-03-04T09:19:53Z</time>
      </trkpt>
      <trkpt lat="42.49313" lon="2.68033">
        <ele>334</ele>
        <time>2007-03-04T09:19:57Z</time>
      </trkpt>
      <trkpt lat="42.49312" lon="2.68019">
        <ele>337</ele>
        <time>2007-03-04T09:19:59Z</time>
      </trkpt>
      <trkpt lat="42.49314" lon="2.68001">
        <ele>338</ele>
        <time>2007-03-04T09:20:02Z</time>
      </trkpt>
      <trkpt lat="42.49314" lon="2.67985">
        <ele>338</ele>
        <time>2007-03-04T09:20:04Z</time>
      </trkpt>
      <trkpt lat="42.49308" lon="2.67956">
        <ele>339</ele>
        <time>2007-03-04T09:20:08Z</time>
      </trkpt>
      <trkpt lat="42.493" lon="2.67949">
        <ele>339</ele>
        <time>2007-03-04T09:20:10Z</time>
      </trkpt>
      <trkpt lat="42.49285" lon="2.67941">
        <ele>341</ele>
        <time>2007-03-04T09:20:19Z</time>
      </trkpt>
      <trkpt lat="42.49282" lon="2.67939">
        <ele>343</ele>
        <time>2007-03-04T09:20:23Z</time>
      </trkpt>
      <trkpt lat="42.49275" lon="2.67934">
        <ele>343</ele>
        <time>2007-03-04T09:20:31Z</time>
      </trkpt>
      <trkpt lat="42.49267" lon="2.67927">
        <ele>348</ele>
        <time>2007-03-04T09:20:39Z</time>
      </trkpt>
      <trkpt lat="42.4926" lon="2.67916">
        <ele>351</ele>
        <time>2007-03-04T09:20:46Z</time>
      </trkpt>
      <trkpt lat="42.49254" lon="2.67901">
        <ele>352</ele>
        <time>2007-03-04T09:20:53Z</time>
      </trkpt>
      <trkpt lat="42.49249" lon="2.67883">
        <ele>349</ele>
        <time>2007-03-04T09:20:58Z</time>
      </trkpt>
      <trkpt lat="42.49242" lon="2.67861">
        <ele>351</ele>
        <time>2007-03-04T09:21:03Z</time>
      </trkpt>
      <trkpt lat="42.49232" lon="2.67841">
        <ele>352</ele>
        <time>2007-03-04T09:21:08Z</time>
      </trkpt>
      <trkpt lat="42.49228" lon="2.67824">
        <ele>352</ele>
        <time>2007-03-04T09:21:12Z</time>
      </trkpt>
      <trkpt lat="42.49218" lon="2.67802">
        <ele>352</ele>
        <time>2007-03-04T09:21:18Z</time>
      </trkpt>
      <trkpt lat="42.4921" lon="2.6778">
        <ele>353</ele>
        <time>2007-03-04T09:21:24Z</time>
      </trkpt>
      <trkpt lat="42.49203" lon="2.67757">
        <ele>353</ele>
        <time>2007-03-04T09:21:29Z</time>
      </trkpt>
      <trkpt lat="42.49199" lon="2.67732">
        <ele>355</ele>
        <time>2007-03-04T09:21:34Z</time>
      </trkpt>
      <trkpt lat="42.49198" lon="2.67698">
        <ele>354</ele>
        <time>2007-03-04T09:21:41Z</time>
      </trkpt>
      <trkpt lat="42.49191" lon="2.67674">
        <ele>354</ele>
        <time>2007-03-04T09:21:47Z</time>
      </trkpt>
      <trkpt lat="42.4919" lon="2.67669">
        <ele>354</ele>
        <time>2007-03-04T09:21:48Z</time>
      </trkpt>
      <trkpt lat="42.49195" lon="2.67648">
        <ele>356</ele>
        <time>2007-03-04T09:21:54Z</time>
      </trkpt>
      <trkpt lat="42.49195" lon="2.67625">
        <ele>358</ele>
        <time>2007-03-04T09:22:00Z</time>
      </trkpt>
      <trkpt lat="42.49192" lon="2.67602">
        <ele>359</ele>
        <time>2007-03-04T09:22:06Z</time>
      </trkpt>
      <trkpt lat="42.49192" lon="2.67577">
        <ele>360</ele>
        <time>2007-03-04T09:22:13Z</time>
      </trkpt>
      <trkpt lat="42.49198" lon="2.67554">
        <ele>361</ele>
        <time>2007-03-04T09:22:19Z</time>
      </trkpt>
      <trkpt lat="42.49214" lon="2.6754">
        <ele>361</ele>
        <time>2007-03-04T09:22:23Z</time>
      </trkpt>
      <trkpt lat="42.49225" lon="2.67506">
        <ele>358</ele>
        <time>2007-03-04T09:22:28Z</time>
      </trkpt>
      <trkpt lat="42.4924" lon="2.67474">
        <ele>357</ele>
        <time>2007-03-04T09:22:33Z</time>
      </trkpt>
      <trkpt lat="42.49254" lon="2.67454">
        <ele>356</ele>
        <time>2007-03-04T09:22:37Z</time>
      </trkpt>
      <trkpt lat="42.49269" lon="2.67426">
        <ele>356</ele>
        <time>2007-03-04T09:22:41Z</time>
      </trkpt>
      <trkpt lat="42.49285" lon="2.67408">
        <ele>356</ele>
        <time>2007-03-04T09:22:45Z</time>
      </trkpt>
      <trkpt lat="42.49293" lon="2.67404">
        <ele>357</ele>
        <time>2007-03-04T09:22:47Z</time>
      </trkpt>
      <trkpt lat="42.49304" lon="2.67396">
        <ele>358</ele>
        <time>2007-03-04T09:22:50Z</time>
      </trkpt>
      <trkpt lat="42.49315" lon="2.67378">
        <ele>358</ele>
        <time>2007-03-04T09:22:53Z</time>
      </trkpt>
      <trkpt lat="42.49331" lon="2.67354">
        <ele>359</ele>
        <time>2007-03-04T09:22:57Z</time>
      </trkpt>
      <trkpt lat="42.49334" lon="2.67346">
        <ele>360</ele>
        <time>2007-03-04T09:22:59Z</time>
      </trkpt>
      <trkpt lat="42.49331" lon="2.67338">
        <ele>361</ele>
        <time>2007-03-04T09:23:03Z</time>
      </trkpt>
      <trkpt lat="42.49316" lon="2.67341">
        <ele>365</ele>
        <time>2007-03-04T09:23:11Z</time>
      </trkpt>
      <trkpt lat="42.49303" lon="2.67347">
        <ele>372</ele>
        <time>2007-03-04T09:23:18Z</time>
      </trkpt>
      <trkpt lat="42.49292" lon="2.67355">
        <ele>375</ele>
        <time>2007-03-04T09:23:26Z</time>
      </trkpt>
      <trkpt lat="42.49283" lon="2.67364">
        <ele>376</ele>
        <time>2007-03-04T09:23:33Z</time>
      </trkpt>
      <trkpt lat="42.49276" lon="2.67375">
        <ele>376</ele>
        <time>2007-03-04T09:23:40Z</time>
      </trkpt>
      <trkpt lat="42.49266" lon="2.67387">
        <ele>377</ele>
        <time>2007-03-04T09:23:49Z</time>
      </trkpt>
      <trkpt lat="42.49256" lon="2.6739">
        <ele>377</ele>
        <time>2007-03-04T09:23:56Z</time>
      </trkpt>
      <trkpt lat="42.49244" lon="2.67397">
        <ele>378</ele>
        <time>2007-03-04T09:24:06Z</time>
      </trkpt>
      <trkpt lat="42.49233" lon="2.67411">
        <ele>379</ele>
        <time>2007-03-04T09:24:13Z</time>
      </trkpt>
      <trkpt lat="42.49222" lon="2.67433">
        <ele>378</ele>
        <time>2007-03-04T09:24:18Z</time>
      </trkpt>
      <trkpt lat="42.49212" lon="2.67459">
        <ele>378</ele>
        <time>2007-03-04T09:24:24Z</time>
      </trkpt>
      <trkpt lat="42.49195" lon="2.67475">
        <ele>377</ele>
        <time>2007-03-04T09:24:31Z</time>
      </trkpt>
      <trkpt lat="42.49187" lon="2.67495">
        <ele>378</ele>
        <time>2007-03-04T09:24:37Z</time>
      </trkpt>
      <trkpt lat="42.49182" lon="2.67516">
        <ele>379</ele>
        <time>2007-03-04T09:24:43Z</time>
      </trkpt>
      <trkpt lat="42.4917" lon="2.67537">
        <ele>380</ele>
        <time>2007-03-04T09:24:51Z</time>
      </trkpt>
      <trkpt lat="42.4916" lon="2.67554">
        <ele>382</ele>
        <time>2007-03-04T09:24:58Z</time>
      </trkpt>
      <trkpt lat="42.49148" lon="2.67564">
        <ele>383</ele>
        <time>2007-03-04T09:25:05Z</time>
      </trkpt>
      <trkpt lat="42.49139" lon="2.67574">
        <ele>384</ele>
        <time>2007-03-04T09:25:11Z</time>
      </trkpt>
      <trkpt lat="42.49137" lon="2.67565">
        <ele>385</ele>
        <time>2007-03-04T09:25:15Z</time>
      </trkpt>
      <trkpt lat="42.49143" lon="2.67533">
        <ele>384</ele>
        <time>2007-03-04T09:25:24Z</time>
      </trkpt>
      <trkpt lat="42.4915" lon="2.67511">
        <ele>385</ele>
        <time>2007-03-04T09:25:31Z</time>
      </trkpt>
      <trkpt lat="42.49157" lon="2.67486">
        <ele>385</ele>
        <time>2007-03-04T09:25:38Z</time>
      </trkpt>
      <trkpt lat="42.49166" lon="2.67461">
        <ele>384</ele>
        <time>2007-03-04T09:25:45Z</time>
      </trkpt>
      <trkpt lat="42.49185" lon="2.6743">
        <ele>390</ele>
        <time>2007-03-04T09:25:55Z</time>
      </trkpt>
      <trkpt lat="42.49196" lon="2.67401">
        <ele>392</ele>
        <time>2007-03-04T09:26:03Z</time>
      </trkpt>
      <trkpt lat="42.49206" lon="2.67369">
        <ele>393</ele>
        <time>2007-03-04T09:26:11Z</time>
      </trkpt>
      <trkpt lat="42.49217" lon="2.67337">
        <ele>394</ele>
        <time>2007-03-04T09:26:19Z</time>
      </trkpt>
      <trkpt lat="42.49228" lon="2.67303">
        <ele>396</ele>
        <time>2007-03-04T09:26:28Z</time>
      </trkpt>
      <trkpt lat="42.4924" lon="2.67265">
        <ele>399</ele>
        <time>2007-03-04T09:26:39Z</time>
      </trkpt>
      <trkpt lat="42.49252" lon="2.67233">
        <ele>402</ele>
        <time>2007-03-04T09:26:49Z</time>
      </trkpt>
      <trkpt lat="42.49257" lon="2.67214">
        <ele>403</ele>
        <time>2007-03-04T09:26:56Z</time>
      </trkpt>
      <trkpt lat="42.49264" lon="2.67194">
        <ele>404</ele>
        <time>2007-03-04T09:27:03Z</time>
      </trkpt>
      <trkpt lat="42.49269" lon="2.67176">
        <ele>405</ele>
        <time>2007-03-04T09:27:10Z</time>
      </trkpt>
      <trkpt lat="42.49275" lon="2.67169">
        <ele>406</ele>
        <time>2007-03-04T09:27:15Z</time>
      </trkpt>
      <trkpt lat="42.49287" lon="2.67159">
        <ele>404</ele>
        <time>2007-03-04T09:27:20Z</time>
      </trkpt>
      <trkpt lat="42.49307" lon="2.67145">
        <ele>403</ele>
        <time>2007-03-04T09:27:24Z</time>
      </trkpt>
      <trkpt lat="42.49313" lon="2.67138">
        <ele>403</ele>
        <time>2007-03-04T09:27:25Z</time>
      </trkpt>
      <trkpt lat="42.49324" lon="2.67124">
        <ele>402</ele>
        <time>2007-03-04T09:27:27Z</time>
      </trkpt>
      <trkpt lat="42.49338" lon="2.67101">
        <ele>400</ele>
        <time>2007-03-04T09:27:30Z</time>
      </trkpt>
      <trkpt lat="42.49354" lon="2.67106">
        <ele>401</ele>
        <time>2007-03-04T09:27:33Z</time>
      </trkpt>
      <trkpt lat="42.49355" lon="2.67139">
        <ele>403</ele>
        <time>2007-03-04T09:27:36Z</time>
      </trkpt>
      <trkpt lat="42.49362" lon="2.67167">
        <ele>402</ele>
        <time>2007-03-04T09:27:39Z</time>
      </trkpt>
      <trkpt lat="42.49373" lon="2.67194">
        <ele>400</ele>
        <time>2007-03-04T09:27:42Z</time>
      </trkpt>
      <trkpt lat="42.49402" lon="2.67249">
        <ele>392</ele>
        <time>2007-03-04T09:27:48Z</time>
      </trkpt>
      <trkpt lat="42.49424" lon="2.67291">
        <ele>392</ele>
        <time>2007-03-04T09:27:52Z</time>
      </trkpt>
      <trkpt lat="42.49429" lon="2.67319">
        <ele>388</ele>
        <time>2007-03-04T09:27:55Z</time>
      </trkpt>
      <trkpt lat="42.49442" lon="2.67354">
        <ele>385</ele>
        <time>2007-03-04T09:27:59Z</time>
      </trkpt>
      <trkpt lat="42.49458" lon="2.67393">
        <ele>385</ele>
        <time>2007-03-04T09:28:03Z</time>
      </trkpt>
      <trkpt lat="42.49474" lon="2.67398">
        <ele>383</ele>
        <time>2007-03-04T09:28:07Z</time>
      </trkpt>
      <trkpt lat="42.49483" lon="2.6739">
        <ele>381</ele>
        <time>2007-03-04T09:28:09Z</time>
      </trkpt>
      <trkpt lat="42.49494" lon="2.67384">
        <ele>380</ele>
        <time>2007-03-04T09:28:11Z</time>
      </trkpt>
      <trkpt lat="42.49533" lon="2.67384">
        <ele>381</ele>
        <time>2007-03-04T09:28:16Z</time>
      </trkpt>
      <trkpt lat="42.49585" lon="2.67383">
        <ele>380</ele>
        <time>2007-03-04T09:28:22Z</time>
      </trkpt>
      <trkpt lat="42.49619" lon="2.67373">
        <ele>378</ele>
        <time>2007-03-04T09:28:26Z</time>
      </trkpt>
      <trkpt lat="42.49648" lon="2.67344">
        <ele>372</ele>
        <time>2007-03-04T09:28:30Z</time>
      </trkpt>
      <trkpt lat="42.49654" lon="2.67335">
        <ele>372</ele>
        <time>2007-03-04T09:28:31Z</time>
      </trkpt>
      <trkpt lat="42.49676" lon="2.67284">
        <ele>366</ele>
        <time>2007-03-04T09:28:36Z</time>
      </trkpt>
      <trkpt lat="42.4968" lon="2.67236">
        <ele>364</ele>
        <time>2007-03-04T09:28:40Z</time>
      </trkpt>
      <trkpt lat="42.49683" lon="2.67201">
        <ele>364</ele>
        <time>2007-03-04T09:28:43Z</time>
      </trkpt>
      <trkpt lat="42.49685" lon="2.67189">
        <ele>363</ele>
        <time>2007-03-04T09:28:45Z</time>
      </trkpt>
      <trkpt lat="42.49701" lon="2.67173">
        <ele>361</ele>
        <time>2007-03-04T09:28:49Z</time>
      </trkpt>
      <trkpt lat="42.49733" lon="2.67158">
        <ele>357</ele>
        <time>2007-03-04T09:28:54Z</time>
      </trkpt>
      <trkpt lat="42.49745" lon="2.67157">
        <ele>356</ele>
        <time>2007-03-04T09:28:56Z</time>
      </trkpt>
      <trkpt lat="42.49749" lon="2.67136">
        <ele>352</ele>
        <time>2007-03-04T09:29:00Z</time>
      </trkpt>
      <trkpt lat="42.49759" lon="2.67106">
        <ele>351</ele>
        <time>2007-03-04T09:29:05Z</time>
      </trkpt>
      <trkpt lat="42.49769" lon="2.67091">
        <ele>350</ele>
        <time>2007-03-04T09:29:07Z</time>
      </trkpt>
      <trkpt lat="42.49791" lon="2.67065">
        <ele>347</ele>
        <time>2007-03-04T09:29:11Z</time>
      </trkpt>
      <trkpt lat="42.49804" lon="2.6703">
        <ele>344</ele>
        <time>2007-03-04T09:29:15Z</time>
      </trkpt>
      <trkpt lat="42.49805" lon="2.67009">
        <ele>342</ele>
        <time>2007-03-04T09:29:19Z</time>
      </trkpt>
      <trkpt lat="42.49812" lon="2.67003">
        <ele>340</ele>
        <time>2007-03-04T09:29:22Z</time>
      </trkpt>
      <trkpt lat="42.49821" lon="2.67006">
        <ele>339</ele>
        <time>2007-03-04T09:29:24Z</time>
      </trkpt>
      <trkpt lat="42.4983" lon="2.6701">
        <ele>337</ele>
        <time>2007-03-04T09:29:26Z</time>
      </trkpt>
      <trkpt lat="42.49849" lon="2.66999">
        <ele>335</ele>
        <time>2007-03-04T09:29:30Z</time>
      </trkpt>
      <trkpt lat="42.49868" lon="2.66979">
        <ele>330</ele>
        <time>2007-03-04T09:29:34Z</time>
      </trkpt>
      <trkpt lat="42.49888" lon="2.66956">
        <ele>329</ele>
        <time>2007-03-04T09:29:39Z</time>
      </trkpt>
      <trkpt lat="42.49889" lon="2.66951">
        <ele>328</ele>
        <time>2007-03-04T09:29:43Z</time>
      </trkpt>
      <trkpt lat="42.49886" lon="2.66952">
        <ele>329</ele>
        <time>2007-03-04T09:29:50Z</time>
      </trkpt>
      <trkpt lat="42.49888" lon="2.66945">
        <ele>328</ele>
        <time>2007-03-04T09:29:56Z</time>
      </trkpt>
      <trkpt lat="42.49892" lon="2.66944">
        <ele>333</ele>
        <time>2007-03-04T09:30:01Z</time>
      </trkpt>
      <trkpt lat="42.49895" lon="2.66945">
        <ele>337</ele>
        <time>2007-03-04T09:30:04Z</time>
      </trkpt>
      <trkpt lat="42.49908" lon="2.66937">
        <ele>335</ele>
        <time>2007-03-04T09:30:11Z</time>
      </trkpt>
      <trkpt lat="42.49916" lon="2.66938">
        <ele>335</ele>
        <time>2007-03-04T09:30:13Z</time>
      </trkpt>
      <trkpt lat="42.49935" lon="2.6694">
        <ele>333</ele>
        <time>2007-03-04T09:30:17Z</time>
      </trkpt>
      <trkpt lat="42.49951" lon="2.66925">
        <ele>330</ele>
        <time>2007-03-04T09:30:20Z</time>
      </trkpt>
      <trkpt lat="42.4998" lon="2.66908">
        <ele>327</ele>
        <time>2007-03-04T09:30:25Z</time>
      </trkpt>
      <trkpt lat="42.49986" lon="2.66903">
        <ele>327</ele>
        <time>2007-03-04T09:30:26Z</time>
      </trkpt>
      <trkpt lat="42.49999" lon="2.66892">
        <ele>326</ele>
        <time>2007-03-04T09:30:28Z</time>
      </trkpt>
      <trkpt lat="42.50016" lon="2.6687">
        <ele>324</ele>
        <time>2007-03-04T09:30:31Z</time>
      </trkpt>
      <trkpt lat="42.50035" lon="2.66838">
        <ele>322</ele>
        <time>2007-03-04T09:30:35Z</time>
      </trkpt>
      <trkpt lat="42.50041" lon="2.66821">
        <ele>320</ele>
        <time>2007-03-04T09:30:37Z</time>
      </trkpt>
      <trkpt lat="42.5004" lon="2.668">
        <ele>320</ele>
        <time>2007-03-04T09:30:40Z</time>
      </trkpt>
      <trkpt lat="42.50032" lon="2.66769">
        <ele>317</ele>
        <time>2007-03-04T09:30:46Z</time>
      </trkpt>
      <trkpt lat="42.50032" lon="2.66763">
        <ele>315</ele>
        <time>2007-03-04T09:30:48Z</time>
      </trkpt>
      <trkpt lat="42.50037" lon="2.66745">
        <ele>314</ele>
        <time>2007-03-04T09:30:52Z</time>
      </trkpt>
      <trkpt lat="42.50038" lon="2.6673">
        <ele>313</ele>
        <time>2007-03-04T09:30:56Z</time>
      </trkpt>
      <trkpt lat="42.50038" lon="2.66701">
        <ele>312</ele>
        <time>2007-03-04T09:31:00Z</time>
      </trkpt>
      <trkpt lat="42.50034" lon="2.66661">
        <ele>310</ele>
        <time>2007-03-04T09:31:05Z</time>
      </trkpt>
      <trkpt lat="42.50033" lon="2.66654">
        <ele>310</ele>
        <time>2007-03-04T09:31:06Z</time>
      </trkpt>
      <trkpt lat="42.50031" lon="2.66642">
        <ele>308</ele>
        <time>2007-03-04T09:31:08Z</time>
      </trkpt>
      <trkpt lat="42.50023" lon="2.66628">
        <ele>310</ele>
        <time>2007-03-04T09:31:12Z</time>
      </trkpt>
      <trkpt lat="42.50028" lon="2.66618">
        <ele>312</ele>
        <time>2007-03-04T09:31:16Z</time>
      </trkpt>
      <trkpt lat="42.50036" lon="2.66621">
        <ele>312</ele>
        <time>2007-03-04T09:31:19Z</time>
      </trkpt>
      <trkpt lat="42.50046" lon="2.66628">
        <ele>314</ele>
        <time>2007-03-04T09:31:23Z</time>
      </trkpt>
      <trkpt lat="42.50054" lon="2.66642">
        <ele>316</ele>
        <time>2007-03-04T09:31:27Z</time>
      </trkpt>
      <trkpt lat="42.50069" lon="2.6666">
        <ele>316</ele>
        <time>2007-03-04T09:31:32Z</time>
      </trkpt>
      <trkpt lat="42.50086" lon="2.66665">
        <ele>317</ele>
        <time>2007-03-04T09:31:36Z</time>
      </trkpt>
      <trkpt lat="42.50101" lon="2.6666">
        <ele>316</ele>
        <time>2007-03-04T09:31:40Z</time>
      </trkpt>
      <trkpt lat="42.50105" lon="2.6665">
        <ele>314</ele>
        <time>2007-03-04T09:31:42Z</time>
      </trkpt>
      <trkpt lat="42.50117" lon="2.66628">
        <ele>312</ele>
        <time>2007-03-04T09:31:46Z</time>
      </trkpt>
      <trkpt lat="42.50128" lon="2.66595">
        <ele>308</ele>
        <time>2007-03-04T09:31:51Z</time>
      </trkpt>
      <trkpt lat="42.50145" lon="2.66554">
        <ele>305</ele>
        <time>2007-03-04T09:31:57Z</time>
      </trkpt>
      <trkpt lat="42.50146" lon="2.66531">
        <ele>303</ele>
        <time>2007-03-04T09:32:01Z</time>
      </trkpt>
      <trkpt lat="42.50151" lon="2.66514">
        <ele>304</ele>
        <time>2007-03-04T09:32:04Z</time>
      </trkpt>
      <trkpt lat="42.50164" lon="2.6651">
        <ele>302</ele>
        <time>2007-03-04T09:32:07Z</time>
      </trkpt>
      <trkpt lat="42.50181" lon="2.66514">
        <ele>300</ele>
        <time>2007-03-04T09:32:10Z</time>
      </trkpt>
      <trkpt lat="42.50189" lon="2.66509">
        <ele>299</ele>
        <time>2007-03-04T09:32:12Z</time>
      </trkpt>
      <trkpt lat="42.50195" lon="2.66499">
        <ele>296</ele>
        <time>2007-03-04T09:32:14Z</time>
      </trkpt>
      <trkpt lat="42.50195" lon="2.6647">
        <ele>289</ele>
        <time>2007-03-04T09:32:18Z</time>
      </trkpt>
      <trkpt lat="42.50185" lon="2.66444">
        <ele>289</ele>
        <time>2007-03-04T09:32:21Z</time>
      </trkpt>
      <trkpt lat="42.50195" lon="2.6643">
        <ele>289</ele>
        <time>2007-03-04T09:32:24Z</time>
      </trkpt>
      <trkpt lat="42.50224" lon="2.6643">
        <ele>286</ele>
        <time>2007-03-04T09:32:27Z</time>
      </trkpt>
      <trkpt lat="42.50254" lon="2.66418">
        <ele>283</ele>
        <time>2007-03-04T09:32:32Z</time>
      </trkpt>
      <trkpt lat="42.5025" lon="2.66401">
        <ele>282</ele>
        <time>2007-03-04T09:32:34Z</time>
      </trkpt>
      <trkpt lat="42.50248" lon="2.66391">
        <ele>282</ele>
        <time>2007-03-04T09:32:35Z</time>
      </trkpt>
      <trkpt lat="42.50262" lon="2.66378">
        <ele>280</ele>
        <time>2007-03-04T09:32:39Z</time>
      </trkpt>
      <trkpt lat="42.50274" lon="2.66357">
        <ele>278</ele>
        <time>2007-03-04T09:32:43Z</time>
      </trkpt>
      <trkpt lat="42.50273" lon="2.6635">
        <ele>278</ele>
        <time>2007-03-04T09:32:44Z</time>
      </trkpt>
      <trkpt lat="42.50277" lon="2.66336">
        <ele>278</ele>
        <time>2007-03-04T09:32:46Z</time>
      </trkpt>
      <trkpt lat="42.50282" lon="2.66324">
        <ele>277</ele>
        <time>2007-03-04T09:32:48Z</time>
      </trkpt>
      <trkpt lat="42.50294" lon="2.66301">
        <ele>273</ele>
        <time>2007-03-04T09:32:52Z</time>
      </trkpt>
      <trkpt lat="42.5031" lon="2.66292">
        <ele>273</ele>
        <time>2007-03-04T09:32:56Z</time>
      </trkpt>
      <trkpt lat="42.50305" lon="2.66306">
        <ele>274</ele>
        <time>2007-03-04T09:32:58Z</time>
      </trkpt>
      <trkpt lat="42.50299" lon="2.66331">
        <ele>273</ele>
        <time>2007-03-04T09:33:02Z</time>
      </trkpt>
      <trkpt lat="42.50299" lon="2.6634">
        <ele>273</ele>
        <time>2007-03-04T09:33:03Z</time>
      </trkpt>
      <trkpt lat="42.50308" lon="2.66384">
        <ele>271</ele>
        <time>2007-03-04T09:33:08Z</time>
      </trkpt>
      <trkpt lat="42.50304" lon="2.6642">
        <ele>268</ele>
        <time>2007-03-04T09:33:13Z</time>
      </trkpt>
      <trkpt lat="42.50288" lon="2.66426">
        <ele>266</ele>
        <time>2007-03-04T09:33:16Z</time>
      </trkpt>
      <trkpt lat="42.50283" lon="2.66445">
        <ele>263</ele>
        <time>2007-03-04T09:33:20Z</time>
      </trkpt>
      <trkpt lat="42.50282" lon="2.6649">
        <ele>261</ele>
        <time>2007-03-04T09:33:26Z</time>
      </trkpt>
      <trkpt lat="42.50279" lon="2.66491">
        <ele>259</ele>
        <time>2007-03-04T09:33:27Z</time>
      </trkpt>
      <trkpt lat="42.50266" lon="2.66492">
        <ele>257</ele>
        <time>2007-03-04T09:33:32Z</time>
      </trkpt>
      <trkpt lat="42.50263" lon="2.66494">
        <ele>258</ele>
        <time>2007-03-04T09:33:38Z</time>
      </trkpt>
      <trkpt lat="42.5026" lon="2.66509">
        <ele>261</ele>
        <time>2007-03-04T09:33:43Z</time>
      </trkpt>
      <trkpt lat="42.50261" lon="2.66538">
        <ele>263</ele>
        <time>2007-03-04T09:33:50Z</time>
      </trkpt>
      <trkpt lat="42.50256" lon="2.66547">
        <ele>264</ele>
        <time>2007-03-04T09:33:53Z</time>
      </trkpt>
      <trkpt lat="42.50254" lon="2.66557">
        <ele>264</ele>
        <time>2007-03-04T09:33:56Z</time>
      </trkpt>
      <trkpt lat="42.50254" lon="2.66563">
        <ele>265</ele>
        <time>2007-03-04T09:33:58Z</time>
      </trkpt>
      <trkpt lat="42.50246" lon="2.66584">
        <ele>263</ele>
        <time>2007-03-04T09:34:04Z</time>
      </trkpt>
      <trkpt lat="42.50241" lon="2.66594">
        <ele>261</ele>
        <time>2007-03-04T09:34:09Z</time>
      </trkpt>
      <trkpt lat="42.50235" lon="2.66604">
        <ele>258</ele>
        <time>2007-03-04T09:34:13Z</time>
      </trkpt>
      <trkpt lat="42.50235" lon="2.66626">
        <ele>259</ele>
        <time>2007-03-04T09:34:19Z</time>
      </trkpt>
      <trkpt lat="42.5023" lon="2.6664">
        <ele>256</ele>
        <time>2007-03-04T09:34:23Z</time>
      </trkpt>
      <trkpt lat="42.50225" lon="2.66649">
        <ele>253</ele>
        <time>2007-03-04T09:34:28Z</time>
      </trkpt>
      <trkpt lat="42.50221" lon="2.66657">
        <ele>249</ele>
        <time>2007-03-04T09:34:32Z</time>
      </trkpt>
      <trkpt lat="42.50217" lon="2.66678">
        <ele>250</ele>
        <time>2007-03-04T09:34:38Z</time>
      </trkpt>
      <trkpt lat="42.50212" lon="2.66694">
        <ele>252</ele>
        <time>2007-03-04T09:34:43Z</time>
      </trkpt>
      <trkpt lat="42.50213" lon="2.66711">
        <ele>254</ele>
        <time>2007-03-04T09:34:49Z</time>
      </trkpt>
      <trkpt lat="42.50212" lon="2.66729">
        <ele>253</ele>
        <time>2007-03-04T09:34:55Z</time>
      </trkpt>
      <trkpt lat="42.5021" lon="2.66747">
        <ele>252</ele>
        <time>2007-03-04T09:35:02Z</time>
      </trkpt>
      <trkpt lat="42.5021" lon="2.66762">
        <ele>243</ele>
        <time>2007-03-04T09:35:08Z</time>
      </trkpt>
      <trkpt lat="42.50215" lon="2.66774">
        <ele>244</ele>
        <time>2007-03-04T09:35:13Z</time>
      </trkpt>
      <trkpt lat="42.50221" lon="2.66793">
        <ele>244</ele>
        <time>2007-03-04T09:35:17Z</time>
      </trkpt>
      <trkpt lat="42.5022" lon="2.66803">
        <ele>242</ele>
        <time>2007-03-04T09:35:20Z</time>
      </trkpt>
      <trkpt lat="42.50223" lon="2.66825">
        <ele>239</ele>
        <time>2007-03-04T09:35:25Z</time>
      </trkpt>
      <trkpt lat="42.50226" lon="2.66846">
        <ele>240</ele>
        <time>2007-03-04T09:35:28Z</time>
      </trkpt>
      <trkpt lat="42.50227" lon="2.66854">
        <ele>240</ele>
        <time>2007-03-04T09:35:29Z</time>
      </trkpt>
      <trkpt lat="42.5022" lon="2.66891">
        <ele>239</ele>
        <time>2007-03-04T09:35:34Z</time>
      </trkpt>
      <trkpt lat="42.5022" lon="2.66935">
        <ele>238</ele>
        <time>2007-03-04T09:35:39Z</time>
      </trkpt>
      <trkpt lat="42.50215" lon="2.66965">
        <ele>236</ele>
        <time>2007-03-04T09:35:42Z</time>
      </trkpt>
      <trkpt lat="42.50203" lon="2.6701">
        <ele>235</ele>
        <time>2007-03-04T09:35:46Z</time>
      </trkpt>
      <trkpt lat="42.50195" lon="2.67061">
        <ele>234</ele>
        <time>2007-03-04T09:35:50Z</time>
      </trkpt>
      <trkpt lat="42.50195" lon="2.67099">
        <ele>235</ele>
        <time>2007-03-04T09:35:53Z</time>
      </trkpt>
      <trkpt lat="42.50178" lon="2.67141">
        <ele>235</ele>
        <time>2007-03-04T09:35:57Z</time>
      </trkpt>
      <trkpt lat="42.50172" lon="2.67148">
        <ele>235</ele>
        <time>2007-03-04T09:35:58Z</time>
      </trkpt>
      <trkpt lat="42.50115" lon="2.67196">
        <ele>234</ele>
        <time>2007-03-04T09:36:06Z</time>
      </trkpt>
      <trkpt lat="42.50086" lon="2.67227">
        <ele>236</ele>
        <time>2007-03-04T09:36:11Z</time>
      </trkpt>
      <trkpt lat="42.50054" lon="2.67245">
        <ele>236</ele>
        <time>2007-03-04T09:36:17Z</time>
      </trkpt>
      <trkpt lat="42.50035" lon="2.67254">
        <ele>236</ele>
        <time>2007-03-04T09:36:21Z</time>
      </trkpt>
      <trkpt lat="42.5002" lon="2.67253">
        <ele>237</ele>
        <time>2007-03-04T09:36:24Z</time>
      </trkpt>
      <trkpt lat="42.50001" lon="2.67269">
        <ele>237</ele>
        <time>2007-03-04T09:36:29Z</time>
      </trkpt>
      <trkpt lat="42.49993" lon="2.67288">
        <ele>237</ele>
        <time>2007-03-04T09:36:33Z</time>
      </trkpt>
      <trkpt lat="42.49987" lon="2.67296">
        <ele>236</ele>
        <time>2007-03-04T09:36:35Z</time>
      </trkpt>
      <trkpt lat="42.4998" lon="2.67301">
        <ele>237</ele>
        <time>2007-03-04T09:36:37Z</time>
      </trkpt>
      <trkpt lat="42.49971" lon="2.67315">
        <ele>238</ele>
        <time>2007-03-04T09:36:40Z</time>
      </trkpt>
      <trkpt lat="42.49955" lon="2.67343">
        <ele>238</ele>
        <time>2007-03-04T09:36:45Z</time>
      </trkpt>
      <trkpt lat="42.49942" lon="2.67359">
        <ele>237</ele>
        <time>2007-03-04T09:36:48Z</time>
      </trkpt>
      <trkpt lat="42.49933" lon="2.67393">
        <ele>236</ele>
        <time>2007-03-04T09:36:53Z</time>
      </trkpt>
      <trkpt lat="42.49939" lon="2.67427">
        <ele>234</ele>
        <time>2007-03-04T09:36:58Z</time>
      </trkpt>
      <trkpt lat="42.49949" lon="2.67447">
        <ele>234</ele>
        <time>2007-03-04T09:37:01Z</time>
      </trkpt>
      <trkpt lat="42.49958" lon="2.67483">
        <ele>236</ele>
        <time>2007-03-04T09:37:05Z</time>
      </trkpt>
      <trkpt lat="42.4998" lon="2.67518">
        <ele>239</ele>
        <time>2007-03-04T09:37:10Z</time>
      </trkpt>
      <trkpt lat="42.49986" lon="2.67521">
        <ele>239</ele>
        <time>2007-03-04T09:37:11Z</time>
      </trkpt>
      <trkpt lat="42.50015" lon="2.6756">
        <ele>235</ele>
        <time>2007-03-04T09:37:17Z</time>
      </trkpt>
      <trkpt lat="42.5001" lon="2.6759">
        <ele>230</ele>
        <time>2007-03-04T09:37:20Z</time>
      </trkpt>
      <trkpt lat="42.49998" lon="2.67636">
        <ele>226</ele>
        <time>2007-03-04T09:37:24Z</time>
      </trkpt>
      <trkpt lat="42.49988" lon="2.67691">
        <ele>224</ele>
        <time>2007-03-04T09:37:28Z</time>
      </trkpt>
      <trkpt lat="42.49984" lon="2.6772">
        <ele>223</ele>
        <time>2007-03-04T09:37:30Z</time>
      </trkpt>
      <trkpt lat="42.49976" lon="2.67759">
        <ele>222</ele>
        <time>2007-03-04T09:37:34Z</time>
      </trkpt>
      <trkpt lat="42.49952" lon="2.67766">
        <ele>222</ele>
        <time>2007-03-04T09:37:37Z</time>
      </trkpt>
      <trkpt lat="42.49943" lon="2.67765">
        <ele>222</ele>
        <time>2007-03-04T09:37:38Z</time>
      </trkpt>
      <trkpt lat="42.49885" lon="2.6775">
        <ele>218</ele>
        <time>2007-03-04T09:37:44Z</time>
      </trkpt>
      <trkpt lat="42.49862" lon="2.67729">
        <ele>215</ele>
        <time>2007-03-04T09:37:47Z</time>
      </trkpt>
      <trkpt lat="42.49833" lon="2.67724">
        <ele>216</ele>
        <time>2007-03-04T09:37:51Z</time>
      </trkpt>
      <trkpt lat="42.4981" lon="2.67723">
        <ele>215</ele>
        <time>2007-03-04T09:37:54Z</time>
      </trkpt>
      <trkpt lat="42.49759" lon="2.67717">
        <ele>218</ele>
        <time>2007-03-04T09:38:00Z</time>
      </trkpt>
      <trkpt lat="42.49728" lon="2.67729">
        <ele>216</ele>
        <time>2007-03-04T09:38:04Z</time>
      </trkpt>
      <trkpt lat="42.49713" lon="2.67761">
        <ele>216</ele>
        <time>2007-03-04T09:38:07Z</time>
      </trkpt>
      <trkpt lat="42.49694" lon="2.67825">
        <ele>213</ele>
        <time>2007-03-04T09:38:12Z</time>
      </trkpt>
      <trkpt lat="42.49684" lon="2.67893">
        <ele>210</ele>
        <time>2007-03-04T09:38:17Z</time>
      </trkpt>
      <trkpt lat="42.49679" lon="2.67918">
        <ele>211</ele>
        <time>2007-03-04T09:38:19Z</time>
      </trkpt>
      <trkpt lat="42.49667" lon="2.67947">
        <ele>212</ele>
        <time>2007-03-04T09:38:22Z</time>
      </trkpt>
      <trkpt lat="42.49653" lon="2.6797">
        <ele>212</ele>
        <time>2007-03-04T09:38:25Z</time>
      </trkpt>
      <trkpt lat="42.49631" lon="2.68">
        <ele>215</ele>
        <time>2007-03-04T09:38:30Z</time>
      </trkpt>
      <trkpt lat="42.49632" lon="2.68016">
        <ele>215</ele>
        <time>2007-03-04T09:38:32Z</time>
      </trkpt>
      <trkpt lat="42.49638" lon="2.68067">
        <ele>215</ele>
        <time>2007-03-04T09:38:39Z</time>
      </trkpt>
      <trkpt lat="42.4963" lon="2.68115">
        <ele>215</ele>
        <time>2007-03-04T09:38:46Z</time>
      </trkpt>
      <trkpt lat="42.49632" lon="2.68158">
        <ele>214</ele>
        <time>2007-03-04T09:38:52Z</time>
      </trkpt>
      <trkpt lat="42.49635" lon="2.6818">
        <ele>214</ele>
        <time>2007-03-04T09:38:55Z</time>
      </trkpt>
      <trkpt lat="42.49651" lon="2.68219">
        <ele>213</ele>
        <time>2007-03-04T09:39:00Z</time>
      </trkpt>
      <trkpt lat="42.49668" lon="2.6827">
        <ele>210</ele>
        <time>2007-03-04T09:39:06Z</time>
      </trkpt>
      <trkpt lat="42.49671" lon="2.68279">
        <ele>210</ele>
        <time>2007-03-04T09:39:07Z</time>
      </trkpt>
      <trkpt lat="42.49679" lon="2.68295">
        <ele>208</ele>
        <time>2007-03-04T09:39:09Z</time>
      </trkpt>
      <trkpt lat="42.49686" lon="2.68329">
        <ele>207</ele>
        <time>2007-03-04T09:39:13Z</time>
      </trkpt>
      <trkpt lat="42.49677" lon="2.68354">
        <ele>206</ele>
        <time>2007-03-04T09:39:16Z</time>
      </trkpt>
      <trkpt lat="42.49654" lon="2.68401">
        <ele>204</ele>
        <time>2007-03-04T09:39:22Z</time>
      </trkpt>
      <trkpt lat="42.49635" lon="2.68441">
        <ele>204</ele>
        <time>2007-03-04T09:39:28Z</time>
      </trkpt>
      <trkpt lat="42.49631" lon="2.68453">
        <ele>204</ele>
        <time>2007-03-04T09:39:30Z</time>
      </trkpt>
      <trkpt lat="42.49618" lon="2.685">
        <ele>205</ele>
        <time>2007-03-04T09:39:37Z</time>
      </trkpt>
      <trkpt lat="42.49619" lon="2.68534">
        <ele>204</ele>
        <time>2007-03-04T09:39:42Z</time>
      </trkpt>
      <trkpt lat="42.49626" lon="2.68546">
        <ele>205</ele>
        <time>2007-03-04T09:39:44Z</time>
      </trkpt>
      <trkpt lat="42.49629" lon="2.68579">
        <ele>205</ele>
        <time>2007-03-04T09:39:49Z</time>
      </trkpt>
      <trkpt lat="42.49617" lon="2.68608">
        <ele>203</ele>
        <time>2007-03-04T09:39:53Z</time>
      </trkpt>
      <trkpt lat="42.49616" lon="2.68649">
        <ele>201</ele>
        <time>2007-03-04T09:39:57Z</time>
      </trkpt>
      <trkpt lat="42.49627" lon="2.6868">
        <ele>201</ele>
        <time>2007-03-04T09:40:00Z</time>
      </trkpt>
      <trkpt lat="42.49636" lon="2.68697">
        <ele>201</ele>
        <time>2007-03-04T09:40:02Z</time>
      </trkpt>
      <trkpt lat="42.49658" lon="2.68738">
        <ele>203</ele>
        <time>2007-03-04T09:40:07Z</time>
      </trkpt>
      <trkpt lat="42.49661" lon="2.68744">
        <ele>203</ele>
        <time>2007-03-04T09:40:08Z</time>
      </trkpt>
      <trkpt lat="42.4966" lon="2.68772">
        <ele>204</ele>
        <time>2007-03-04T09:40:13Z</time>
      </trkpt>
      <trkpt lat="42.49655" lon="2.68782">
        <ele>205</ele>
        <time>2007-03-04T09:40:15Z</time>
      </trkpt>
      <trkpt lat="42.49649" lon="2.68798">
        <ele>207</ele>
        <time>2007-03-04T09:40:18Z</time>
      </trkpt>
      <trkpt lat="42.49637" lon="2.68839">
        <ele>209</ele>
        <time>2007-03-04T09:40:25Z</time>
      </trkpt>
      <trkpt lat="42.49633" lon="2.6885">
        <ele>209</ele>
        <time>2007-03-04T09:40:27Z</time>
      </trkpt>
      <trkpt lat="42.49619" lon="2.68888">
        <ele>208</ele>
        <time>2007-03-04T09:40:34Z</time>
      </trkpt>
      <trkpt lat="42.49612" lon="2.68904">
        <ele>208</ele>
        <time>2007-03-04T09:40:37Z</time>
      </trkpt>
      <trkpt lat="42.49595" lon="2.68941">
        <ele>208</ele>
        <time>2007-03-04T09:40:45Z</time>
      </trkpt>
      <trkpt lat="42.49588" lon="2.68956">
        <ele>210</ele>
        <time>2007-03-04T09:40:48Z</time>
      </trkpt>
      <trkpt lat="42.49573" lon="2.68977">
        <ele>211</ele>
        <time>2007-03-04T09:40:53Z</time>
      </trkpt>
      <trkpt lat="42.49563" lon="2.68985">
        <ele>213</ele>
        <time>2007-03-04T09:40:57Z</time>
      </trkpt>
      <trkpt lat="42.49544" lon="2.68996">
        <ele>215</ele>
        <time>2007-03-04T09:41:05Z</time>
      </trkpt>
      <trkpt lat="42.49527" lon="2.69002">
        <ele>214</ele>
        <time>2007-03-04T09:41:11Z</time>
      </trkpt>
      <trkpt lat="42.49518" lon="2.69017">
        <ele>218</ele>
        <time>2007-03-04T09:41:16Z</time>
      </trkpt>
      <trkpt lat="42.49508" lon="2.69038">
        <ele>218</ele>
        <time>2007-03-04T09:41:22Z</time>
      </trkpt>
      <trkpt lat="42.49498" lon="2.69062">
        <ele>218</ele>
        <time>2007-03-04T09:41:29Z</time>
      </trkpt>
      <trkpt lat="42.49499" lon="2.69086">
        <ele>217</ele>
        <time>2007-03-04T09:41:35Z</time>
      </trkpt>
      <trkpt lat="42.49493" lon="2.69108">
        <ele>218</ele>
        <time>2007-03-04T09:41:41Z</time>
      </trkpt>
      <trkpt lat="42.49479" lon="2.69118">
        <ele>218</ele>
        <time>2007-03-04T09:41:46Z</time>
      </trkpt>
      <trkpt lat="42.49464" lon="2.69123">
        <ele>216</ele>
        <time>2007-03-04T09:41:52Z</time>
      </trkpt>
      <trkpt lat="42.49452" lon="2.69137">
        <ele>220</ele>
        <time>2007-03-04T09:41:57Z</time>
      </trkpt>
      <trkpt lat="42.49433" lon="2.69151">
        <ele>222</ele>
        <time>2007-03-04T09:42:04Z</time>
      </trkpt>
      <trkpt lat="42.49418" lon="2.69162">
        <ele>221</ele>
        <time>2007-03-04T09:42:10Z</time>
      </trkpt>
      <trkpt lat="42.49402" lon="2.69174">
        <ele>223</ele>
        <time>2007-03-04T09:42:16Z</time>
      </trkpt>
      <trkpt lat="42.49387" lon="2.69189">
        <ele>225</ele>
        <time>2007-03-04T09:42:22Z</time>
      </trkpt>
      <trkpt lat="42.49381" lon="2.69209">
        <ele>228</ele>
        <time>2007-03-04T09:42:28Z</time>
      </trkpt>
      <trkpt lat="42.49382" lon="2.69233">
        <ele>229</ele>
        <time>2007-03-04T09:42:34Z</time>
      </trkpt>
      <trkpt lat="42.4938" lon="2.69262">
        <ele>230</ele>
        <time>2007-03-04T09:42:41Z</time>
      </trkpt>
      <trkpt lat="42.4937" lon="2.69273">
        <ele>229</ele>
        <time>2007-03-04T09:42:45Z</time>
      </trkpt>
      <trkpt lat="42.4935" lon="2.69283">
        <ele>228</ele>
        <time>2007-03-04T09:42:52Z</time>
      </trkpt>
      <trkpt lat="42.49344" lon="2.69301">
        <ele>231</ele>
        <time>2007-03-04T09:42:57Z</time>
      </trkpt>
      <trkpt lat="42.49347" lon="2.69329">
        <ele>232</ele>
        <time>2007-03-04T09:43:04Z</time>
      </trkpt>
      <trkpt lat="42.49354" lon="2.69353">
        <ele>237</ele>
        <time>2007-03-04T09:43:10Z</time>
      </trkpt>
      <trkpt lat="42.49367" lon="2.69378">
        <ele>240</ele>
        <time>2007-03-04T09:43:17Z</time>
      </trkpt>
      <trkpt lat="42.49368" lon="2.69398">
        <ele>239</ele>
        <time>2007-03-04T09:43:22Z</time>
      </trkpt>
      <trkpt lat="42.49362" lon="2.69431">
        <ele>240</ele>
        <time>2007-03-04T09:43:30Z</time>
      </trkpt>
      <trkpt lat="42.49356" lon="2.69458">
        <ele>242</ele>
        <time>2007-03-04T09:43:37Z</time>
      </trkpt>
      <trkpt lat="42.49354" lon="2.6948">
        <ele>244</ele>
        <time>2007-03-04T09:43:43Z</time>
      </trkpt>
      <trkpt lat="42.49352" lon="2.69509">
        <ele>248</ele>
        <time>2007-03-04T09:43:50Z</time>
      </trkpt>
      <trkpt lat="42.49345" lon="2.69533">
        <ele>249</ele>
        <time>2007-03-04T09:43:56Z</time>
      </trkpt>
      <trkpt lat="42.49337" lon="2.69552">
        <ele>249</ele>
        <time>2007-03-04T09:44:02Z</time>
      </trkpt>
      <trkpt lat="42.4933" lon="2.69574">
        <ele>246</ele>
        <time>2007-03-04T09:44:08Z</time>
      </trkpt>
      <trkpt lat="42.49329" lon="2.696">
        <ele>246</ele>
        <time>2007-03-04T09:44:15Z</time>
      </trkpt>
      <trkpt lat="42.49328" lon="2.69629">
        <ele>248</ele>
        <time>2007-03-04T09:44:23Z</time>
      </trkpt>
      <trkpt lat="42.49327" lon="2.69657">
        <ele>251</ele>
        <time>2007-03-04T09:44:31Z</time>
      </trkpt>
      <trkpt lat="42.49319" lon="2.6967">
        <ele>251</ele>
        <time>2007-03-04T09:44:36Z</time>
      </trkpt>
      <trkpt lat="42.49308" lon="2.69664">
        <ele>252</ele>
        <time>2007-03-04T09:44:41Z</time>
      </trkpt>
      <trkpt lat="42.493" lon="2.69643">
        <ele>254</ele>
        <time>2007-03-04T09:44:48Z</time>
      </trkpt>
      <trkpt lat="42.49294" lon="2.69619">
        <ele>255</ele>
        <time>2007-03-04T09:44:55Z</time>
      </trkpt>
      <trkpt lat="42.49294" lon="2.69592">
        <ele>259</ele>
        <time>2007-03-04T09:45:02Z</time>
      </trkpt>
      <trkpt lat="42.49299" lon="2.6957">
        <ele>261</ele>
        <time>2007-03-04T09:45:09Z</time>
      </trkpt>
      <trkpt lat="42.49299" lon="2.69552">
        <ele>261</ele>
        <time>2007-03-04T09:45:14Z</time>
      </trkpt>
      <trkpt lat="42.493" lon="2.69542">
        <ele>261</ele>
        <time>2007-03-04T09:45:17Z</time>
      </trkpt>
      <trkpt lat="42.49291" lon="2.69523">
        <ele>262</ele>
        <time>2007-03-04T09:45:23Z</time>
      </trkpt>
      <trkpt lat="42.49273" lon="2.69502">
        <ele>263</ele>
        <time>2007-03-04T09:45:32Z</time>
      </trkpt>
      <trkpt lat="42.49258" lon="2.69478">
        <ele>264</ele>
        <time>2007-03-04T09:45:41Z</time>
      </trkpt>
      <trkpt lat="42.49254" lon="2.69454">
        <ele>267</ele>
        <time>2007-03-04T09:45:48Z</time>
      </trkpt>
      <trkpt lat="42.49257" lon="2.6943">
        <ele>272</ele>
        <time>2007-03-04T09:45:55Z</time>
      </trkpt>
      <trkpt lat="42.49266" lon="2.69408">
        <ele>281</ele>
        <time>2007-03-04T09:46:02Z</time>
      </trkpt>
      <trkpt lat="42.49267" lon="2.69379">
        <ele>280</ele>
        <time>2007-03-04T09:46:10Z</time>
      </trkpt>
      <trkpt lat="42.49263" lon="2.69361">
        <ele>275</ele>
        <time>2007-03-04T09:46:15Z</time>
      </trkpt>
      <trkpt lat="42.49252" lon="2.69347">
        <ele>275</ele>
        <time>2007-03-04T09:46:20Z</time>
      </trkpt>
      <trkpt lat="42.49242" lon="2.69334">
        <ele>275</ele>
        <time>2007-03-04T09:46:25Z</time>
      </trkpt>
      <trkpt lat="42.4923" lon="2.69315">
        <ele>275</ele>
        <time>2007-03-04T09:46:32Z</time>
      </trkpt>
      <trkpt lat="42.49216" lon="2.69292">
        <ele>275</ele>
        <time>2007-03-04T09:46:41Z</time>
      </trkpt>
      <trkpt lat="42.49204" lon="2.69269">
        <ele>277</ele>
        <time>2007-03-04T09:46:49Z</time>
      </trkpt>
      <trkpt lat="42.49193" lon="2.69247">
        <ele>278</ele>
        <time>2007-03-04T09:46:56Z</time>
      </trkpt>
      <trkpt lat="42.49187" lon="2.69226">
        <ele>280</ele>
        <time>2007-03-04T09:47:02Z</time>
      </trkpt>
      <trkpt lat="42.49185" lon="2.69208">
        <ele>283</ele>
        <time>2007-03-04T09:47:07Z</time>
      </trkpt>
      <trkpt lat="42.49177" lon="2.6919">
        <ele>287</ele>
        <time>2007-03-04T09:47:13Z</time>
      </trkpt>
      <trkpt lat="42.4916" lon="2.6917">
        <ele>286</ele>
        <time>2007-03-04T09:47:21Z</time>
      </trkpt>
      <trkpt lat="42.49144" lon="2.69152">
        <ele>289</ele>
        <time>2007-03-04T09:47:30Z</time>
      </trkpt>
      <trkpt lat="42.49137" lon="2.69142">
        <ele>291</ele>
        <time>2007-03-04T09:47:35Z</time>
      </trkpt>
      <trkpt lat="42.49125" lon="2.69123">
        <ele>296</ele>
        <time>2007-03-04T09:47:42Z</time>
      </trkpt>
      <trkpt lat="42.49119" lon="2.69104">
        <ele>302</ele>
        <time>2007-03-04T09:47:49Z</time>
      </trkpt>
      <trkpt lat="42.49105" lon="2.69079">
        <ele>303</ele>
        <time>2007-03-04T09:47:57Z</time>
      </trkpt>
      <trkpt lat="42.49096" lon="2.69056">
        <ele>304</ele>
        <time>2007-03-04T09:48:04Z</time>
      </trkpt>
      <trkpt lat="42.49087" lon="2.69024">
        <ele>302</ele>
        <time>2007-03-04T09:48:13Z</time>
      </trkpt>
      <trkpt lat="42.4908" lon="2.69">
        <ele>300</ele>
        <time>2007-03-04T09:48:20Z</time>
      </trkpt>
      <trkpt lat="42.49076" lon="2.68982">
        <ele>301</ele>
        <time>2007-03-04T09:48:25Z</time>
      </trkpt>
      <trkpt lat="42.49068" lon="2.68955">
        <ele>301</ele>
        <time>2007-03-04T09:48:32Z</time>
      </trkpt>
      <trkpt lat="42.49056" lon="2.68924">
        <ele>301</ele>
        <time>2007-03-04T09:48:41Z</time>
      </trkpt>
      <trkpt lat="42.49046" lon="2.6891">
        <ele>301</ele>
        <time>2007-03-04T09:48:47Z</time>
      </trkpt>
      <trkpt lat="42.49033" lon="2.68893">
        <ele>303</ele>
        <time>2007-03-04T09:48:54Z</time>
      </trkpt>
      <trkpt lat="42.49019" lon="2.68875">
        <ele>304</ele>
        <time>2007-03-04T09:49:00Z</time>
      </trkpt>
      <trkpt lat="42.49008" lon="2.68859">
        <ele>305</ele>
        <time>2007-03-04T09:49:06Z</time>
      </trkpt>
      <trkpt lat="42.48997" lon="2.68842">
        <ele>307</ele>
        <time>2007-03-04T09:49:12Z</time>
      </trkpt>
      <trkpt lat="42.48986" lon="2.68823">
        <ele>308</ele>
        <time>2007-03-04T09:49:19Z</time>
      </trkpt>
      <trkpt lat="42.48978" lon="2.68804">
        <ele>311</ele>
        <time>2007-03-04T09:49:25Z</time>
      </trkpt>
      <trkpt lat="42.4897" lon="2.68774">
        <ele>316</ele>
        <time>2007-03-04T09:49:33Z</time>
      </trkpt>
      <trkpt lat="42.48964" lon="2.68756">
        <ele>314</ele>
        <time>2007-03-04T09:49:38Z</time>
      </trkpt>
      <trkpt lat="42.48955" lon="2.68725">
        <ele>313</ele>
        <time>2007-03-04T09:49:46Z</time>
      </trkpt>
      <trkpt lat="42.48951" lon="2.68714">
        <ele>314</ele>
        <time>2007-03-04T09:49:51Z</time>
      </trkpt>
      <trkpt lat="42.48947" lon="2.68708">
        <ele>314</ele>
        <time>2007-03-04T09:49:55Z</time>
      </trkpt>
      <trkpt lat="42.48941" lon="2.68713">
        <ele>315</ele>
        <time>2007-03-04T09:50:00Z</time>
      </trkpt>
      <trkpt lat="42.48941" lon="2.68716">
        <ele>315</ele>
        <time>2007-03-04T09:50:01Z</time>
      </trkpt>
      <trkpt lat="42.48944" lon="2.68741">
        <ele>317</ele>
        <time>2007-03-04T09:50:09Z</time>
      </trkpt>
      <trkpt lat="42.48946" lon="2.68764">
        <ele>318</ele>
        <time>2007-03-04T09:50:15Z</time>
      </trkpt>
      <trkpt lat="42.48951" lon="2.68802">
        <ele>321</ele>
        <time>2007-03-04T09:50:22Z</time>
      </trkpt>
      <trkpt lat="42.48958" lon="2.68841">
        <ele>325</ele>
        <time>2007-03-04T09:50:28Z</time>
      </trkpt>
      <trkpt lat="42.48962" lon="2.68852">
        <ele>325</ele>
        <time>2007-03-04T09:50:30Z</time>
      </trkpt>
      <trkpt lat="42.48975" lon="2.68878">
        <ele>325</ele>
        <time>2007-03-04T09:50:37Z</time>
      </trkpt>
      <trkpt lat="42.48987" lon="2.68892">
        <ele>325</ele>
        <time>2007-03-04T09:50:42Z</time>
      </trkpt>
      <trkpt lat="42.48999" lon="2.68907">
        <ele>326</ele>
        <time>2007-03-04T09:50:48Z</time>
      </trkpt>
      <trkpt lat="42.49004" lon="2.68918">
        <ele>325</ele>
        <time>2007-03-04T09:50:52Z</time>
      </trkpt>
      <trkpt lat="42.49008" lon="2.68936">
        <ele>323</ele>
        <time>2007-03-04T09:50:58Z</time>
      </trkpt>
      <trkpt lat="42.49014" lon="2.68959">
        <ele>324</ele>
        <time>2007-03-04T09:51:05Z</time>
      </trkpt>
      <trkpt lat="42.49015" lon="2.68979">
        <ele>324</ele>
        <time>2007-03-04T09:51:11Z</time>
      </trkpt>
      <trkpt lat="42.4901" lon="2.69006">
        <ele>324</ele>
        <time>2007-03-04T09:51:18Z</time>
      </trkpt>
      <trkpt lat="42.49011" lon="2.69036">
        <ele>325</ele>
        <time>2007-03-04T09:51:25Z</time>
      </trkpt>
      <trkpt lat="42.49018" lon="2.69067">
        <ele>324</ele>
        <time>2007-03-04T09:51:32Z</time>
      </trkpt>
      <trkpt lat="42.49027" lon="2.69095">
        <ele>323</ele>
        <time>2007-03-04T09:51:38Z</time>
      </trkpt>
      <trkpt lat="42.49036" lon="2.69126">
        <ele>322</ele>
        <time>2007-03-04T09:51:45Z</time>
      </trkpt>
      <trkpt lat="42.49043" lon="2.6916">
        <ele>320</ele>
        <time>2007-03-04T09:51:50Z</time>
      </trkpt>
      <trkpt lat="42.49049" lon="2.69192">
        <ele>318</ele>
        <time>2007-03-04T09:51:54Z</time>
      </trkpt>
      <trkpt lat="42.49054" lon="2.69251">
        <ele>316</ele>
        <time>2007-03-04T09:52:01Z</time>
      </trkpt>
      <trkpt lat="42.49066" lon="2.6931">
        <ele>313</ele>
        <time>2007-03-04T09:52:07Z</time>
      </trkpt>
      <trkpt lat="42.49069" lon="2.69319">
        <ele>312</ele>
        <time>2007-03-04T09:52:08Z</time>
      </trkpt>
      <trkpt lat="42.49081" lon="2.69343">
        <ele>309</ele>
        <time>2007-03-04T09:52:11Z</time>
      </trkpt>
      <trkpt lat="42.49079" lon="2.6937">
        <ele>306</ele>
        <time>2007-03-04T09:52:15Z</time>
      </trkpt>
      <trkpt lat="42.49059" lon="2.69383">
        <ele>304</ele>
        <time>2007-03-04T09:52:18Z</time>
      </trkpt>
      <trkpt lat="42.49039" lon="2.69381">
        <ele>301</ele>
        <time>2007-03-04T09:52:22Z</time>
      </trkpt>
      <trkpt lat="42.49029" lon="2.69352">
        <ele>295</ele>
        <time>2007-03-04T09:52:25Z</time>
      </trkpt>
      <trkpt lat="42.49015" lon="2.69334">
        <ele>292</ele>
        <time>2007-03-04T09:52:28Z</time>
      </trkpt>
      <trkpt lat="42.48998" lon="2.69322">
        <ele>291</ele>
        <time>2007-03-04T09:52:31Z</time>
      </trkpt>
      <trkpt lat="42.48993" lon="2.69315">
        <ele>289</ele>
        <time>2007-03-04T09:52:32Z</time>
      </trkpt>
      <trkpt lat="42.48969" lon="2.69296">
        <ele>288</ele>
        <time>2007-03-04T09:52:37Z</time>
      </trkpt>
      <trkpt lat="42.48955" lon="2.69322">
        <ele>287</ele>
        <time>2007-03-04T09:52:40Z</time>
      </trkpt>
      <trkpt lat="42.48941" lon="2.69356">
        <ele>291</ele>
        <time>2007-03-04T09:52:44Z</time>
      </trkpt>
      <trkpt lat="42.48931" lon="2.69375">
        <ele>292</ele>
        <time>2007-03-04T09:52:46Z</time>
      </trkpt>
      <trkpt lat="42.48907" lon="2.69396">
        <ele>295</ele>
        <time>2007-03-04T09:52:50Z</time>
      </trkpt>
      <trkpt lat="42.48893" lon="2.69418">
        <ele>296</ele>
        <time>2007-03-04T09:52:53Z</time>
      </trkpt>
      <trkpt lat="42.48871" lon="2.69466">
        <ele>296</ele>
        <time>2007-03-04T09:52:58Z</time>
      </trkpt>
      <trkpt lat="42.48848" lon="2.69517">
        <ele>290</ele>
        <time>2007-03-04T09:53:04Z</time>
      </trkpt>
      <trkpt lat="42.48838" lon="2.6954">
        <ele>289</ele>
        <time>2007-03-04T09:53:07Z</time>
      </trkpt>
      <trkpt lat="42.48825" lon="2.69557">
        <ele>286</ele>
        <time>2007-03-04T09:53:10Z</time>
      </trkpt>
      <trkpt lat="42.48829" lon="2.69561">
        <ele>282</ele>
        <time>2007-03-04T09:53:14Z</time>
      </trkpt>
      <trkpt lat="42.48838" lon="2.69551">
        <ele>281</ele>
        <time>2007-03-04T09:53:16Z</time>
      </trkpt>
      <trkpt lat="42.48865" lon="2.69519">
        <ele>279</ele>
        <time>2007-03-04T09:53:21Z</time>
      </trkpt>
      <trkpt lat="42.48892" lon="2.69484">
        <ele>278</ele>
        <time>2007-03-04T09:53:26Z</time>
      </trkpt>
      <trkpt lat="42.48883" lon="2.69507">
        <ele>276</ele>
        <time>2007-03-04T09:53:29Z</time>
      </trkpt>
      <trkpt lat="42.48865" lon="2.69544">
        <ele>276</ele>
        <time>2007-03-04T09:53:33Z</time>
      </trkpt>
      <trkpt lat="42.48826" lon="2.69602">
        <ele>277</ele>
        <time>2007-03-04T09:53:39Z</time>
      </trkpt>
      <trkpt lat="42.48792" lon="2.69656">
        <ele>271</ele>
        <time>2007-03-04T09:53:44Z</time>
      </trkpt>
      <trkpt lat="42.48765" lon="2.69691">
        <ele>269</ele>
        <time>2007-03-04T09:53:48Z</time>
      </trkpt>
      <trkpt lat="42.48749" lon="2.6969">
        <ele>263</ele>
        <time>2007-03-04T09:53:52Z</time>
      </trkpt>
      <trkpt lat="42.48743" lon="2.69668">
        <ele>260</ele>
        <time>2007-03-04T09:53:54Z</time>
      </trkpt>
      <trkpt lat="42.48742" lon="2.69655">
        <ele>257</ele>
        <time>2007-03-04T09:53:55Z</time>
      </trkpt>
      <trkpt lat="42.48737" lon="2.69631">
        <ele>255</ele>
        <time>2007-03-04T09:53:57Z</time>
      </trkpt>
      <trkpt lat="42.48711" lon="2.69587">
        <ele>249</ele>
        <time>2007-03-04T09:54:02Z</time>
      </trkpt>
      <trkpt lat="42.48696" lon="2.696">
        <ele>248</ele>
        <time>2007-03-04T09:54:05Z</time>
      </trkpt>
      <trkpt lat="42.48679" lon="2.69629">
        <ele>247</ele>
        <time>2007-03-04T09:54:08Z</time>
      </trkpt>
      <trkpt lat="42.48666" lon="2.69641">
        <ele>249</ele>
        <time>2007-03-04T09:54:10Z</time>
      </trkpt>
      <trkpt lat="42.48626" lon="2.69655">
        <ele>244</ele>
        <time>2007-03-04T09:54:16Z</time>
      </trkpt>
      <trkpt lat="42.48594" lon="2.69662">
        <ele>239</ele>
        <time>2007-03-04T09:54:20Z</time>
      </trkpt>
      <trkpt lat="42.48589" lon="2.69664">
        <ele>237</ele>
        <time>2007-03-04T09:54:21Z</time>
      </trkpt>
      <trkpt lat="42.48586" lon="2.69651">
        <ele>231</ele>
        <time>2007-03-04T09:54:24Z</time>
      </trkpt>
      <trkpt lat="42.48588" lon="2.69643">
        <ele>230</ele>
        <time>2007-03-04T09:54:25Z</time>
      </trkpt>
      <trkpt lat="42.48589" lon="2.69618">
        <ele>227</ele>
        <time>2007-03-04T09:54:28Z</time>
      </trkpt>
      <trkpt lat="42.48592" lon="2.69605">
        <ele>225</ele>
        <time>2007-03-04T09:54:30Z</time>
      </trkpt>
      <trkpt lat="42.4859" lon="2.69592">
        <ele>223</ele>
        <time>2007-03-04T09:54:33Z</time>
      </trkpt>
      <trkpt lat="42.48593" lon="2.69586">
        <ele>220</ele>
        <time>2007-03-04T09:54:35Z</time>
      </trkpt>
      <trkpt lat="42.48592" lon="2.69578">
        <ele>218</ele>
        <time>2007-03-04T09:54:37Z</time>
      </trkpt>
      <trkpt lat="42.48604" lon="2.69555">
        <ele>216</ele>
        <time>2007-03-04T09:54:42Z</time>
      </trkpt>
      <trkpt lat="42.4862" lon="2.69535">
        <ele>214</ele>
        <time>2007-03-04T09:54:46Z</time>
      </trkpt>
      <trkpt lat="42.48628" lon="2.69524">
        <ele>214</ele>
        <time>2007-03-04T09:54:48Z</time>
      </trkpt>
      <trkpt lat="42.48642" lon="2.69508">
        <ele>211</ele>
        <time>2007-03-04T09:54:53Z</time>
      </trkpt>
      <trkpt lat="42.48636" lon="2.69493">
        <ele>211</ele>
        <time>2007-03-04T09:54:56Z</time>
      </trkpt>
      <trkpt lat="42.4863" lon="2.69469">
        <ele>211</ele>
        <time>2007-03-04T09:55:00Z</time>
      </trkpt>
      <trkpt lat="42.4863" lon="2.69453">
        <ele>212</ele>
        <time>2007-03-04T09:55:03Z</time>
      </trkpt>
      <trkpt lat="42.4862" lon="2.69439">
        <ele>208</ele>
        <time>2007-03-04T09:55:08Z</time>
      </trkpt>
      <trkpt lat="42.48615" lon="2.69433">
        <ele>208</ele>
        <time>2007-03-04T09:55:10Z</time>
      </trkpt>
      <trkpt lat="42.48617" lon="2.69414">
        <ele>207</ele>
        <time>2007-03-04T09:55:14Z</time>
      </trkpt>
      <trkpt lat="42.48623" lon="2.69399">
        <ele>203</ele>
        <time>2007-03-04T09:55:18Z</time>
      </trkpt>
      <trkpt lat="42.48616" lon="2.69374">
        <ele>198</ele>
        <time>2007-03-04T09:55:23Z</time>
      </trkpt>
      <trkpt lat="42.48619" lon="2.69362">
        <ele>199</ele>
        <time>2007-03-04T09:55:25Z</time>
      </trkpt>
      <trkpt lat="42.48622" lon="2.69334">
        <ele>197</ele>
        <time>2007-03-04T09:55:29Z</time>
      </trkpt>
      <trkpt lat="42.48632" lon="2.69308">
        <ele>201</ele>
        <time>2007-03-04T09:55:34Z</time>
      </trkpt>
      <trkpt lat="42.48633" lon="2.69303">
        <ele>202</ele>
        <time>2007-03-04T09:55:35Z</time>
      </trkpt>
      <trkpt lat="42.48635" lon="2.69281">
        <ele>200</ele>
        <time>2007-03-04T09:55:40Z</time>
      </trkpt>
      <trkpt lat="42.48636" lon="2.69271">
        <ele>200</ele>
        <time>2007-03-04T09:55:45Z</time>
      </trkpt>
      <trkpt lat="42.48637" lon="2.69265">
        <ele>200</ele>
        <time>2007-03-04T09:55:49Z</time>
      </trkpt>
      <trkpt lat="42.48637" lon="2.69262">
        <ele>202</ele>
        <time>2007-03-04T09:55:51Z</time>
      </trkpt>
      <trkpt lat="42.48634" lon="2.69245">
        <ele>203</ele>
        <time>2007-03-04T09:55:57Z</time>
      </trkpt>
      <trkpt lat="42.48638" lon="2.69224">
        <ele>205</ele>
        <time>2007-03-04T09:56:03Z</time>
      </trkpt>
      <trkpt lat="42.48636" lon="2.692">
        <ele>206</ele>
        <time>2007-03-04T09:56:07Z</time>
      </trkpt>
      <trkpt lat="42.48638" lon="2.69179">
        <ele>202</ele>
        <time>2007-03-04T09:56:11Z</time>
      </trkpt>
      <trkpt lat="42.48638" lon="2.69145">
        <ele>206</ele>
        <time>2007-03-04T09:56:17Z</time>
      </trkpt>
      <trkpt lat="42.48643" lon="2.69119">
        <ele>198</ele>
        <time>2007-03-04T09:56:21Z</time>
      </trkpt>
      <trkpt lat="42.48644" lon="2.69112">
        <ele>194</ele>
        <time>2007-03-04T09:56:22Z</time>
      </trkpt>
      <trkpt lat="42.48654" lon="2.69081">
        <ele>186</ele>
        <time>2007-03-04T09:56:27Z</time>
      </trkpt>
      <trkpt lat="42.4866" lon="2.69064">
        <ele>187</ele>
        <time>2007-03-04T09:56:30Z</time>
      </trkpt>
      <trkpt lat="42.48661" lon="2.6903">
        <ele>190</ele>
        <time>2007-03-04T09:56:36Z</time>
      </trkpt>
      <trkpt lat="42.48666" lon="2.69004">
        <ele>190</ele>
        <time>2007-03-04T09:56:41Z</time>
      </trkpt>
      <trkpt lat="42.48649" lon="2.68973">
        <ele>189</ele>
        <time>2007-03-04T09:56:45Z</time>
      </trkpt>
      <trkpt lat="42.48623" lon="2.68917">
        <ele>188</ele>
        <time>2007-03-04T09:56:51Z</time>
      </trkpt>
      <trkpt lat="42.48623" lon="2.68907">
        <ele>189</ele>
        <time>2007-03-04T09:56:52Z</time>
      </trkpt>
      <trkpt lat="42.48618" lon="2.68875">
        <ele>189</ele>
        <time>2007-03-04T09:56:55Z</time>
      </trkpt>
      <trkpt lat="42.48613" lon="2.68818">
        <ele>187</ele>
        <time>2007-03-04T09:57:01Z</time>
      </trkpt>
      <trkpt lat="42.486" lon="2.68783">
        <ele>189</ele>
        <time>2007-03-04T09:57:06Z</time>
      </trkpt>
      <trkpt lat="42.48583" lon="2.68732">
        <ele>186</ele>
        <time>2007-03-04T09:57:13Z</time>
      </trkpt>
      <trkpt lat="42.48579" lon="2.68718">
        <ele>187</ele>
        <time>2007-03-04T09:57:15Z</time>
      </trkpt>
      <trkpt lat="42.4858" lon="2.68685">
        <ele>185</ele>
        <time>2007-03-04T09:57:20Z</time>
      </trkpt>
      <trkpt lat="42.48591" lon="2.68676">
        <ele>186</ele>
        <time>2007-03-04T09:57:23Z</time>
      </trkpt>
      <trkpt lat="42.48595" lon="2.68674">
        <ele>187</ele>
        <time>2007-03-04T09:57:24Z</time>
      </trkpt>
      <trkpt lat="42.48611" lon="2.68653">
        <ele>190</ele>
        <time>2007-03-04T09:57:29Z</time>
      </trkpt>
      <trkpt lat="42.48613" lon="2.6864">
        <ele>190</ele>
        <time>2007-03-04T09:57:31Z</time>
      </trkpt>
      <trkpt lat="42.48609" lon="2.68597">
        <ele>190</ele>
        <time>2007-03-04T09:57:38Z</time>
      </trkpt>
      <trkpt lat="42.48607" lon="2.68586">
        <ele>191</ele>
        <time>2007-03-04T09:57:40Z</time>
      </trkpt>
      <trkpt lat="42.48605" lon="2.68574">
        <ele>192</ele>
        <time>2007-03-04T09:57:42Z</time>
      </trkpt>
      <trkpt lat="42.48591" lon="2.68526">
        <ele>190</ele>
        <time>2007-03-04T09:57:51Z</time>
      </trkpt>
      <trkpt lat="42.48584" lon="2.685">
        <ele>190</ele>
        <time>2007-03-04T09:57:58Z</time>
      </trkpt>
      <trkpt lat="42.48583" lon="2.68473">
        <ele>190</ele>
        <time>2007-03-04T09:58:05Z</time>
      </trkpt>
      <trkpt lat="42.48581" lon="2.68443">
        <ele>190</ele>
        <time>2007-03-04T09:58:12Z</time>
      </trkpt>
      <trkpt lat="42.48578" lon="2.68416">
        <ele>191</ele>
        <time>2007-03-04T09:58:18Z</time>
      </trkpt>
      <trkpt lat="42.48569" lon="2.68377">
        <ele>190</ele>
        <time>2007-03-04T09:58:27Z</time>
      </trkpt>
      <trkpt lat="42.48562" lon="2.68347">
        <ele>190</ele>
        <time>2007-03-04T09:58:33Z</time>
      </trkpt>
      <trkpt lat="42.48548" lon="2.68294">
        <ele>190</ele>
        <time>2007-03-04T09:58:44Z</time>
      </trkpt>
      <trkpt lat="42.48531" lon="2.68233">
        <ele>192</ele>
        <time>2007-03-04T09:58:56Z</time>
      </trkpt>
      <trkpt lat="42.48516" lon="2.68183">
        <ele>192</ele>
        <time>2007-03-04T09:59:06Z</time>
      </trkpt>
      <trkpt lat="42.48511" lon="2.68139">
        <ele>193</ele>
        <time>2007-03-04T09:59:13Z</time>
      </trkpt>
      <trkpt lat="42.48504" lon="2.681">
        <ele>194</ele>
        <time>2007-03-04T09:59:19Z</time>
      </trkpt>
      <trkpt lat="42.48503" lon="2.68093">
        <ele>193</ele>
        <time>2007-03-04T09:59:20Z</time>
      </trkpt>
      <trkpt lat="42.48505" lon="2.68056">
        <ele>195</ele>
        <time>2007-03-04T09:59:26Z</time>
      </trkpt>
      <trkpt lat="42.48508" lon="2.68041">
        <ele>195</ele>
        <time>2007-03-04T09:59:29Z</time>
      </trkpt>
      <trkpt lat="42.4851" lon="2.68005">
        <ele>195</ele>
        <time>2007-03-04T09:59:36Z</time>
      </trkpt>
      <trkpt lat="42.48504" lon="2.67969">
        <ele>194</ele>
        <time>2007-03-04T09:59:43Z</time>
      </trkpt>
      <trkpt lat="42.48491" lon="2.67921">
        <ele>196</ele>
        <time>2007-03-04T09:59:52Z</time>
      </trkpt>
      <trkpt lat="42.48479" lon="2.67874">
        <ele>195</ele>
        <time>2007-03-04T10:00:01Z</time>
      </trkpt>
      <trkpt lat="42.48469" lon="2.67823">
        <ele>196</ele>
        <time>2007-03-04T10:00:10Z</time>
      </trkpt>
      <trkpt lat="42.48468" lon="2.67818">
        <ele>195</ele>
        <time>2007-03-04T10:00:11Z</time>
      </trkpt>
      <trkpt lat="42.48457" lon="2.67771">
        <ele>197</ele>
        <time>2007-03-04T10:00:19Z</time>
      </trkpt>
      <trkpt lat="42.48444" lon="2.67715">
        <ele>197</ele>
        <time>2007-03-04T10:00:28Z</time>
      </trkpt>
      <trkpt lat="42.48435" lon="2.67689">
        <ele>196</ele>
        <time>2007-03-04T10:00:32Z</time>
      </trkpt>
      <trkpt lat="42.48415" lon="2.67659">
        <ele>195</ele>
        <time>2007-03-04T10:00:38Z</time>
      </trkpt>
      <trkpt lat="42.48409" lon="2.6765">
        <ele>195</ele>
        <time>2007-03-04T10:00:40Z</time>
      </trkpt>
      <trkpt lat="42.48404" lon="2.67638">
        <ele>194</ele>
        <time>2007-03-04T10:00:42Z</time>
      </trkpt>
      <trkpt lat="42.48382" lon="2.6759">
        <ele>194</ele>
        <time>2007-03-04T10:00:50Z</time>
      </trkpt>
      <trkpt lat="42.48363" lon="2.6755">
        <ele>195</ele>
        <time>2007-03-04T10:00:57Z</time>
      </trkpt>
      <trkpt lat="42.48343" lon="2.67509">
        <ele>195</ele>
        <time>2007-03-04T10:01:04Z</time>
      </trkpt>
      <trkpt lat="42.48334" lon="2.67489">
        <ele>196</ele>
        <time>2007-03-04T10:01:08Z</time>
      </trkpt>
      <trkpt lat="42.48314" lon="2.67447">
        <ele>197</ele>
        <time>2007-03-04T10:01:16Z</time>
      </trkpt>
      <trkpt lat="42.48292" lon="2.67399">
        <ele>197</ele>
        <time>2007-03-04T10:01:25Z</time>
      </trkpt>
      <trkpt lat="42.48278" lon="2.67367">
        <ele>197</ele>
        <time>2007-03-04T10:01:31Z</time>
      </trkpt>
      <trkpt lat="42.4826" lon="2.6733">
        <ele>197</ele>
        <time>2007-03-04T10:01:38Z</time>
      </trkpt>
      <trkpt lat="42.48234" lon="2.67278">
        <ele>199</ele>
        <time>2007-03-04T10:01:48Z</time>
      </trkpt>
      <trkpt lat="42.48202" lon="2.67236">
        <ele>199</ele>
        <time>2007-03-04T10:01:58Z</time>
      </trkpt>
      <trkpt lat="42.48177" lon="2.67214">
        <ele>199</ele>
        <time>2007-03-04T10:02:05Z</time>
      </trkpt>
      <trkpt lat="42.48148" lon="2.67197">
        <ele>199</ele>
        <time>2007-03-04T10:02:13Z</time>
      </trkpt>
      <trkpt lat="42.48125" lon="2.67188">
        <ele>198</ele>
        <time>2007-03-04T10:02:20Z</time>
      </trkpt>
      <trkpt lat="42.48105" lon="2.67184">
        <ele>199</ele>
        <time>2007-03-04T10:02:26Z</time>
      </trkpt>
      <trkpt lat="42.481" lon="2.67182">
        <ele>198</ele>
        <time>2007-03-04T10:02:28Z</time>
      </trkpt>
      <trkpt lat="42.48099" lon="2.67186">
        <ele>199</ele>
        <time>2007-03-04T10:02:32Z</time>
      </trkpt>
      <trkpt lat="42.48102" lon="2.67187">
        <ele>199</ele>
        <time>2007-03-04T10:02:33Z</time>
      </trkpt>
      <trkpt lat="42.48118" lon="2.67189">
        <ele>201</ele>
        <time>2007-03-04T10:02:40Z</time>
      </trkpt>
      <trkpt lat="42.4812" lon="2.67189">
        <ele>201</ele>
        <time>2007-03-04T10:02:41Z</time>
      </trkpt>
      <trkpt lat="42.48117" lon="2.67185">
        <ele>202</ele>
        <time>2007-03-04T10:02:46Z</time>
      </trkpt>
      <trkpt lat="42.48093" lon="2.67181">
        <ele>202</ele>
        <time>2007-03-04T10:02:53Z</time>
      </trkpt>
      <trkpt lat="42.48071" lon="2.67177">
        <ele>201</ele>
        <time>2007-03-04T10:02:58Z</time>
      </trkpt>
      <trkpt lat="42.48036" lon="2.67176">
        <ele>200</ele>
        <time>2007-03-04T10:03:05Z</time>
      </trkpt>
      <trkpt lat="42.47999" lon="2.67175">
        <ele>200</ele>
        <time>2007-03-04T10:03:13Z</time>
      </trkpt>
      <trkpt lat="42.47964" lon="2.67179">
        <ele>203</ele>
        <time>2007-03-04T10:03:21Z</time>
      </trkpt>
      <trkpt lat="42.47934" lon="2.67188">
        <ele>205</ele>
        <time>2007-03-04T10:03:28Z</time>
      </trkpt>
      <trkpt lat="42.47896" lon="2.67205">
        <ele>204</ele>
        <time>2007-03-04T10:03:38Z</time>
      </trkpt>
      <trkpt lat="42.4787" lon="2.67218">
        <ele>202</ele>
        <time>2007-03-04T10:03:45Z</time>
      </trkpt>
      <trkpt lat="42.47842" lon="2.67234">
        <ele>200</ele>
        <time>2007-03-04T10:03:53Z</time>
      </trkpt>
      <trkpt lat="42.47817" lon="2.67244">
        <ele>199</ele>
        <time>2007-03-04T10:04:00Z</time>
      </trkpt>
      <trkpt lat="42.47791" lon="2.67255">
        <ele>201</ele>
        <time>2007-03-04T10:04:07Z</time>
      </trkpt>
      <trkpt lat="42.47758" lon="2.67269">
        <ele>204</ele>
        <time>2007-03-04T10:04:16Z</time>
      </trkpt>
      <trkpt lat="42.47731" lon="2.67283">
        <ele>207</ele>
        <time>2007-03-04T10:04:23Z</time>
      </trkpt>
      <trkpt lat="42.47696" lon="2.67298">
        <ele>212</ele>
        <time>2007-03-04T10:04:33Z</time>
      </trkpt>
      <trkpt lat="42.47672" lon="2.67316">
        <ele>212</ele>
        <time>2007-03-04T10:04:41Z</time>
      </trkpt>
      <trkpt lat="42.47658" lon="2.67342">
        <ele>209</ele>
        <time>2007-03-04T10:04:48Z</time>
      </trkpt>
      <trkpt lat="42.47645" lon="2.67372">
        <ele>211</ele>
        <time>2007-03-04T10:04:56Z</time>
      </trkpt>
      <trkpt lat="42.47627" lon="2.67387">
        <ele>215</ele>
        <time>2007-03-04T10:05:02Z</time>
      </trkpt>
      <trkpt lat="42.47601" lon="2.67396">
        <ele>215</ele>
        <time>2007-03-04T10:05:09Z</time>
      </trkpt>
      <trkpt lat="42.47556" lon="2.67405">
        <ele>223</ele>
        <time>2007-03-04T10:05:19Z</time>
      </trkpt>
      <trkpt lat="42.47515" lon="2.67414">
        <ele>222</ele>
        <time>2007-03-04T10:05:29Z</time>
      </trkpt>
      <trkpt lat="42.47481" lon="2.67425">
        <ele>215</ele>
        <time>2007-03-04T10:05:38Z</time>
      </trkpt>
      <trkpt lat="42.4746" lon="2.67425">
        <ele>215</ele>
        <time>2007-03-04T10:05:43Z</time>
      </trkpt>
      <trkpt lat="42.47436" lon="2.67411">
        <ele>211</ele>
        <time>2007-03-04T10:05:50Z</time>
      </trkpt>
      <trkpt lat="42.47425" lon="2.67393">
        <ele>213</ele>
        <time>2007-03-04T10:05:55Z</time>
      </trkpt>
      <trkpt lat="42.47412" lon="2.67363">
        <ele>221</ele>
        <time>2007-03-04T10:06:04Z</time>
      </trkpt>
      <trkpt lat="42.47405" lon="2.67343">
        <ele>221</ele>
        <time>2007-03-04T10:06:09Z</time>
      </trkpt>
      <trkpt lat="42.47409" lon="2.67324">
        <ele>222</ele>
        <time>2007-03-04T10:06:14Z</time>
      </trkpt>
      <trkpt lat="42.47424" lon="2.67306">
        <ele>221</ele>
        <time>2007-03-04T10:06:21Z</time>
      </trkpt>
      <trkpt lat="42.47428" lon="2.67287">
        <ele>221</ele>
        <time>2007-03-04T10:06:26Z</time>
      </trkpt>
      <trkpt lat="42.47423" lon="2.67261">
        <ele>222</ele>
        <time>2007-03-04T10:06:32Z</time>
      </trkpt>
      <trkpt lat="42.47416" lon="2.67222">
        <ele>224</ele>
        <time>2007-03-04T10:06:40Z</time>
      </trkpt>
      <trkpt lat="42.47425" lon="2.67184">
        <ele>225</ele>
        <time>2007-03-04T10:06:48Z</time>
      </trkpt>
      <trkpt lat="42.47431" lon="2.67146">
        <ele>230</ele>
        <time>2007-03-04T10:06:56Z</time>
      </trkpt>
      <trkpt lat="42.47441" lon="2.67109">
        <ele>229</ele>
        <time>2007-03-04T10:07:05Z</time>
      </trkpt>
      <trkpt lat="42.47441" lon="2.67095">
        <ele>230</ele>
        <time>2007-03-04T10:07:09Z</time>
      </trkpt>
      <trkpt lat="42.47445" lon="2.67082">
        <ele>229</ele>
        <time>2007-03-04T10:07:15Z</time>
      </trkpt>
      <trkpt lat="42.47451" lon="2.67058">
        <ele>230</ele>
        <time>2007-03-04T10:07:20Z</time>
      </trkpt>
      <trkpt lat="42.4745" lon="2.67034">
        <ele>230</ele>
        <time>2007-03-04T10:07:24Z</time>
      </trkpt>
      <trkpt lat="42.4745" lon="2.67026">
        <ele>230</ele>
        <time>2007-03-04T10:07:25Z</time>
      </trkpt>
      <trkpt lat="42.47464" lon="2.66985">
        <ele>229</ele>
        <time>2007-03-04T10:07:31Z</time>
      </trkpt>
      <trkpt lat="42.4748" lon="2.6695">
        <ele>231</ele>
        <time>2007-03-04T10:07:36Z</time>
      </trkpt>
      <trkpt lat="42.47495" lon="2.66914">
        <ele>232</ele>
        <time>2007-03-04T10:07:42Z</time>
      </trkpt>
      <trkpt lat="42.47513" lon="2.66885">
        <ele>232</ele>
        <time>2007-03-04T10:07:48Z</time>
      </trkpt>
      <trkpt lat="42.47532" lon="2.66854">
        <ele>229</ele>
        <time>2007-03-04T10:07:55Z</time>
      </trkpt>
      <trkpt lat="42.47535" lon="2.6685">
        <ele>229</ele>
        <time>2007-03-04T10:07:56Z</time>
      </trkpt>
      <trkpt lat="42.47549" lon="2.66827">
        <ele>232</ele>
        <time>2007-03-04T10:08:01Z</time>
      </trkpt>
      <trkpt lat="42.47561" lon="2.66802">
        <ele>229</ele>
        <time>2007-03-04T10:08:06Z</time>
      </trkpt>
      <trkpt lat="42.47566" lon="2.66792">
        <ele>228</ele>
        <time>2007-03-04T10:08:08Z</time>
      </trkpt>
      <trkpt lat="42.47579" lon="2.66772">
        <ele>231</ele>
        <time>2007-03-04T10:08:12Z</time>
      </trkpt>
      <trkpt lat="42.47584" lon="2.66761">
        <ele>232</ele>
        <time>2007-03-04T10:08:14Z</time>
      </trkpt>
      <trkpt lat="42.4759" lon="2.66738">
        <ele>233</ele>
        <time>2007-03-04T10:08:18Z</time>
      </trkpt>
      <trkpt lat="42.47605" lon="2.66676">
        <ele>231</ele>
        <time>2007-03-04T10:08:29Z</time>
      </trkpt>
      <trkpt lat="42.47607" lon="2.66619">
        <ele>230</ele>
        <time>2007-03-04T10:08:39Z</time>
      </trkpt>
      <trkpt lat="42.47603" lon="2.66568">
        <ele>235</ele>
        <time>2007-03-04T10:08:48Z</time>
      </trkpt>
      <trkpt lat="42.47595" lon="2.66524">
        <ele>234</ele>
        <time>2007-03-04T10:08:56Z</time>
      </trkpt>
      <trkpt lat="42.47583" lon="2.66476">
        <ele>232</ele>
        <time>2007-03-04T10:09:05Z</time>
      </trkpt>
      <trkpt lat="42.47582" lon="2.66471">
        <ele>232</ele>
        <time>2007-03-04T10:09:06Z</time>
      </trkpt>
      <trkpt lat="42.4756" lon="2.66421">
        <ele>232</ele>
        <time>2007-03-04T10:09:16Z</time>
      </trkpt>
      <trkpt lat="42.47548" lon="2.66397">
        <ele>232</ele>
        <time>2007-03-04T10:09:21Z</time>
      </trkpt>
      <trkpt lat="42.47531" lon="2.66388">
        <ele>231</ele>
        <time>2007-03-04T10:09:26Z</time>
      </trkpt>
      <trkpt lat="42.47524" lon="2.66394">
        <ele>231</ele>
        <time>2007-03-04T10:09:28Z</time>
      </trkpt>
      <trkpt lat="42.4749" lon="2.66436">
        <ele>229</ele>
        <time>2007-03-04T10:09:39Z</time>
      </trkpt>
      <trkpt lat="42.47487" lon="2.66439">
        <ele>229</ele>
        <time>2007-03-04T10:09:40Z</time>
      </trkpt>
      <trkpt lat="42.47473" lon="2.66442">
        <ele>229</ele>
        <time>2007-03-04T10:09:45Z</time>
      </trkpt>
      <trkpt lat="42.47449" lon="2.66402">
        <ele>230</ele>
        <time>2007-03-04T10:09:54Z</time>
      </trkpt>
      <trkpt lat="42.47425" lon="2.66362">
        <ele>231</ele>
        <time>2007-03-04T10:10:03Z</time>
      </trkpt>
      <trkpt lat="42.47408" lon="2.66338">
        <ele>230</ele>
        <time>2007-03-04T10:10:09Z</time>
      </trkpt>
      <trkpt lat="42.47395" lon="2.66325">
        <ele>233</ele>
        <time>2007-03-04T10:10:13Z</time>
      </trkpt>
      <trkpt lat="42.47384" lon="2.66316">
        <ele>234</ele>
        <time>2007-03-04T10:10:16Z</time>
      </trkpt>
      <trkpt lat="42.47377" lon="2.66312">
        <ele>234</ele>
        <time>2007-03-04T10:10:18Z</time>
      </trkpt>
      <trkpt lat="42.47357" lon="2.66302">
        <ele>235</ele>
        <time>2007-03-04T10:10:24Z</time>
      </trkpt>
      <trkpt lat="42.47351" lon="2.66303">
        <ele>234</ele>
        <time>2007-03-04T10:10:26Z</time>
      </trkpt>
      <trkpt lat="42.4734" lon="2.66302">
        <ele>231</ele>
        <time>2007-03-04T10:10:32Z</time>
      </trkpt>
      <trkpt lat="42.47338" lon="2.66302">
        <ele>231</ele>
        <time>2007-03-04T10:10:34Z</time>
      </trkpt>
      <trkpt lat="42.47329" lon="2.66301">
        <ele>231</ele>
        <time>2007-03-04T10:10:39Z</time>
      </trkpt>
      <trkpt lat="42.4732" lon="2.66294">
        <ele>234</ele>
        <time>2007-03-04T10:10:42Z</time>
      </trkpt>
      <trkpt lat="42.47316" lon="2.66292">
        <ele>235</ele>
        <time>2007-03-04T10:10:43Z</time>
      </trkpt>
      <trkpt lat="42.47287" lon="2.66272">
        <ele>235</ele>
        <time>2007-03-04T10:10:49Z</time>
      </trkpt>
      <trkpt lat="42.47256" lon="2.66251">
        <ele>235</ele>
        <time>2007-03-04T10:10:55Z</time>
      </trkpt>
      <trkpt lat="42.47234" lon="2.66239">
        <ele>236</ele>
        <time>2007-03-04T10:11:01Z</time>
      </trkpt>
      <trkpt lat="42.47231" lon="2.66237">
        <ele>236</ele>
        <time>2007-03-04T10:11:02Z</time>
      </trkpt>
      <trkpt lat="42.47204" lon="2.66224">
        <ele>235</ele>
        <time>2007-03-04T10:11:11Z</time>
      </trkpt>
      <trkpt lat="42.47179" lon="2.66216">
        <ele>235</ele>
        <time>2007-03-04T10:11:19Z</time>
      </trkpt>
      <trkpt lat="42.47158" lon="2.66207">
        <ele>236</ele>
        <time>2007-03-04T10:11:26Z</time>
      </trkpt>
      <trkpt lat="42.47139" lon="2.66203">
        <ele>235</ele>
        <time>2007-03-04T10:11:34Z</time>
      </trkpt>
      <trkpt lat="42.47131" lon="2.66212">
        <ele>235</ele>
        <time>2007-03-04T10:11:40Z</time>
      </trkpt>
      <trkpt lat="42.4713" lon="2.66214">
        <ele>235</ele>
        <time>2007-03-04T10:11:41Z</time>
      </trkpt>
      <trkpt lat="42.47135" lon="2.66228">
        <ele>233</ele>
        <time>2007-03-04T10:11:46Z</time>
      </trkpt>
      <trkpt lat="42.47133" lon="2.66241">
        <ele>235</ele>
        <time>2007-03-04T10:11:50Z</time>
      </trkpt>
      <trkpt lat="42.47121" lon="2.6624">
        <ele>240</ele>
        <time>2007-03-04T10:11:54Z</time>
      </trkpt>
      <trkpt lat="42.47119" lon="2.66241">
        <ele>241</ele>
        <time>2007-03-04T10:11:55Z</time>
      </trkpt>
      <trkpt lat="42.47116" lon="2.66242">
        <ele>242</ele>
        <time>2007-03-04T10:11:57Z</time>
      </trkpt>
    </trkseg>
  </trk>
</gpx>